<?xml version="1.0" encoding="UTF-8" standalone="no" ?>
<gpx xmlns="http://www.topografix.com/GPX/1/1" xmlns:xsi="http://www.w3.org/2001/XMLSchema-instance" xsi:schemaLocation="http://www.topografix.com/GPX/1/1 http://www.topografix.com/GPX/1/1/gpx.xsd" version="1.1" creator="VisuGPX - https://www.visugpx.com">
  <metadata>
    <name>Gr 20 étape 8</name>
    <desc><![CDATA[De Onda à Vizzavona]]></desc>
  </metadata>
  <trk>
    <name><![CDATA[2015-09-11 14:33:01]]></name>
    <trkseg>
      <trkpt lat="42.15353" lon="9.07387">
        <ele>1353.19</ele>
        <time>2015-09-11T05:10:37Z</time>
      </trkpt>
      <trkpt lat="42.15337" lon="9.07398">
        <ele>1353.19</ele>
        <time>2015-09-11T05:11:08Z</time>
      </trkpt>
      <trkpt lat="42.15339" lon="9.07386">
        <ele>1353.19</ele>
        <time>2015-09-11T05:11:45Z</time>
      </trkpt>
      <trkpt lat="42.15346" lon="9.0739">
        <ele>1353.19</ele>
        <time>2015-09-11T05:12:18Z</time>
      </trkpt>
      <trkpt lat="42.15338" lon="9.07384">
        <ele>1353.19</ele>
        <time>2015-09-11T05:12:52Z</time>
      </trkpt>
      <trkpt lat="42.15329" lon="9.07376">
        <ele>1353.19</ele>
        <time>2015-09-11T05:13:26Z</time>
      </trkpt>
      <trkpt lat="42.15329" lon="9.07377">
        <ele>1353.19</ele>
        <time>2015-09-11T05:13:51Z</time>
      </trkpt>
      <trkpt lat="42.15331" lon="9.07386">
        <ele>1353.19</ele>
        <time>2015-09-11T05:14:16Z</time>
      </trkpt>
      <trkpt lat="42.15337" lon="9.07387">
        <ele>1353.19</ele>
        <time>2015-09-11T05:14:49Z</time>
      </trkpt>
      <trkpt lat="42.15342" lon="9.07398">
        <ele>1353.19</ele>
        <time>2015-09-11T05:15:20Z</time>
      </trkpt>
      <trkpt lat="42.15337" lon="9.07393">
        <ele>1353.19</ele>
        <time>2015-09-11T05:15:49Z</time>
      </trkpt>
      <trkpt lat="42.15337" lon="9.07389">
        <ele>1353.19</ele>
        <time>2015-09-11T05:16:21Z</time>
      </trkpt>
      <trkpt lat="42.15342" lon="9.07391">
        <ele>1353.19</ele>
        <time>2015-09-11T05:16:52Z</time>
      </trkpt>
      <trkpt lat="42.15336" lon="9.07387">
        <ele>1353.19</ele>
        <time>2015-09-11T05:17:26Z</time>
      </trkpt>
      <trkpt lat="42.15338" lon="9.07387">
        <ele>1353.19</ele>
        <time>2015-09-11T05:17:58Z</time>
      </trkpt>
      <trkpt lat="42.15336" lon="9.07384">
        <ele>1353.19</ele>
        <time>2015-09-11T05:18:28Z</time>
      </trkpt>
      <trkpt lat="42.15337" lon="9.07387">
        <ele>1353.19</ele>
        <time>2015-09-11T05:19:00Z</time>
      </trkpt>
      <trkpt lat="42.1534" lon="9.07388">
        <ele>1353.19</ele>
        <time>2015-09-11T05:19:31Z</time>
      </trkpt>
      <trkpt lat="42.15337" lon="9.07386">
        <ele>1353.19</ele>
        <time>2015-09-11T05:20:03Z</time>
      </trkpt>
      <trkpt lat="42.15338" lon="9.0739">
        <ele>1353.19</ele>
        <time>2015-09-11T05:20:18Z</time>
      </trkpt>
      <trkpt lat="42.15338" lon="9.07394">
        <ele>1353.19</ele>
        <time>2015-09-11T05:20:21Z</time>
      </trkpt>
      <trkpt lat="42.15342" lon="9.07414">
        <ele>1353.19</ele>
        <time>2015-09-11T05:20:50Z</time>
      </trkpt>
      <trkpt lat="42.15334" lon="9.07398">
        <ele>1353.19</ele>
        <time>2015-09-11T05:21:17Z</time>
      </trkpt>
      <trkpt lat="42.15322" lon="9.07387">
        <ele>1353.19</ele>
        <time>2015-09-11T05:21:37Z</time>
      </trkpt>
      <trkpt lat="42.15323" lon="9.07387">
        <ele>1353.19</ele>
        <time>2015-09-11T05:21:41Z</time>
      </trkpt>
      <trkpt lat="42.15324" lon="9.07389">
        <ele>1353.19</ele>
        <time>2015-09-11T05:21:43Z</time>
      </trkpt>
      <trkpt lat="42.15325" lon="9.07395">
        <ele>1351.75</ele>
        <time>2015-09-11T05:21:47Z</time>
      </trkpt>
      <trkpt lat="42.15335" lon="9.07411">
        <ele>1348.39</ele>
        <time>2015-09-11T05:21:57Z</time>
      </trkpt>
      <trkpt lat="42.15336" lon="9.07415">
        <ele>1351.27</ele>
        <time>2015-09-11T05:22:08Z</time>
      </trkpt>
      <trkpt lat="42.1534" lon="9.07419">
        <ele>1356.08</ele>
        <time>2015-09-11T05:22:13Z</time>
      </trkpt>
      <trkpt lat="42.15341" lon="9.07422">
        <ele>1359.44</ele>
        <time>2015-09-11T05:22:18Z</time>
      </trkpt>
      <trkpt lat="42.15341" lon="9.07421">
        <ele>1362.81</ele>
        <time>2015-09-11T05:22:23Z</time>
      </trkpt>
      <trkpt lat="42.1534" lon="9.0742">
        <ele>1366.65</ele>
        <time>2015-09-11T05:22:29Z</time>
      </trkpt>
      <trkpt lat="42.1534" lon="9.0742">
        <ele>1366.65</ele>
        <time>2015-09-11T05:22:30Z</time>
      </trkpt>
      <trkpt lat="42.15343" lon="9.07418">
        <ele>1369.54</ele>
        <time>2015-09-11T05:22:52Z</time>
      </trkpt>
      <trkpt lat="42.15353" lon="9.07425">
        <ele>1369.54</ele>
        <time>2015-09-11T05:23:11Z</time>
      </trkpt>
      <trkpt lat="42.15352" lon="9.07425">
        <ele>1369.54</ele>
        <time>2015-09-11T05:23:36Z</time>
      </trkpt>
      <trkpt lat="42.15353" lon="9.07423">
        <ele>1369.54</ele>
        <time>2015-09-11T05:23:58Z</time>
      </trkpt>
      <trkpt lat="42.15353" lon="9.07423">
        <ele>1369.54</ele>
        <time>2015-09-11T05:24:12Z</time>
      </trkpt>
      <trkpt lat="42.15346" lon="9.07424">
        <ele>1370.02</ele>
        <time>2015-09-11T05:24:34Z</time>
      </trkpt>
      <trkpt lat="42.15345" lon="9.07426">
        <ele>1370.5</ele>
        <time>2015-09-11T05:25:02Z</time>
      </trkpt>
      <trkpt lat="42.15347" lon="9.07424">
        <ele>1369.54</ele>
        <time>2015-09-11T05:25:37Z</time>
      </trkpt>
      <trkpt lat="42.15338" lon="9.07425">
        <ele>1370.5</ele>
        <time>2015-09-11T05:25:44Z</time>
      </trkpt>
      <trkpt lat="42.15332" lon="9.07423">
        <ele>1370.98</ele>
        <time>2015-09-11T05:26:01Z</time>
      </trkpt>
      <trkpt lat="42.15332" lon="9.07417">
        <ele>1370.98</ele>
        <time>2015-09-11T05:26:15Z</time>
      </trkpt>
      <trkpt lat="42.15332" lon="9.07417">
        <ele>1370.98</ele>
        <time>2015-09-11T05:26:34Z</time>
      </trkpt>
      <trkpt lat="42.1533" lon="9.07421">
        <ele>1370.98</ele>
        <time>2015-09-11T05:26:54Z</time>
      </trkpt>
      <trkpt lat="42.15333" lon="9.07416">
        <ele>1370.98</ele>
        <time>2015-09-11T05:27:14Z</time>
      </trkpt>
      <trkpt lat="42.15344" lon="9.07431">
        <ele>1370.02</ele>
        <time>2015-09-11T05:27:29Z</time>
      </trkpt>
      <trkpt lat="42.15342" lon="9.07436">
        <ele>1369.54</ele>
        <time>2015-09-11T05:27:49Z</time>
      </trkpt>
      <trkpt lat="42.15347" lon="9.07439">
        <ele>1369.54</ele>
        <time>2015-09-11T05:28:10Z</time>
      </trkpt>
      <trkpt lat="42.15348" lon="9.07441">
        <ele>1369.54</ele>
        <time>2015-09-11T05:28:29Z</time>
      </trkpt>
      <trkpt lat="42.15349" lon="9.07442">
        <ele>1369.54</ele>
        <time>2015-09-11T05:28:54Z</time>
      </trkpt>
      <trkpt lat="42.15352" lon="9.07441">
        <ele>1369.54</ele>
        <time>2015-09-11T05:29:14Z</time>
      </trkpt>
      <trkpt lat="42.15353" lon="9.0744">
        <ele>1370.02</ele>
        <time>2015-09-11T05:29:37Z</time>
      </trkpt>
      <trkpt lat="42.1535" lon="9.0744">
        <ele>1370.02</ele>
        <time>2015-09-11T05:30:03Z</time>
      </trkpt>
      <trkpt lat="42.1535" lon="9.07441">
        <ele>1370.02</ele>
        <time>2015-09-11T05:30:22Z</time>
      </trkpt>
      <trkpt lat="42.15349" lon="9.07438">
        <ele>1370.02</ele>
        <time>2015-09-11T05:30:39Z</time>
      </trkpt>
      <trkpt lat="42.15351" lon="9.07437">
        <ele>1370.5</ele>
        <time>2015-09-11T05:31:03Z</time>
      </trkpt>
      <trkpt lat="42.15346" lon="9.07434">
        <ele>1370.5</ele>
        <time>2015-09-11T05:31:26Z</time>
      </trkpt>
      <trkpt lat="42.1535" lon="9.07437">
        <ele>1370.98</ele>
        <time>2015-09-11T05:31:47Z</time>
      </trkpt>
      <trkpt lat="42.15365" lon="9.07443">
        <ele>1370.5</ele>
        <time>2015-09-11T05:32:18Z</time>
      </trkpt>
      <trkpt lat="42.15292" lon="9.07411">
        <ele>1370.5</ele>
        <time>2015-09-11T05:32:50Z</time>
      </trkpt>
      <trkpt lat="42.15286" lon="9.07405">
        <ele>1370.5</ele>
        <time>2015-09-11T05:33:16Z</time>
      </trkpt>
      <trkpt lat="42.15296" lon="9.07412">
        <ele>1370.5</ele>
        <time>2015-09-11T05:33:45Z</time>
      </trkpt>
      <trkpt lat="42.15343" lon="9.07435">
        <ele>1370.5</ele>
        <time>2015-09-11T05:34:13Z</time>
      </trkpt>
      <trkpt lat="42.15346" lon="9.07437">
        <ele>1370.5</ele>
        <time>2015-09-11T05:34:16Z</time>
      </trkpt>
      <trkpt lat="42.15352" lon="9.07439">
        <ele>1370.5</ele>
        <time>2015-09-11T05:34:20Z</time>
      </trkpt>
      <trkpt lat="42.15343" lon="9.0743">
        <ele>1370.5</ele>
        <time>2015-09-11T05:34:59Z</time>
      </trkpt>
      <trkpt lat="42.15342" lon="9.07428">
        <ele>1370.5</ele>
        <time>2015-09-11T05:35:01Z</time>
      </trkpt>
      <trkpt lat="42.15334" lon="9.07416">
        <ele>1371.94</ele>
        <time>2015-09-11T05:35:16Z</time>
      </trkpt>
      <trkpt lat="42.15333" lon="9.07416">
        <ele>1371.94</ele>
        <time>2015-09-11T05:35:34Z</time>
      </trkpt>
      <trkpt lat="42.15333" lon="9.07416">
        <ele>1371.94</ele>
        <time>2015-09-11T05:35:48Z</time>
      </trkpt>
      <trkpt lat="42.15339" lon="9.07422">
        <ele>1371.94</ele>
        <time>2015-09-11T05:36:12Z</time>
      </trkpt>
      <trkpt lat="42.15338" lon="9.07422">
        <ele>1372.42</ele>
        <time>2015-09-11T05:36:35Z</time>
      </trkpt>
      <trkpt lat="42.15341" lon="9.07424">
        <ele>1372.42</ele>
        <time>2015-09-11T05:37:00Z</time>
      </trkpt>
      <trkpt lat="42.15341" lon="9.07426">
        <ele>1373.38</ele>
        <time>2015-09-11T05:37:25Z</time>
      </trkpt>
      <trkpt lat="42.15341" lon="9.07423">
        <ele>1373.38</ele>
        <time>2015-09-11T05:37:41Z</time>
      </trkpt>
      <trkpt lat="42.15338" lon="9.07421">
        <ele>1373.38</ele>
        <time>2015-09-11T05:38:04Z</time>
      </trkpt>
      <trkpt lat="42.15336" lon="9.07422">
        <ele>1373.38</ele>
        <time>2015-09-11T05:38:27Z</time>
      </trkpt>
      <trkpt lat="42.15338" lon="9.07424">
        <ele>1373.86</ele>
        <time>2015-09-11T05:38:53Z</time>
      </trkpt>
      <trkpt lat="42.1534" lon="9.0742">
        <ele>1373.86</ele>
        <time>2015-09-11T05:39:12Z</time>
      </trkpt>
      <trkpt lat="42.15341" lon="9.07421">
        <ele>1374.34</ele>
        <time>2015-09-11T05:39:25Z</time>
      </trkpt>
      <trkpt lat="42.15341" lon="9.07423">
        <ele>1374.34</ele>
        <time>2015-09-11T05:39:51Z</time>
      </trkpt>
      <trkpt lat="42.15341" lon="9.07421">
        <ele>1374.34</ele>
        <time>2015-09-11T05:40:00Z</time>
      </trkpt>
      <trkpt lat="42.15338" lon="9.0742">
        <ele>1374.34</ele>
        <time>2015-09-11T05:40:13Z</time>
      </trkpt>
      <trkpt lat="42.15333" lon="9.07412">
        <ele>1374.82</ele>
        <time>2015-09-11T05:40:29Z</time>
      </trkpt>
      <trkpt lat="42.15328" lon="9.07405">
        <ele>1375.78</ele>
        <time>2015-09-11T05:40:45Z</time>
      </trkpt>
      <trkpt lat="42.15323" lon="9.07392">
        <ele>1378.67</ele>
        <time>2015-09-11T05:41:02Z</time>
      </trkpt>
      <trkpt lat="42.15319" lon="9.07385">
        <ele>1380.59</ele>
        <time>2015-09-11T05:41:14Z</time>
      </trkpt>
      <trkpt lat="42.15313" lon="9.07377">
        <ele>1382.03</ele>
        <time>2015-09-11T05:41:30Z</time>
      </trkpt>
      <trkpt lat="42.15312" lon="9.07373">
        <ele>1382.99</ele>
        <time>2015-09-11T05:41:36Z</time>
      </trkpt>
      <trkpt lat="42.15312" lon="9.07364">
        <ele>1384.92</ele>
        <time>2015-09-11T05:41:52Z</time>
      </trkpt>
      <trkpt lat="42.15311" lon="9.07364">
        <ele>1384.92</ele>
        <time>2015-09-11T05:41:53Z</time>
      </trkpt>
      <trkpt lat="42.15311" lon="9.07359">
        <ele>1385.88</ele>
        <time>2015-09-11T05:42:00Z</time>
      </trkpt>
      <trkpt lat="42.15303" lon="9.07359">
        <ele>1386.84</ele>
        <time>2015-09-11T05:42:11Z</time>
      </trkpt>
      <trkpt lat="42.15296" lon="9.07355">
        <ele>1388.28</ele>
        <time>2015-09-11T05:42:28Z</time>
      </trkpt>
      <trkpt lat="42.15299" lon="9.07349">
        <ele>1389.72</ele>
        <time>2015-09-11T05:42:43Z</time>
      </trkpt>
      <trkpt lat="42.15302" lon="9.07343">
        <ele>1391.65</ele>
        <time>2015-09-11T05:43:00Z</time>
      </trkpt>
      <trkpt lat="42.15305" lon="9.07338">
        <ele>1393.57</ele>
        <time>2015-09-11T05:43:14Z</time>
      </trkpt>
      <trkpt lat="42.15311" lon="9.07334">
        <ele>1395.49</ele>
        <time>2015-09-11T05:43:30Z</time>
      </trkpt>
      <trkpt lat="42.15314" lon="9.0733">
        <ele>1396.45</ele>
        <time>2015-09-11T05:43:38Z</time>
      </trkpt>
      <trkpt lat="42.15308" lon="9.07326">
        <ele>1397.89</ele>
        <time>2015-09-11T05:43:54Z</time>
      </trkpt>
      <trkpt lat="42.15302" lon="9.07322">
        <ele>1399.82</ele>
        <time>2015-09-11T05:44:12Z</time>
      </trkpt>
      <trkpt lat="42.15296" lon="9.07318">
        <ele>1402.22</ele>
        <time>2015-09-11T05:44:27Z</time>
      </trkpt>
      <trkpt lat="42.15291" lon="9.07314">
        <ele>1404.14</ele>
        <time>2015-09-11T05:44:44Z</time>
      </trkpt>
      <trkpt lat="42.15287" lon="9.07311">
        <ele>1406.55</ele>
        <time>2015-09-11T05:45:02Z</time>
      </trkpt>
      <trkpt lat="42.1528" lon="9.07306">
        <ele>1408.95</ele>
        <time>2015-09-11T05:45:19Z</time>
      </trkpt>
      <trkpt lat="42.15276" lon="9.07302">
        <ele>1410.87</ele>
        <time>2015-09-11T05:45:33Z</time>
      </trkpt>
      <trkpt lat="42.15267" lon="9.07298">
        <ele>1413.28</ele>
        <time>2015-09-11T05:45:51Z</time>
      </trkpt>
      <trkpt lat="42.1526" lon="9.07296">
        <ele>1414.24</ele>
        <time>2015-09-11T05:46:08Z</time>
      </trkpt>
      <trkpt lat="42.15255" lon="9.07292">
        <ele>1416.64</ele>
        <time>2015-09-11T05:46:28Z</time>
      </trkpt>
      <trkpt lat="42.15254" lon="9.07286">
        <ele>1418.56</ele>
        <time>2015-09-11T05:46:44Z</time>
      </trkpt>
      <trkpt lat="42.15246" lon="9.07285">
        <ele>1421.45</ele>
        <time>2015-09-11T05:47:02Z</time>
      </trkpt>
      <trkpt lat="42.15245" lon="9.07281">
        <ele>1423.85</ele>
        <time>2015-09-11T05:47:19Z</time>
      </trkpt>
      <trkpt lat="42.15238" lon="9.07278">
        <ele>1425.77</ele>
        <time>2015-09-11T05:47:35Z</time>
      </trkpt>
      <trkpt lat="42.15233" lon="9.0728">
        <ele>1428.18</ele>
        <time>2015-09-11T05:47:52Z</time>
      </trkpt>
      <trkpt lat="42.15227" lon="9.07279">
        <ele>1429.14</ele>
        <time>2015-09-11T05:48:09Z</time>
      </trkpt>
      <trkpt lat="42.15227" lon="9.07274">
        <ele>1431.54</ele>
        <time>2015-09-11T05:48:25Z</time>
      </trkpt>
      <trkpt lat="42.15231" lon="9.0727">
        <ele>1432.5</ele>
        <time>2015-09-11T05:48:40Z</time>
      </trkpt>
      <trkpt lat="42.15238" lon="9.07266">
        <ele>1433.46</ele>
        <time>2015-09-11T05:48:56Z</time>
      </trkpt>
      <trkpt lat="42.15242" lon="9.0726">
        <ele>1435.39</ele>
        <time>2015-09-11T05:49:11Z</time>
      </trkpt>
      <trkpt lat="42.15249" lon="9.07256">
        <ele>1436.83</ele>
        <time>2015-09-11T05:49:25Z</time>
      </trkpt>
      <trkpt lat="42.15257" lon="9.07251">
        <ele>1438.27</ele>
        <time>2015-09-11T05:49:41Z</time>
      </trkpt>
      <trkpt lat="42.15262" lon="9.07247">
        <ele>1440.67</ele>
        <time>2015-09-11T05:49:56Z</time>
      </trkpt>
      <trkpt lat="42.15264" lon="9.07243">
        <ele>1441.63</ele>
        <time>2015-09-11T05:50:08Z</time>
      </trkpt>
      <trkpt lat="42.15271" lon="9.07245">
        <ele>1440.19</ele>
        <time>2015-09-11T05:50:25Z</time>
      </trkpt>
      <trkpt lat="42.15274" lon="9.07237">
        <ele>1442.11</ele>
        <time>2015-09-11T05:50:42Z</time>
      </trkpt>
      <trkpt lat="42.15281" lon="9.07234">
        <ele>1445</ele>
        <time>2015-09-11T05:50:58Z</time>
      </trkpt>
      <trkpt lat="42.15291" lon="9.07232">
        <ele>1446.92</ele>
        <time>2015-09-11T05:51:15Z</time>
      </trkpt>
      <trkpt lat="42.15296" lon="9.07227">
        <ele>1449.32</ele>
        <time>2015-09-11T05:51:34Z</time>
      </trkpt>
      <trkpt lat="42.15302" lon="9.07223">
        <ele>1451.25</ele>
        <time>2015-09-11T05:51:49Z</time>
      </trkpt>
      <trkpt lat="42.15305" lon="9.07216">
        <ele>1453.65</ele>
        <time>2015-09-11T05:52:06Z</time>
      </trkpt>
      <trkpt lat="42.15313" lon="9.07212">
        <ele>1456.05</ele>
        <time>2015-09-11T05:52:23Z</time>
      </trkpt>
      <trkpt lat="42.15325" lon="9.07206">
        <ele>1457.5</ele>
        <time>2015-09-11T05:52:42Z</time>
      </trkpt>
      <trkpt lat="42.1533" lon="9.07201">
        <ele>1458.94</ele>
        <time>2015-09-11T05:52:57Z</time>
      </trkpt>
      <trkpt lat="42.15334" lon="9.07197">
        <ele>1461.34</ele>
        <time>2015-09-11T05:53:12Z</time>
      </trkpt>
      <trkpt lat="42.15343" lon="9.07191">
        <ele>1463.26</ele>
        <time>2015-09-11T05:53:27Z</time>
      </trkpt>
      <trkpt lat="42.15351" lon="9.07187">
        <ele>1464.23</ele>
        <time>2015-09-11T05:53:42Z</time>
      </trkpt>
      <trkpt lat="42.15355" lon="9.07182">
        <ele>1466.63</ele>
        <time>2015-09-11T05:53:57Z</time>
      </trkpt>
      <trkpt lat="42.15354" lon="9.07174">
        <ele>1469.51</ele>
        <time>2015-09-11T05:54:14Z</time>
      </trkpt>
      <trkpt lat="42.15354" lon="9.07173">
        <ele>1469.51</ele>
        <time>2015-09-11T05:54:17Z</time>
      </trkpt>
      <trkpt lat="42.15347" lon="9.07167">
        <ele>1470.95</ele>
        <time>2015-09-11T05:54:34Z</time>
      </trkpt>
      <trkpt lat="42.1534" lon="9.0716">
        <ele>1471.92</ele>
        <time>2015-09-11T05:54:49Z</time>
      </trkpt>
      <trkpt lat="42.15332" lon="9.07154">
        <ele>1472.88</ele>
        <time>2015-09-11T05:55:04Z</time>
      </trkpt>
      <trkpt lat="42.15319" lon="9.07144">
        <ele>1474.32</ele>
        <time>2015-09-11T05:55:23Z</time>
      </trkpt>
      <trkpt lat="42.15307" lon="9.07138">
        <ele>1474.8</ele>
        <time>2015-09-11T05:55:41Z</time>
      </trkpt>
      <trkpt lat="42.15305" lon="9.07137">
        <ele>1475.28</ele>
        <time>2015-09-11T05:55:43Z</time>
      </trkpt>
      <trkpt lat="42.15293" lon="9.0714">
        <ele>1475.76</ele>
        <time>2015-09-11T05:56:00Z</time>
      </trkpt>
      <trkpt lat="42.1528" lon="9.07148">
        <ele>1477.2</ele>
        <time>2015-09-11T05:56:17Z</time>
      </trkpt>
      <trkpt lat="42.15267" lon="9.07149">
        <ele>1478.16</ele>
        <time>2015-09-11T05:56:34Z</time>
      </trkpt>
      <trkpt lat="42.15258" lon="9.07144">
        <ele>1479.61</ele>
        <time>2015-09-11T05:56:48Z</time>
      </trkpt>
      <trkpt lat="42.15249" lon="9.07147">
        <ele>1481.53</ele>
        <time>2015-09-11T05:57:07Z</time>
      </trkpt>
      <trkpt lat="42.1524" lon="9.0715">
        <ele>1482.97</ele>
        <time>2015-09-11T05:57:23Z</time>
      </trkpt>
      <trkpt lat="42.15231" lon="9.0715">
        <ele>1484.41</ele>
        <time>2015-09-11T05:57:39Z</time>
      </trkpt>
      <trkpt lat="42.15224" lon="9.07148">
        <ele>1486.34</ele>
        <time>2015-09-11T05:57:55Z</time>
      </trkpt>
      <trkpt lat="42.15225" lon="9.07148">
        <ele>1487.3</ele>
        <time>2015-09-11T05:58:14Z</time>
      </trkpt>
      <trkpt lat="42.15215" lon="9.07144">
        <ele>1489.7</ele>
        <time>2015-09-11T05:58:32Z</time>
      </trkpt>
      <trkpt lat="42.15212" lon="9.07135">
        <ele>1491.62</ele>
        <time>2015-09-11T05:58:47Z</time>
      </trkpt>
      <trkpt lat="42.15209" lon="9.07128">
        <ele>1494.03</ele>
        <time>2015-09-11T05:59:02Z</time>
      </trkpt>
      <trkpt lat="42.15201" lon="9.07121">
        <ele>1496.91</ele>
        <time>2015-09-11T05:59:21Z</time>
      </trkpt>
      <trkpt lat="42.15195" lon="9.07116">
        <ele>1499.31</ele>
        <time>2015-09-11T05:59:38Z</time>
      </trkpt>
      <trkpt lat="42.1519" lon="9.07109">
        <ele>1502.68</ele>
        <time>2015-09-11T05:59:57Z</time>
      </trkpt>
      <trkpt lat="42.15181" lon="9.07107">
        <ele>1504.6</ele>
        <time>2015-09-11T06:00:16Z</time>
      </trkpt>
      <trkpt lat="42.15181" lon="9.07099">
        <ele>1507</ele>
        <time>2015-09-11T06:00:32Z</time>
      </trkpt>
      <trkpt lat="42.15173" lon="9.07097">
        <ele>1508.93</ele>
        <time>2015-09-11T06:00:50Z</time>
      </trkpt>
      <trkpt lat="42.1517" lon="9.07091">
        <ele>1512.29</ele>
        <time>2015-09-11T06:01:08Z</time>
      </trkpt>
      <trkpt lat="42.15168" lon="9.07081">
        <ele>1514.69</ele>
        <time>2015-09-11T06:01:27Z</time>
      </trkpt>
      <trkpt lat="42.15165" lon="9.07069">
        <ele>1517.58</ele>
        <time>2015-09-11T06:01:44Z</time>
      </trkpt>
      <trkpt lat="42.15157" lon="9.0706">
        <ele>1519.98</ele>
        <time>2015-09-11T06:02:02Z</time>
      </trkpt>
      <trkpt lat="42.15152" lon="9.07063">
        <ele>1522.39</ele>
        <time>2015-09-11T06:02:17Z</time>
      </trkpt>
      <trkpt lat="42.15146" lon="9.07062">
        <ele>1524.79</ele>
        <time>2015-09-11T06:02:32Z</time>
      </trkpt>
      <trkpt lat="42.15144" lon="9.07063">
        <ele>1525.75</ele>
        <time>2015-09-11T06:02:51Z</time>
      </trkpt>
      <trkpt lat="42.15144" lon="9.07062">
        <ele>1527.19</ele>
        <time>2015-09-11T06:02:56Z</time>
      </trkpt>
      <trkpt lat="42.15143" lon="9.07062">
        <ele>1525.75</ele>
        <time>2015-09-11T06:02:58Z</time>
      </trkpt>
      <trkpt lat="42.15144" lon="9.07061">
        <ele>1525.27</ele>
        <time>2015-09-11T06:03:20Z</time>
      </trkpt>
      <trkpt lat="42.15144" lon="9.07062">
        <ele>1526.71</ele>
        <time>2015-09-11T06:03:23Z</time>
      </trkpt>
      <trkpt lat="42.15144" lon="9.07065">
        <ele>1526.71</ele>
        <time>2015-09-11T06:03:45Z</time>
      </trkpt>
      <trkpt lat="42.15143" lon="9.07061">
        <ele>1527.19</ele>
        <time>2015-09-11T06:04:10Z</time>
      </trkpt>
      <trkpt lat="42.15141" lon="9.07061">
        <ele>1526.23</ele>
        <time>2015-09-11T06:04:33Z</time>
      </trkpt>
      <trkpt lat="42.15137" lon="9.07064">
        <ele>1527.19</ele>
        <time>2015-09-11T06:04:40Z</time>
      </trkpt>
      <trkpt lat="42.1513" lon="9.07068">
        <ele>1530.08</ele>
        <time>2015-09-11T06:04:59Z</time>
      </trkpt>
      <trkpt lat="42.15124" lon="9.07066">
        <ele>1532.48</ele>
        <time>2015-09-11T06:05:19Z</time>
      </trkpt>
      <trkpt lat="42.15115" lon="9.07063">
        <ele>1535.84</ele>
        <time>2015-09-11T06:05:38Z</time>
      </trkpt>
      <trkpt lat="42.15109" lon="9.07062">
        <ele>1537.29</ele>
        <time>2015-09-11T06:05:55Z</time>
      </trkpt>
      <trkpt lat="42.15101" lon="9.07061">
        <ele>1540.65</ele>
        <time>2015-09-11T06:06:15Z</time>
      </trkpt>
      <trkpt lat="42.15093" lon="9.07059">
        <ele>1543.53</ele>
        <time>2015-09-11T06:06:35Z</time>
      </trkpt>
      <trkpt lat="42.15087" lon="9.07053">
        <ele>1545.94</ele>
        <time>2015-09-11T06:06:51Z</time>
      </trkpt>
      <trkpt lat="42.15077" lon="9.07046">
        <ele>1548.82</ele>
        <time>2015-09-11T06:07:12Z</time>
      </trkpt>
      <trkpt lat="42.15071" lon="9.07052">
        <ele>1551.22</ele>
        <time>2015-09-11T06:07:28Z</time>
      </trkpt>
      <trkpt lat="42.15065" lon="9.0705">
        <ele>1554.11</ele>
        <time>2015-09-11T06:07:46Z</time>
      </trkpt>
      <trkpt lat="42.15056" lon="9.07047">
        <ele>1556.51</ele>
        <time>2015-09-11T06:08:06Z</time>
      </trkpt>
      <trkpt lat="42.15049" lon="9.07045">
        <ele>1559.4</ele>
        <time>2015-09-11T06:08:26Z</time>
      </trkpt>
      <trkpt lat="42.15044" lon="9.07048">
        <ele>1561.8</ele>
        <time>2015-09-11T06:08:43Z</time>
      </trkpt>
      <trkpt lat="42.15038" lon="9.07049">
        <ele>1564.2</ele>
        <time>2015-09-11T06:09:00Z</time>
      </trkpt>
      <trkpt lat="42.1503" lon="9.07047">
        <ele>1567.57</ele>
        <time>2015-09-11T06:09:21Z</time>
      </trkpt>
      <trkpt lat="42.15024" lon="9.07044">
        <ele>1569.97</ele>
        <time>2015-09-11T06:09:39Z</time>
      </trkpt>
      <trkpt lat="42.15018" lon="9.07042">
        <ele>1573.33</ele>
        <time>2015-09-11T06:09:59Z</time>
      </trkpt>
      <trkpt lat="42.1501" lon="9.07039">
        <ele>1575.26</ele>
        <time>2015-09-11T06:10:19Z</time>
      </trkpt>
      <trkpt lat="42.15006" lon="9.07029">
        <ele>1576.7</ele>
        <time>2015-09-11T06:10:33Z</time>
      </trkpt>
      <trkpt lat="42.14998" lon="9.07024">
        <ele>1579.1</ele>
        <time>2015-09-11T06:10:51Z</time>
      </trkpt>
      <trkpt lat="42.14992" lon="9.07028">
        <ele>1582.47</ele>
        <time>2015-09-11T06:11:08Z</time>
      </trkpt>
      <trkpt lat="42.14985" lon="9.07031">
        <ele>1585.35</ele>
        <time>2015-09-11T06:11:26Z</time>
      </trkpt>
      <trkpt lat="42.14977" lon="9.07037">
        <ele>1587.75</ele>
        <time>2015-09-11T06:11:44Z</time>
      </trkpt>
      <trkpt lat="42.14971" lon="9.07048">
        <ele>1591.12</ele>
        <time>2015-09-11T06:12:07Z</time>
      </trkpt>
      <trkpt lat="42.14958" lon="9.07057">
        <ele>1594.48</ele>
        <time>2015-09-11T06:12:28Z</time>
      </trkpt>
      <trkpt lat="42.14947" lon="9.07059">
        <ele>1594.96</ele>
        <time>2015-09-11T06:12:45Z</time>
      </trkpt>
      <trkpt lat="42.14936" lon="9.07066">
        <ele>1596.89</ele>
        <time>2015-09-11T06:13:02Z</time>
      </trkpt>
      <trkpt lat="42.14928" lon="9.07069">
        <ele>1597.85</ele>
        <time>2015-09-11T06:13:20Z</time>
      </trkpt>
      <trkpt lat="42.14918" lon="9.07067">
        <ele>1599.29</ele>
        <time>2015-09-11T06:13:36Z</time>
      </trkpt>
      <trkpt lat="42.14906" lon="9.07072">
        <ele>1600.73</ele>
        <time>2015-09-11T06:13:54Z</time>
      </trkpt>
      <trkpt lat="42.14901" lon="9.07074">
        <ele>1603.14</ele>
        <time>2015-09-11T06:14:11Z</time>
      </trkpt>
      <trkpt lat="42.14894" lon="9.0708">
        <ele>1606.5</ele>
        <time>2015-09-11T06:14:30Z</time>
      </trkpt>
      <trkpt lat="42.14892" lon="9.07087">
        <ele>1608.9</ele>
        <time>2015-09-11T06:14:46Z</time>
      </trkpt>
      <trkpt lat="42.14887" lon="9.0709">
        <ele>1610.83</ele>
        <time>2015-09-11T06:15:03Z</time>
      </trkpt>
      <trkpt lat="42.14881" lon="9.07093">
        <ele>1613.23</ele>
        <time>2015-09-11T06:15:21Z</time>
      </trkpt>
      <trkpt lat="42.14873" lon="9.07093">
        <ele>1614.67</ele>
        <time>2015-09-11T06:15:38Z</time>
      </trkpt>
      <trkpt lat="42.14866" lon="9.07093">
        <ele>1617.07</ele>
        <time>2015-09-11T06:15:58Z</time>
      </trkpt>
      <trkpt lat="42.14863" lon="9.07097">
        <ele>1619</ele>
        <time>2015-09-11T06:16:15Z</time>
      </trkpt>
      <trkpt lat="42.14862" lon="9.071">
        <ele>1620.92</ele>
        <time>2015-09-11T06:16:34Z</time>
      </trkpt>
      <trkpt lat="42.14861" lon="9.07105">
        <ele>1623.8</ele>
        <time>2015-09-11T06:16:51Z</time>
      </trkpt>
      <trkpt lat="42.14858" lon="9.07108">
        <ele>1625.25</ele>
        <time>2015-09-11T06:17:05Z</time>
      </trkpt>
      <trkpt lat="42.14855" lon="9.07111">
        <ele>1628.13</ele>
        <time>2015-09-11T06:17:24Z</time>
      </trkpt>
      <trkpt lat="42.14847" lon="9.07112">
        <ele>1628.61</ele>
        <time>2015-09-11T06:17:43Z</time>
      </trkpt>
      <trkpt lat="42.14841" lon="9.07113">
        <ele>1631.01</ele>
        <time>2015-09-11T06:18:01Z</time>
      </trkpt>
      <trkpt lat="42.14839" lon="9.07118">
        <ele>1633.42</ele>
        <time>2015-09-11T06:18:17Z</time>
      </trkpt>
      <trkpt lat="42.14829" lon="9.07113">
        <ele>1635.34</ele>
        <time>2015-09-11T06:18:39Z</time>
      </trkpt>
      <trkpt lat="42.14821" lon="9.07115">
        <ele>1637.74</ele>
        <time>2015-09-11T06:18:59Z</time>
      </trkpt>
      <trkpt lat="42.14819" lon="9.0712">
        <ele>1640.15</ele>
        <time>2015-09-11T06:19:17Z</time>
      </trkpt>
      <trkpt lat="42.14813" lon="9.07125">
        <ele>1643.03</ele>
        <time>2015-09-11T06:19:37Z</time>
      </trkpt>
      <trkpt lat="42.14809" lon="9.07132">
        <ele>1643.99</ele>
        <time>2015-09-11T06:19:58Z</time>
      </trkpt>
      <trkpt lat="42.14806" lon="9.07131">
        <ele>1643.99</ele>
        <time>2015-09-11T06:20:20Z</time>
      </trkpt>
      <trkpt lat="42.14792" lon="9.07134">
        <ele>1645.43</ele>
        <time>2015-09-11T06:20:37Z</time>
      </trkpt>
      <trkpt lat="42.14782" lon="9.07135">
        <ele>1647.84</ele>
        <time>2015-09-11T06:20:54Z</time>
      </trkpt>
      <trkpt lat="42.14773" lon="9.07137">
        <ele>1650.24</ele>
        <time>2015-09-11T06:21:12Z</time>
      </trkpt>
      <trkpt lat="42.14766" lon="9.07138">
        <ele>1652.64</ele>
        <time>2015-09-11T06:21:31Z</time>
      </trkpt>
      <trkpt lat="42.14758" lon="9.07139">
        <ele>1655.05</ele>
        <time>2015-09-11T06:21:48Z</time>
      </trkpt>
      <trkpt lat="42.1475" lon="9.0714">
        <ele>1657.93</ele>
        <time>2015-09-11T06:22:09Z</time>
      </trkpt>
      <trkpt lat="42.14751" lon="9.07147">
        <ele>1660.33</ele>
        <time>2015-09-11T06:22:25Z</time>
      </trkpt>
      <trkpt lat="42.14749" lon="9.0715">
        <ele>1662.74</ele>
        <time>2015-09-11T06:22:43Z</time>
      </trkpt>
      <trkpt lat="42.14743" lon="9.07151">
        <ele>1665.14</ele>
        <time>2015-09-11T06:23:03Z</time>
      </trkpt>
      <trkpt lat="42.14742" lon="9.07156">
        <ele>1667.06</ele>
        <time>2015-09-11T06:23:19Z</time>
      </trkpt>
      <trkpt lat="42.14742" lon="9.07161">
        <ele>1669.47</ele>
        <time>2015-09-11T06:23:36Z</time>
      </trkpt>
      <trkpt lat="42.14739" lon="9.07166">
        <ele>1671.87</ele>
        <time>2015-09-11T06:23:56Z</time>
      </trkpt>
      <trkpt lat="42.14741" lon="9.07173">
        <ele>1674.75</ele>
        <time>2015-09-11T06:24:14Z</time>
      </trkpt>
      <trkpt lat="42.14736" lon="9.07173">
        <ele>1677.16</ele>
        <time>2015-09-11T06:24:32Z</time>
      </trkpt>
      <trkpt lat="42.14729" lon="9.07174">
        <ele>1679.56</ele>
        <time>2015-09-11T06:24:52Z</time>
      </trkpt>
      <trkpt lat="42.14728" lon="9.07179">
        <ele>1682.44</ele>
        <time>2015-09-11T06:25:11Z</time>
      </trkpt>
      <trkpt lat="42.14723" lon="9.07182">
        <ele>1684.85</ele>
        <time>2015-09-11T06:25:29Z</time>
      </trkpt>
      <trkpt lat="42.14717" lon="9.07185">
        <ele>1687.73</ele>
        <time>2015-09-11T06:25:48Z</time>
      </trkpt>
      <trkpt lat="42.14713" lon="9.07191">
        <ele>1690.14</ele>
        <time>2015-09-11T06:26:07Z</time>
      </trkpt>
      <trkpt lat="42.14708" lon="9.07196">
        <ele>1693.02</ele>
        <time>2015-09-11T06:26:26Z</time>
      </trkpt>
      <trkpt lat="42.14704" lon="9.07199">
        <ele>1695.9</ele>
        <time>2015-09-11T06:26:45Z</time>
      </trkpt>
      <trkpt lat="42.14702" lon="9.07203">
        <ele>1696.86</ele>
        <time>2015-09-11T06:27:05Z</time>
      </trkpt>
      <trkpt lat="42.14695" lon="9.07205">
        <ele>1699.75</ele>
        <time>2015-09-11T06:27:22Z</time>
      </trkpt>
      <trkpt lat="42.14689" lon="9.07207">
        <ele>1702.63</ele>
        <time>2015-09-11T06:27:39Z</time>
      </trkpt>
      <trkpt lat="42.14684" lon="9.07212">
        <ele>1705.52</ele>
        <time>2015-09-11T06:27:59Z</time>
      </trkpt>
      <trkpt lat="42.14676" lon="9.07215">
        <ele>1708.88</ele>
        <time>2015-09-11T06:28:17Z</time>
      </trkpt>
      <trkpt lat="42.14671" lon="9.07219">
        <ele>1710.8</ele>
        <time>2015-09-11T06:28:37Z</time>
      </trkpt>
      <trkpt lat="42.14665" lon="9.07223">
        <ele>1713.69</ele>
        <time>2015-09-11T06:28:56Z</time>
      </trkpt>
      <trkpt lat="42.14658" lon="9.07225">
        <ele>1717.05</ele>
        <time>2015-09-11T06:29:17Z</time>
      </trkpt>
      <trkpt lat="42.14652" lon="9.07227">
        <ele>1718.97</ele>
        <time>2015-09-11T06:29:35Z</time>
      </trkpt>
      <trkpt lat="42.14644" lon="9.07228">
        <ele>1721.86</ele>
        <time>2015-09-11T06:29:55Z</time>
      </trkpt>
      <trkpt lat="42.14637" lon="9.07226">
        <ele>1724.26</ele>
        <time>2015-09-11T06:30:12Z</time>
      </trkpt>
      <trkpt lat="42.1463" lon="9.07224">
        <ele>1726.18</ele>
        <time>2015-09-11T06:30:32Z</time>
      </trkpt>
      <trkpt lat="42.14627" lon="9.07231">
        <ele>1729.07</ele>
        <time>2015-09-11T06:30:50Z</time>
      </trkpt>
      <trkpt lat="42.14625" lon="9.07235">
        <ele>1731.47</ele>
        <time>2015-09-11T06:31:07Z</time>
      </trkpt>
      <trkpt lat="42.14625" lon="9.07243">
        <ele>1734.36</ele>
        <time>2015-09-11T06:31:26Z</time>
      </trkpt>
      <trkpt lat="42.14625" lon="9.07251">
        <ele>1737.24</ele>
        <time>2015-09-11T06:31:45Z</time>
      </trkpt>
      <trkpt lat="42.14626" lon="9.07262">
        <ele>1739.64</ele>
        <time>2015-09-11T06:32:07Z</time>
      </trkpt>
      <trkpt lat="42.14622" lon="9.07263">
        <ele>1742.53</ele>
        <time>2015-09-11T06:32:27Z</time>
      </trkpt>
      <trkpt lat="42.14622" lon="9.07273">
        <ele>1744.45</ele>
        <time>2015-09-11T06:32:48Z</time>
      </trkpt>
      <trkpt lat="42.14624" lon="9.07283">
        <ele>1747.33</ele>
        <time>2015-09-11T06:33:06Z</time>
      </trkpt>
      <trkpt lat="42.14616" lon="9.07281">
        <ele>1749.74</ele>
        <time>2015-09-11T06:33:24Z</time>
      </trkpt>
      <trkpt lat="42.14609" lon="9.0728">
        <ele>1752.62</ele>
        <time>2015-09-11T06:33:44Z</time>
      </trkpt>
      <trkpt lat="42.14608" lon="9.07287">
        <ele>1755.02</ele>
        <time>2015-09-11T06:34:01Z</time>
      </trkpt>
      <trkpt lat="42.14605" lon="9.07292">
        <ele>1757.91</ele>
        <time>2015-09-11T06:34:18Z</time>
      </trkpt>
      <trkpt lat="42.14604" lon="9.07297">
        <ele>1759.35</ele>
        <time>2015-09-11T06:34:32Z</time>
      </trkpt>
      <trkpt lat="42.146" lon="9.07297">
        <ele>1761.27</ele>
        <time>2015-09-11T06:34:49Z</time>
      </trkpt>
      <trkpt lat="42.14596" lon="9.07302">
        <ele>1764.16</ele>
        <time>2015-09-11T06:35:05Z</time>
      </trkpt>
      <trkpt lat="42.14594" lon="9.07305">
        <ele>1765.6</ele>
        <time>2015-09-11T06:35:22Z</time>
      </trkpt>
      <trkpt lat="42.1459" lon="9.07305">
        <ele>1768</ele>
        <time>2015-09-11T06:35:38Z</time>
      </trkpt>
      <trkpt lat="42.14583" lon="9.07305">
        <ele>1769.44</ele>
        <time>2015-09-11T06:35:56Z</time>
      </trkpt>
      <trkpt lat="42.14577" lon="9.07309">
        <ele>1771.37</ele>
        <time>2015-09-11T06:36:14Z</time>
      </trkpt>
      <trkpt lat="42.14572" lon="9.073">
        <ele>1774.25</ele>
        <time>2015-09-11T06:36:33Z</time>
      </trkpt>
      <trkpt lat="42.14567" lon="9.07301">
        <ele>1776.65</ele>
        <time>2015-09-11T06:36:51Z</time>
      </trkpt>
      <trkpt lat="42.14561" lon="9.07298">
        <ele>1778.58</ele>
        <time>2015-09-11T06:37:08Z</time>
      </trkpt>
      <trkpt lat="42.14555" lon="9.07295">
        <ele>1780.5</ele>
        <time>2015-09-11T06:37:25Z</time>
      </trkpt>
      <trkpt lat="42.14548" lon="9.07288">
        <ele>1783.38</ele>
        <time>2015-09-11T06:37:43Z</time>
      </trkpt>
      <trkpt lat="42.14544" lon="9.07288">
        <ele>1785.31</ele>
        <time>2015-09-11T06:37:59Z</time>
      </trkpt>
      <trkpt lat="42.14539" lon="9.07288">
        <ele>1787.71</ele>
        <time>2015-09-11T06:38:16Z</time>
      </trkpt>
      <trkpt lat="42.14533" lon="9.07286">
        <ele>1790.11</ele>
        <time>2015-09-11T06:38:33Z</time>
      </trkpt>
      <trkpt lat="42.14527" lon="9.07291">
        <ele>1793</ele>
        <time>2015-09-11T06:38:54Z</time>
      </trkpt>
      <trkpt lat="42.14522" lon="9.07292">
        <ele>1795.4</ele>
        <time>2015-09-11T06:39:10Z</time>
      </trkpt>
      <trkpt lat="42.14517" lon="9.07296">
        <ele>1797.32</ele>
        <time>2015-09-11T06:39:29Z</time>
      </trkpt>
      <trkpt lat="42.14512" lon="9.07299">
        <ele>1799.73</ele>
        <time>2015-09-11T06:39:46Z</time>
      </trkpt>
      <trkpt lat="42.14507" lon="9.07301">
        <ele>1802.13</ele>
        <time>2015-09-11T06:40:05Z</time>
      </trkpt>
      <trkpt lat="42.14501" lon="9.07303">
        <ele>1804.53</ele>
        <time>2015-09-11T06:40:24Z</time>
      </trkpt>
      <trkpt lat="42.14496" lon="9.07305">
        <ele>1806.94</ele>
        <time>2015-09-11T06:40:40Z</time>
      </trkpt>
      <trkpt lat="42.1449" lon="9.07308">
        <ele>1809.82</ele>
        <time>2015-09-11T06:40:56Z</time>
      </trkpt>
      <trkpt lat="42.14485" lon="9.07311">
        <ele>1811.26</ele>
        <time>2015-09-11T06:41:11Z</time>
      </trkpt>
      <trkpt lat="42.14476" lon="9.0731">
        <ele>1814.15</ele>
        <time>2015-09-11T06:41:32Z</time>
      </trkpt>
      <trkpt lat="42.14468" lon="9.0731">
        <ele>1816.07</ele>
        <time>2015-09-11T06:41:50Z</time>
      </trkpt>
      <trkpt lat="42.1446" lon="9.07308">
        <ele>1818.47</ele>
        <time>2015-09-11T06:42:10Z</time>
      </trkpt>
      <trkpt lat="42.14452" lon="9.07308">
        <ele>1821.35</ele>
        <time>2015-09-11T06:42:30Z</time>
      </trkpt>
      <trkpt lat="42.14443" lon="9.07312">
        <ele>1823.76</ele>
        <time>2015-09-11T06:42:49Z</time>
      </trkpt>
      <trkpt lat="42.14436" lon="9.07319">
        <ele>1826.16</ele>
        <time>2015-09-11T06:43:06Z</time>
      </trkpt>
      <trkpt lat="42.14428" lon="9.07322">
        <ele>1829.05</ele>
        <time>2015-09-11T06:43:26Z</time>
      </trkpt>
      <trkpt lat="42.14419" lon="9.07329">
        <ele>1831.93</ele>
        <time>2015-09-11T06:43:44Z</time>
      </trkpt>
      <trkpt lat="42.14408" lon="9.0733">
        <ele>1833.85</ele>
        <time>2015-09-11T06:44:03Z</time>
      </trkpt>
      <trkpt lat="42.14395" lon="9.07334">
        <ele>1835.29</ele>
        <time>2015-09-11T06:44:20Z</time>
      </trkpt>
      <trkpt lat="42.14386" lon="9.07337">
        <ele>1835.29</ele>
        <time>2015-09-11T06:44:33Z</time>
      </trkpt>
      <trkpt lat="42.14385" lon="9.07338">
        <ele>1835.29</ele>
        <time>2015-09-11T06:44:35Z</time>
      </trkpt>
      <trkpt lat="42.14367" lon="9.07352">
        <ele>1834.33</ele>
        <time>2015-09-11T06:44:54Z</time>
      </trkpt>
      <trkpt lat="42.14358" lon="9.07354">
        <ele>1833.85</ele>
        <time>2015-09-11T06:45:02Z</time>
      </trkpt>
      <trkpt lat="42.14353" lon="9.07356">
        <ele>1833.85</ele>
        <time>2015-09-11T06:45:07Z</time>
      </trkpt>
      <trkpt lat="42.14336" lon="9.07363">
        <ele>1833.85</ele>
        <time>2015-09-11T06:45:26Z</time>
      </trkpt>
      <trkpt lat="42.14324" lon="9.07364">
        <ele>1836.74</ele>
        <time>2015-09-11T06:45:43Z</time>
      </trkpt>
      <trkpt lat="42.14315" lon="9.07364">
        <ele>1838.66</ele>
        <time>2015-09-11T06:46:01Z</time>
      </trkpt>
      <trkpt lat="42.14315" lon="9.07368">
        <ele>1839.14</ele>
        <time>2015-09-11T06:46:28Z</time>
      </trkpt>
      <trkpt lat="42.14315" lon="9.07366">
        <ele>1839.62</ele>
        <time>2015-09-11T06:47:02Z</time>
      </trkpt>
      <trkpt lat="42.14314" lon="9.07365">
        <ele>1839.62</ele>
        <time>2015-09-11T06:47:30Z</time>
      </trkpt>
      <trkpt lat="42.14304" lon="9.07365">
        <ele>1840.58</ele>
        <time>2015-09-11T06:47:49Z</time>
      </trkpt>
      <trkpt lat="42.14293" lon="9.0736">
        <ele>1842.98</ele>
        <time>2015-09-11T06:48:05Z</time>
      </trkpt>
      <trkpt lat="42.14289" lon="9.0736">
        <ele>1843.95</ele>
        <time>2015-09-11T06:48:10Z</time>
      </trkpt>
      <trkpt lat="42.14274" lon="9.07356">
        <ele>1845.87</ele>
        <time>2015-09-11T06:48:28Z</time>
      </trkpt>
      <trkpt lat="42.14263" lon="9.07367">
        <ele>1848.27</ele>
        <time>2015-09-11T06:48:47Z</time>
      </trkpt>
      <trkpt lat="42.14255" lon="9.07377">
        <ele>1851.16</ele>
        <time>2015-09-11T06:49:05Z</time>
      </trkpt>
      <trkpt lat="42.14251" lon="9.07386">
        <ele>1853.56</ele>
        <time>2015-09-11T06:49:21Z</time>
      </trkpt>
      <trkpt lat="42.14244" lon="9.07391">
        <ele>1855.48</ele>
        <time>2015-09-11T06:49:38Z</time>
      </trkpt>
      <trkpt lat="42.1424" lon="9.07402">
        <ele>1857.89</ele>
        <time>2015-09-11T06:49:56Z</time>
      </trkpt>
      <trkpt lat="42.14233" lon="9.07409">
        <ele>1860.29</ele>
        <time>2015-09-11T06:50:16Z</time>
      </trkpt>
      <trkpt lat="42.14223" lon="9.0741">
        <ele>1862.69</ele>
        <time>2015-09-11T06:50:37Z</time>
      </trkpt>
      <trkpt lat="42.14215" lon="9.07415">
        <ele>1865.09</ele>
        <time>2015-09-11T06:50:52Z</time>
      </trkpt>
      <trkpt lat="42.14208" lon="9.07417">
        <ele>1867.98</ele>
        <time>2015-09-11T06:51:09Z</time>
      </trkpt>
      <trkpt lat="42.14201" lon="9.07424">
        <ele>1870.86</ele>
        <time>2015-09-11T06:51:28Z</time>
      </trkpt>
      <trkpt lat="42.14198" lon="9.07434">
        <ele>1872.79</ele>
        <time>2015-09-11T06:51:46Z</time>
      </trkpt>
      <trkpt lat="42.14195" lon="9.07439">
        <ele>1874.71</ele>
        <time>2015-09-11T06:52:03Z</time>
      </trkpt>
      <trkpt lat="42.14188" lon="9.07441">
        <ele>1878.07</ele>
        <time>2015-09-11T06:52:23Z</time>
      </trkpt>
      <trkpt lat="42.14186" lon="9.07449">
        <ele>1880</ele>
        <time>2015-09-11T06:52:43Z</time>
      </trkpt>
      <trkpt lat="42.14179" lon="9.07446">
        <ele>1883.36</ele>
        <time>2015-09-11T06:53:01Z</time>
      </trkpt>
      <trkpt lat="42.14173" lon="9.07446">
        <ele>1885.28</ele>
        <time>2015-09-11T06:53:20Z</time>
      </trkpt>
      <trkpt lat="42.14167" lon="9.07444">
        <ele>1886.72</ele>
        <time>2015-09-11T06:53:37Z</time>
      </trkpt>
      <trkpt lat="42.14154" lon="9.07443">
        <ele>1889.13</ele>
        <time>2015-09-11T06:53:55Z</time>
      </trkpt>
      <trkpt lat="42.14146" lon="9.07442">
        <ele>1890.57</ele>
        <time>2015-09-11T06:54:13Z</time>
      </trkpt>
      <trkpt lat="42.14141" lon="9.07443">
        <ele>1892.97</ele>
        <time>2015-09-11T06:54:27Z</time>
      </trkpt>
      <trkpt lat="42.14129" lon="9.0744">
        <ele>1894.42</ele>
        <time>2015-09-11T06:54:46Z</time>
      </trkpt>
      <trkpt lat="42.14124" lon="9.07445">
        <ele>1896.82</ele>
        <time>2015-09-11T06:55:03Z</time>
      </trkpt>
      <trkpt lat="42.14123" lon="9.07451">
        <ele>1899.22</ele>
        <time>2015-09-11T06:55:20Z</time>
      </trkpt>
      <trkpt lat="42.14122" lon="9.07457">
        <ele>1901.63</ele>
        <time>2015-09-11T06:55:37Z</time>
      </trkpt>
      <trkpt lat="42.14118" lon="9.07459">
        <ele>1904.03</ele>
        <time>2015-09-11T06:55:54Z</time>
      </trkpt>
      <trkpt lat="42.14108" lon="9.07459">
        <ele>1905.95</ele>
        <time>2015-09-11T06:56:14Z</time>
      </trkpt>
      <trkpt lat="42.14103" lon="9.07465">
        <ele>1908.35</ele>
        <time>2015-09-11T06:56:33Z</time>
      </trkpt>
      <trkpt lat="42.14095" lon="9.07469">
        <ele>1910.28</ele>
        <time>2015-09-11T06:56:52Z</time>
      </trkpt>
      <trkpt lat="42.14088" lon="9.07473">
        <ele>1912.68</ele>
        <time>2015-09-11T06:57:08Z</time>
      </trkpt>
      <trkpt lat="42.14082" lon="9.0748">
        <ele>1915.08</ele>
        <time>2015-09-11T06:57:28Z</time>
      </trkpt>
      <trkpt lat="42.14075" lon="9.07483">
        <ele>1917.97</ele>
        <time>2015-09-11T06:57:48Z</time>
      </trkpt>
      <trkpt lat="42.14063" lon="9.07487">
        <ele>1919.41</ele>
        <time>2015-09-11T06:58:06Z</time>
      </trkpt>
      <trkpt lat="42.14053" lon="9.07491">
        <ele>1921.81</ele>
        <time>2015-09-11T06:58:27Z</time>
      </trkpt>
      <trkpt lat="42.14044" lon="9.07496">
        <ele>1925.18</ele>
        <time>2015-09-11T06:58:47Z</time>
      </trkpt>
      <trkpt lat="42.14036" lon="9.07498">
        <ele>1928.54</ele>
        <time>2015-09-11T06:59:08Z</time>
      </trkpt>
      <trkpt lat="42.14026" lon="9.07503">
        <ele>1930.95</ele>
        <time>2015-09-11T06:59:31Z</time>
      </trkpt>
      <trkpt lat="42.14019" lon="9.07508">
        <ele>1933.83</ele>
        <time>2015-09-11T06:59:51Z</time>
      </trkpt>
      <trkpt lat="42.14013" lon="9.07512">
        <ele>1936.71</ele>
        <time>2015-09-11T07:00:11Z</time>
      </trkpt>
      <trkpt lat="42.1401" lon="9.07518">
        <ele>1939.12</ele>
        <time>2015-09-11T07:00:30Z</time>
      </trkpt>
      <trkpt lat="42.14008" lon="9.07525">
        <ele>1941.52</ele>
        <time>2015-09-11T07:00:48Z</time>
      </trkpt>
      <trkpt lat="42.14006" lon="9.07531">
        <ele>1943.92</ele>
        <time>2015-09-11T07:01:07Z</time>
      </trkpt>
      <trkpt lat="42.14004" lon="9.07536">
        <ele>1946.33</ele>
        <time>2015-09-11T07:01:25Z</time>
      </trkpt>
      <trkpt lat="42.14003" lon="9.0754">
        <ele>1948.25</ele>
        <time>2015-09-11T07:01:45Z</time>
      </trkpt>
      <trkpt lat="42.14002" lon="9.07544">
        <ele>1949.21</ele>
        <time>2015-09-11T07:02:10Z</time>
      </trkpt>
      <trkpt lat="42.13999" lon="9.07545">
        <ele>1949.21</ele>
        <time>2015-09-11T07:02:44Z</time>
      </trkpt>
      <trkpt lat="42.13995" lon="9.07542">
        <ele>1949.21</ele>
        <time>2015-09-11T07:03:08Z</time>
      </trkpt>
      <trkpt lat="42.13995" lon="9.07545">
        <ele>1950.65</ele>
        <time>2015-09-11T07:03:27Z</time>
      </trkpt>
      <trkpt lat="42.13994" lon="9.07544">
        <ele>1951.13</ele>
        <time>2015-09-11T07:03:52Z</time>
      </trkpt>
      <trkpt lat="42.13995" lon="9.07546">
        <ele>1951.13</ele>
        <time>2015-09-11T07:04:25Z</time>
      </trkpt>
      <trkpt lat="42.13993" lon="9.07543">
        <ele>1951.13</ele>
        <time>2015-09-11T07:04:59Z</time>
      </trkpt>
      <trkpt lat="42.13988" lon="9.07546">
        <ele>1952.57</ele>
        <time>2015-09-11T07:05:27Z</time>
      </trkpt>
      <trkpt lat="42.1398" lon="9.07543">
        <ele>1954.5</ele>
        <time>2015-09-11T07:05:46Z</time>
      </trkpt>
      <trkpt lat="42.1397" lon="9.07544">
        <ele>1956.42</ele>
        <time>2015-09-11T07:06:03Z</time>
      </trkpt>
      <trkpt lat="42.13961" lon="9.07544">
        <ele>1958.34</ele>
        <time>2015-09-11T07:06:21Z</time>
      </trkpt>
      <trkpt lat="42.13956" lon="9.07548">
        <ele>1960.75</ele>
        <time>2015-09-11T07:06:39Z</time>
      </trkpt>
      <trkpt lat="42.13946" lon="9.07549">
        <ele>1962.67</ele>
        <time>2015-09-11T07:06:58Z</time>
      </trkpt>
      <trkpt lat="42.13938" lon="9.07554">
        <ele>1964.59</ele>
        <time>2015-09-11T07:07:17Z</time>
      </trkpt>
      <trkpt lat="42.13931" lon="9.07556">
        <ele>1966.51</ele>
        <time>2015-09-11T07:07:35Z</time>
      </trkpt>
      <trkpt lat="42.13926" lon="9.07556">
        <ele>1968.44</ele>
        <time>2015-09-11T07:07:52Z</time>
      </trkpt>
      <trkpt lat="42.13919" lon="9.07556">
        <ele>1970.36</ele>
        <time>2015-09-11T07:08:11Z</time>
      </trkpt>
      <trkpt lat="42.13916" lon="9.07559">
        <ele>1973.24</ele>
        <time>2015-09-11T07:08:31Z</time>
      </trkpt>
      <trkpt lat="42.13911" lon="9.07565">
        <ele>1975.17</ele>
        <time>2015-09-11T07:08:50Z</time>
      </trkpt>
      <trkpt lat="42.1391" lon="9.07571">
        <ele>1977.57</ele>
        <time>2015-09-11T07:09:09Z</time>
      </trkpt>
      <trkpt lat="42.13906" lon="9.07572">
        <ele>1979.49</ele>
        <time>2015-09-11T07:09:27Z</time>
      </trkpt>
      <trkpt lat="42.13896" lon="9.07574">
        <ele>1981.41</ele>
        <time>2015-09-11T07:09:43Z</time>
      </trkpt>
      <trkpt lat="42.13889" lon="9.0757">
        <ele>1981.9</ele>
        <time>2015-09-11T07:09:54Z</time>
      </trkpt>
      <trkpt lat="42.13873" lon="9.0756">
        <ele>1982.38</ele>
        <time>2015-09-11T07:10:16Z</time>
      </trkpt>
      <trkpt lat="42.13862" lon="9.07558">
        <ele>1985.26</ele>
        <time>2015-09-11T07:10:37Z</time>
      </trkpt>
      <trkpt lat="42.1386" lon="9.07566">
        <ele>1987.18</ele>
        <time>2015-09-11T07:10:54Z</time>
      </trkpt>
      <trkpt lat="42.13856" lon="9.07568">
        <ele>1989.59</ele>
        <time>2015-09-11T07:11:10Z</time>
      </trkpt>
      <trkpt lat="42.13856" lon="9.07574">
        <ele>1991.51</ele>
        <time>2015-09-11T07:11:27Z</time>
      </trkpt>
      <trkpt lat="42.13852" lon="9.07577">
        <ele>1993.91</ele>
        <time>2015-09-11T07:11:45Z</time>
      </trkpt>
      <trkpt lat="42.13846" lon="9.07579">
        <ele>1996.8</ele>
        <time>2015-09-11T07:12:04Z</time>
      </trkpt>
      <trkpt lat="42.13844" lon="9.0758">
        <ele>1998.72</ele>
        <time>2015-09-11T07:12:20Z</time>
      </trkpt>
      <trkpt lat="42.13834" lon="9.07577">
        <ele>2002.08</ele>
        <time>2015-09-11T07:12:41Z</time>
      </trkpt>
      <trkpt lat="42.13825" lon="9.07575">
        <ele>2004.01</ele>
        <time>2015-09-11T07:13:01Z</time>
      </trkpt>
      <trkpt lat="42.13824" lon="9.07578">
        <ele>2006.41</ele>
        <time>2015-09-11T07:13:20Z</time>
      </trkpt>
      <trkpt lat="42.1382" lon="9.07579">
        <ele>2008.81</ele>
        <time>2015-09-11T07:13:38Z</time>
      </trkpt>
      <trkpt lat="42.13816" lon="9.07584">
        <ele>2010.73</ele>
        <time>2015-09-11T07:13:58Z</time>
      </trkpt>
      <trkpt lat="42.13809" lon="9.0758">
        <ele>2012.66</ele>
        <time>2015-09-11T07:14:19Z</time>
      </trkpt>
      <trkpt lat="42.13803" lon="9.0758">
        <ele>2015.06</ele>
        <time>2015-09-11T07:14:39Z</time>
      </trkpt>
      <trkpt lat="42.13799" lon="9.07579">
        <ele>2016.5</ele>
        <time>2015-09-11T07:14:55Z</time>
      </trkpt>
      <trkpt lat="42.13793" lon="9.07575">
        <ele>2017.46</ele>
        <time>2015-09-11T07:15:13Z</time>
      </trkpt>
      <trkpt lat="42.13786" lon="9.07572">
        <ele>2017.46</ele>
        <time>2015-09-11T07:15:32Z</time>
      </trkpt>
      <trkpt lat="42.13786" lon="9.07572">
        <ele>2017.46</ele>
        <time>2015-09-11T07:15:33Z</time>
      </trkpt>
      <trkpt lat="42.13781" lon="9.07571">
        <ele>2020.83</ele>
        <time>2015-09-11T07:15:52Z</time>
      </trkpt>
      <trkpt lat="42.13779" lon="9.07567">
        <ele>2022.75</ele>
        <time>2015-09-11T07:16:10Z</time>
      </trkpt>
      <trkpt lat="42.13775" lon="9.07566">
        <ele>2023.23</ele>
        <time>2015-09-11T07:16:29Z</time>
      </trkpt>
      <trkpt lat="42.1377" lon="9.07568">
        <ele>2023.71</ele>
        <time>2015-09-11T07:16:52Z</time>
      </trkpt>
      <trkpt lat="42.13761" lon="9.07573">
        <ele>2025.15</ele>
        <time>2015-09-11T07:17:15Z</time>
      </trkpt>
      <trkpt lat="42.13754" lon="9.07574">
        <ele>2026.12</ele>
        <time>2015-09-11T07:17:33Z</time>
      </trkpt>
      <trkpt lat="42.13753" lon="9.07579">
        <ele>2029</ele>
        <time>2015-09-11T07:17:52Z</time>
      </trkpt>
      <trkpt lat="42.13749" lon="9.07584">
        <ele>2032.36</ele>
        <time>2015-09-11T07:18:11Z</time>
      </trkpt>
      <trkpt lat="42.13749" lon="9.07587">
        <ele>2034.77</ele>
        <time>2015-09-11T07:18:35Z</time>
      </trkpt>
      <trkpt lat="42.13752" lon="9.07594">
        <ele>2036.69</ele>
        <time>2015-09-11T07:18:54Z</time>
      </trkpt>
      <trkpt lat="42.13752" lon="9.07599">
        <ele>2039.57</ele>
        <time>2015-09-11T07:19:19Z</time>
      </trkpt>
      <trkpt lat="42.13749" lon="9.076">
        <ele>2041.98</ele>
        <time>2015-09-11T07:19:38Z</time>
      </trkpt>
      <trkpt lat="42.13743" lon="9.07597">
        <ele>2045.34</ele>
        <time>2015-09-11T07:19:56Z</time>
      </trkpt>
      <trkpt lat="42.13743" lon="9.07597">
        <ele>2045.34</ele>
        <time>2015-09-11T07:19:58Z</time>
      </trkpt>
      <trkpt lat="42.13738" lon="9.07599">
        <ele>2045.34</ele>
        <time>2015-09-11T07:20:05Z</time>
      </trkpt>
      <trkpt lat="42.13729" lon="9.07603">
        <ele>2047.26</ele>
        <time>2015-09-11T07:20:24Z</time>
      </trkpt>
      <trkpt lat="42.13726" lon="9.07604">
        <ele>2049.67</ele>
        <time>2015-09-11T07:20:45Z</time>
      </trkpt>
      <trkpt lat="42.13721" lon="9.07608">
        <ele>2052.55</ele>
        <time>2015-09-11T07:21:03Z</time>
      </trkpt>
      <trkpt lat="42.13718" lon="9.07611">
        <ele>2054.47</ele>
        <time>2015-09-11T07:21:20Z</time>
      </trkpt>
      <trkpt lat="42.13715" lon="9.07612">
        <ele>2057.36</ele>
        <time>2015-09-11T07:21:42Z</time>
      </trkpt>
      <trkpt lat="42.13711" lon="9.07613">
        <ele>2059.76</ele>
        <time>2015-09-11T07:22:06Z</time>
      </trkpt>
      <trkpt lat="42.13709" lon="9.07614">
        <ele>2061.2</ele>
        <time>2015-09-11T07:22:24Z</time>
      </trkpt>
      <trkpt lat="42.13705" lon="9.07614">
        <ele>2064.09</ele>
        <time>2015-09-11T07:22:46Z</time>
      </trkpt>
      <trkpt lat="42.13706" lon="9.07621">
        <ele>2066.49</ele>
        <time>2015-09-11T07:23:08Z</time>
      </trkpt>
      <trkpt lat="42.13706" lon="9.07624">
        <ele>2067.93</ele>
        <time>2015-09-11T07:23:25Z</time>
      </trkpt>
      <trkpt lat="42.13704" lon="9.07625">
        <ele>2069.86</ele>
        <time>2015-09-11T07:23:41Z</time>
      </trkpt>
      <trkpt lat="42.13705" lon="9.07631">
        <ele>2071.78</ele>
        <time>2015-09-11T07:23:59Z</time>
      </trkpt>
      <trkpt lat="42.13701" lon="9.07632">
        <ele>2073.7</ele>
        <time>2015-09-11T07:24:19Z</time>
      </trkpt>
      <trkpt lat="42.13698" lon="9.07633">
        <ele>2075.14</ele>
        <time>2015-09-11T07:24:36Z</time>
      </trkpt>
      <trkpt lat="42.13698" lon="9.07639">
        <ele>2077.55</ele>
        <time>2015-09-11T07:24:52Z</time>
      </trkpt>
      <trkpt lat="42.13701" lon="9.07645">
        <ele>2079.95</ele>
        <time>2015-09-11T07:25:13Z</time>
      </trkpt>
      <trkpt lat="42.13703" lon="9.07649">
        <ele>2081.87</ele>
        <time>2015-09-11T07:25:30Z</time>
      </trkpt>
      <trkpt lat="42.13702" lon="9.07652">
        <ele>2083.79</ele>
        <time>2015-09-11T07:25:48Z</time>
      </trkpt>
      <trkpt lat="42.13696" lon="9.07652">
        <ele>2086.2</ele>
        <time>2015-09-11T07:26:07Z</time>
      </trkpt>
      <trkpt lat="42.137" lon="9.07658">
        <ele>2088.12</ele>
        <time>2015-09-11T07:26:27Z</time>
      </trkpt>
      <trkpt lat="42.13697" lon="9.07659">
        <ele>2090.04</ele>
        <time>2015-09-11T07:26:43Z</time>
      </trkpt>
      <trkpt lat="42.13692" lon="9.07661">
        <ele>2092.93</ele>
        <time>2015-09-11T07:27:03Z</time>
      </trkpt>
      <trkpt lat="42.13688" lon="9.07664">
        <ele>2094.85</ele>
        <time>2015-09-11T07:27:20Z</time>
      </trkpt>
      <trkpt lat="42.13688" lon="9.07671">
        <ele>2097.25</ele>
        <time>2015-09-11T07:27:39Z</time>
      </trkpt>
      <trkpt lat="42.13687" lon="9.07675">
        <ele>2099.66</ele>
        <time>2015-09-11T07:27:56Z</time>
      </trkpt>
      <trkpt lat="42.13686" lon="9.07681">
        <ele>2101.58</ele>
        <time>2015-09-11T07:28:16Z</time>
      </trkpt>
      <trkpt lat="42.13686" lon="9.07687">
        <ele>2104.46</ele>
        <time>2015-09-11T07:28:34Z</time>
      </trkpt>
      <trkpt lat="42.13685" lon="9.07696">
        <ele>2106.87</ele>
        <time>2015-09-11T07:28:54Z</time>
      </trkpt>
      <trkpt lat="42.13683" lon="9.07705">
        <ele>2107.83</ele>
        <time>2015-09-11T07:29:11Z</time>
      </trkpt>
      <trkpt lat="42.1368" lon="9.07702">
        <ele>2110.23</ele>
        <time>2015-09-11T07:29:30Z</time>
      </trkpt>
      <trkpt lat="42.13675" lon="9.07699">
        <ele>2112.63</ele>
        <time>2015-09-11T07:29:47Z</time>
      </trkpt>
      <trkpt lat="42.13672" lon="9.07702">
        <ele>2113.6</ele>
        <time>2015-09-11T07:30:05Z</time>
      </trkpt>
      <trkpt lat="42.13672" lon="9.07708">
        <ele>2114.56</ele>
        <time>2015-09-11T07:30:21Z</time>
      </trkpt>
      <trkpt lat="42.13671" lon="9.07708">
        <ele>2115.04</ele>
        <time>2015-09-11T07:30:49Z</time>
      </trkpt>
      <trkpt lat="42.13672" lon="9.07707">
        <ele>2115.04</ele>
        <time>2015-09-11T07:31:12Z</time>
      </trkpt>
      <trkpt lat="42.13673" lon="9.07708">
        <ele>2115.04</ele>
        <time>2015-09-11T07:31:31Z</time>
      </trkpt>
      <trkpt lat="42.13673" lon="9.07707">
        <ele>2115.04</ele>
        <time>2015-09-11T07:31:51Z</time>
      </trkpt>
      <trkpt lat="42.13674" lon="9.07707">
        <ele>2115.04</ele>
        <time>2015-09-11T07:32:12Z</time>
      </trkpt>
      <trkpt lat="42.13673" lon="9.07706">
        <ele>2115.52</ele>
        <time>2015-09-11T07:32:36Z</time>
      </trkpt>
      <trkpt lat="42.13673" lon="9.07705">
        <ele>2115.52</ele>
        <time>2015-09-11T07:32:52Z</time>
      </trkpt>
      <trkpt lat="42.13673" lon="9.07708">
        <ele>2115.52</ele>
        <time>2015-09-11T07:33:12Z</time>
      </trkpt>
      <trkpt lat="42.13674" lon="9.07707">
        <ele>2115.52</ele>
        <time>2015-09-11T07:33:40Z</time>
      </trkpt>
      <trkpt lat="42.13674" lon="9.07709">
        <ele>2115.52</ele>
        <time>2015-09-11T07:34:06Z</time>
      </trkpt>
      <trkpt lat="42.13673" lon="9.07705">
        <ele>2116</ele>
        <time>2015-09-11T07:34:21Z</time>
      </trkpt>
      <trkpt lat="42.13672" lon="9.07707">
        <ele>2114.56</ele>
        <time>2015-09-11T07:34:40Z</time>
      </trkpt>
      <trkpt lat="42.13673" lon="9.07716">
        <ele>2113.6</ele>
        <time>2015-09-11T07:35:01Z</time>
      </trkpt>
      <trkpt lat="42.13673" lon="9.07718">
        <ele>2111.67</ele>
        <time>2015-09-11T07:35:09Z</time>
      </trkpt>
      <trkpt lat="42.13676" lon="9.07724">
        <ele>2111.67</ele>
        <time>2015-09-11T07:35:26Z</time>
      </trkpt>
      <trkpt lat="42.13674" lon="9.07726">
        <ele>2109.75</ele>
        <time>2015-09-11T07:35:45Z</time>
      </trkpt>
      <trkpt lat="42.13671" lon="9.07728">
        <ele>2106.87</ele>
        <time>2015-09-11T07:36:04Z</time>
      </trkpt>
      <trkpt lat="42.13671" lon="9.07737">
        <ele>2103.98</ele>
        <time>2015-09-11T07:36:24Z</time>
      </trkpt>
      <trkpt lat="42.13669" lon="9.07739">
        <ele>2101.58</ele>
        <time>2015-09-11T07:36:46Z</time>
      </trkpt>
      <trkpt lat="42.13668" lon="9.07742">
        <ele>2098.21</ele>
        <time>2015-09-11T07:37:03Z</time>
      </trkpt>
      <trkpt lat="42.13668" lon="9.07743">
        <ele>2098.21</ele>
        <time>2015-09-11T07:37:04Z</time>
      </trkpt>
      <trkpt lat="42.1367" lon="9.07746">
        <ele>2096.29</ele>
        <time>2015-09-11T07:37:22Z</time>
      </trkpt>
      <trkpt lat="42.13669" lon="9.07759">
        <ele>2094.37</ele>
        <time>2015-09-11T07:37:45Z</time>
      </trkpt>
      <trkpt lat="42.1367" lon="9.07766">
        <ele>2092.93</ele>
        <time>2015-09-11T07:38:03Z</time>
      </trkpt>
      <trkpt lat="42.13672" lon="9.07772">
        <ele>2091.49</ele>
        <time>2015-09-11T07:38:22Z</time>
      </trkpt>
      <trkpt lat="42.13672" lon="9.07776">
        <ele>2089.08</ele>
        <time>2015-09-11T07:38:38Z</time>
      </trkpt>
      <trkpt lat="42.13673" lon="9.07782">
        <ele>2086.68</ele>
        <time>2015-09-11T07:38:56Z</time>
      </trkpt>
      <trkpt lat="42.13675" lon="9.07788">
        <ele>2084.28</ele>
        <time>2015-09-11T07:39:12Z</time>
      </trkpt>
      <trkpt lat="42.1368" lon="9.07795">
        <ele>2082.83</ele>
        <time>2015-09-11T07:39:28Z</time>
      </trkpt>
      <trkpt lat="42.1368" lon="9.078">
        <ele>2082.83</ele>
        <time>2015-09-11T07:39:51Z</time>
      </trkpt>
      <trkpt lat="42.13683" lon="9.07802">
        <ele>2081.87</ele>
        <time>2015-09-11T07:40:08Z</time>
      </trkpt>
      <trkpt lat="42.13683" lon="9.07809">
        <ele>2079.47</ele>
        <time>2015-09-11T07:40:25Z</time>
      </trkpt>
      <trkpt lat="42.13684" lon="9.07817">
        <ele>2077.07</ele>
        <time>2015-09-11T07:40:40Z</time>
      </trkpt>
      <trkpt lat="42.13679" lon="9.07823">
        <ele>2074.18</ele>
        <time>2015-09-11T07:40:53Z</time>
      </trkpt>
      <trkpt lat="42.13678" lon="9.07829">
        <ele>2070.82</ele>
        <time>2015-09-11T07:41:06Z</time>
      </trkpt>
      <trkpt lat="42.13675" lon="9.07832">
        <ele>2068.41</ele>
        <time>2015-09-11T07:41:23Z</time>
      </trkpt>
      <trkpt lat="42.13677" lon="9.07838">
        <ele>2066.97</ele>
        <time>2015-09-11T07:41:40Z</time>
      </trkpt>
      <trkpt lat="42.13675" lon="9.07841">
        <ele>2063.61</ele>
        <time>2015-09-11T07:41:54Z</time>
      </trkpt>
      <trkpt lat="42.13677" lon="9.07851">
        <ele>2061.68</ele>
        <time>2015-09-11T07:42:11Z</time>
      </trkpt>
      <trkpt lat="42.13675" lon="9.07857">
        <ele>2059.28</ele>
        <time>2015-09-11T07:42:28Z</time>
      </trkpt>
      <trkpt lat="42.13674" lon="9.07858">
        <ele>2057.36</ele>
        <time>2015-09-11T07:42:35Z</time>
      </trkpt>
      <trkpt lat="42.13673" lon="9.07866">
        <ele>2054.96</ele>
        <time>2015-09-11T07:42:52Z</time>
      </trkpt>
      <trkpt lat="42.13673" lon="9.07874">
        <ele>2053.03</ele>
        <time>2015-09-11T07:43:09Z</time>
      </trkpt>
      <trkpt lat="42.13674" lon="9.07879">
        <ele>2051.59</ele>
        <time>2015-09-11T07:43:25Z</time>
      </trkpt>
      <trkpt lat="42.13671" lon="9.07882">
        <ele>2048.71</ele>
        <time>2015-09-11T07:43:45Z</time>
      </trkpt>
      <trkpt lat="42.13668" lon="9.0789">
        <ele>2046.3</ele>
        <time>2015-09-11T07:44:02Z</time>
      </trkpt>
      <trkpt lat="42.13673" lon="9.07905">
        <ele>2044.86</ele>
        <time>2015-09-11T07:44:19Z</time>
      </trkpt>
      <trkpt lat="42.13671" lon="9.07916">
        <ele>2044.86</ele>
        <time>2015-09-11T07:44:36Z</time>
      </trkpt>
      <trkpt lat="42.1367" lon="9.07925">
        <ele>2043.9</ele>
        <time>2015-09-11T07:44:54Z</time>
      </trkpt>
      <trkpt lat="42.1367" lon="9.07927">
        <ele>2045.34</ele>
        <time>2015-09-11T07:44:58Z</time>
      </trkpt>
      <trkpt lat="42.13674" lon="9.07936">
        <ele>2047.26</ele>
        <time>2015-09-11T07:45:15Z</time>
      </trkpt>
      <trkpt lat="42.13673" lon="9.07944">
        <ele>2045.82</ele>
        <time>2015-09-11T07:45:25Z</time>
      </trkpt>
      <trkpt lat="42.13673" lon="9.07956">
        <ele>2045.34</ele>
        <time>2015-09-11T07:45:41Z</time>
      </trkpt>
      <trkpt lat="42.13675" lon="9.07967">
        <ele>2045.34</ele>
        <time>2015-09-11T07:45:56Z</time>
      </trkpt>
      <trkpt lat="42.13676" lon="9.07982">
        <ele>2044.38</ele>
        <time>2015-09-11T07:46:15Z</time>
      </trkpt>
      <trkpt lat="42.13678" lon="9.07994">
        <ele>2043.9</ele>
        <time>2015-09-11T07:46:32Z</time>
      </trkpt>
      <trkpt lat="42.13678" lon="9.08006">
        <ele>2043.42</ele>
        <time>2015-09-11T07:46:48Z</time>
      </trkpt>
      <trkpt lat="42.13678" lon="9.08018">
        <ele>2042.46</ele>
        <time>2015-09-11T07:47:08Z</time>
      </trkpt>
      <trkpt lat="42.13679" lon="9.08028">
        <ele>2041.98</ele>
        <time>2015-09-11T07:47:25Z</time>
      </trkpt>
      <trkpt lat="42.13682" lon="9.08039">
        <ele>2040.54</ele>
        <time>2015-09-11T07:47:42Z</time>
      </trkpt>
      <trkpt lat="42.13687" lon="9.08048">
        <ele>2040.54</ele>
        <time>2015-09-11T07:47:58Z</time>
      </trkpt>
      <trkpt lat="42.13688" lon="9.0806">
        <ele>2041.98</ele>
        <time>2015-09-11T07:48:16Z</time>
      </trkpt>
      <trkpt lat="42.13688" lon="9.08066">
        <ele>2040.54</ele>
        <time>2015-09-11T07:48:29Z</time>
      </trkpt>
      <trkpt lat="42.13691" lon="9.08076">
        <ele>2041.98</ele>
        <time>2015-09-11T07:48:48Z</time>
      </trkpt>
      <trkpt lat="42.13697" lon="9.08082">
        <ele>2042.94</ele>
        <time>2015-09-11T07:49:05Z</time>
      </trkpt>
      <trkpt lat="42.13699" lon="9.08092">
        <ele>2040.54</ele>
        <time>2015-09-11T07:49:26Z</time>
      </trkpt>
      <trkpt lat="42.13697" lon="9.08099">
        <ele>2038.61</ele>
        <time>2015-09-11T07:49:45Z</time>
      </trkpt>
      <trkpt lat="42.13698" lon="9.08104">
        <ele>2036.69</ele>
        <time>2015-09-11T07:50:03Z</time>
      </trkpt>
      <trkpt lat="42.13697" lon="9.0811">
        <ele>2034.29</ele>
        <time>2015-09-11T07:50:25Z</time>
      </trkpt>
      <trkpt lat="42.13697" lon="9.08113">
        <ele>2032.36</ele>
        <time>2015-09-11T07:50:43Z</time>
      </trkpt>
      <trkpt lat="42.13695" lon="9.08118">
        <ele>2030.44</ele>
        <time>2015-09-11T07:51:00Z</time>
      </trkpt>
      <trkpt lat="42.13693" lon="9.08123">
        <ele>2028.04</ele>
        <time>2015-09-11T07:51:16Z</time>
      </trkpt>
      <trkpt lat="42.13695" lon="9.08135">
        <ele>2026.12</ele>
        <time>2015-09-11T07:51:35Z</time>
      </trkpt>
      <trkpt lat="42.13696" lon="9.08143">
        <ele>2025.15</ele>
        <time>2015-09-11T07:51:51Z</time>
      </trkpt>
      <trkpt lat="42.137" lon="9.08153">
        <ele>2023.71</ele>
        <time>2015-09-11T07:52:09Z</time>
      </trkpt>
      <trkpt lat="42.13701" lon="9.08165">
        <ele>2021.31</ele>
        <time>2015-09-11T07:52:27Z</time>
      </trkpt>
      <trkpt lat="42.13701" lon="9.08174">
        <ele>2018.43</ele>
        <time>2015-09-11T07:52:38Z</time>
      </trkpt>
      <trkpt lat="42.13707" lon="9.08187">
        <ele>2017.46</ele>
        <time>2015-09-11T07:52:53Z</time>
      </trkpt>
      <trkpt lat="42.13713" lon="9.08204">
        <ele>2016.98</ele>
        <time>2015-09-11T07:53:12Z</time>
      </trkpt>
      <trkpt lat="42.13717" lon="9.08217">
        <ele>2016.02</ele>
        <time>2015-09-11T07:53:29Z</time>
      </trkpt>
      <trkpt lat="42.13722" lon="9.08226">
        <ele>2015.54</ele>
        <time>2015-09-11T07:53:43Z</time>
      </trkpt>
      <trkpt lat="42.13728" lon="9.08237">
        <ele>2015.54</ele>
        <time>2015-09-11T07:54:01Z</time>
      </trkpt>
      <trkpt lat="42.13729" lon="9.0825">
        <ele>2015.06</ele>
        <time>2015-09-11T07:54:20Z</time>
      </trkpt>
      <trkpt lat="42.13726" lon="9.08265">
        <ele>2013.14</ele>
        <time>2015-09-11T07:54:39Z</time>
      </trkpt>
      <trkpt lat="42.13722" lon="9.08275">
        <ele>2011.7</ele>
        <time>2015-09-11T07:54:56Z</time>
      </trkpt>
      <trkpt lat="42.1372" lon="9.08279">
        <ele>2010.25</ele>
        <time>2015-09-11T07:55:02Z</time>
      </trkpt>
      <trkpt lat="42.13718" lon="9.08289">
        <ele>2007.85</ele>
        <time>2015-09-11T07:55:20Z</time>
      </trkpt>
      <trkpt lat="42.13719" lon="9.08297">
        <ele>2006.89</ele>
        <time>2015-09-11T07:55:44Z</time>
      </trkpt>
      <trkpt lat="42.13718" lon="9.08307">
        <ele>2005.45</ele>
        <time>2015-09-11T07:56:00Z</time>
      </trkpt>
      <trkpt lat="42.13717" lon="9.08323">
        <ele>2004.49</ele>
        <time>2015-09-11T07:56:18Z</time>
      </trkpt>
      <trkpt lat="42.13718" lon="9.08337">
        <ele>2005.93</ele>
        <time>2015-09-11T07:56:35Z</time>
      </trkpt>
      <trkpt lat="42.13718" lon="9.08347">
        <ele>2004.49</ele>
        <time>2015-09-11T07:56:47Z</time>
      </trkpt>
      <trkpt lat="42.13721" lon="9.08361">
        <ele>2004.49</ele>
        <time>2015-09-11T07:57:05Z</time>
      </trkpt>
      <trkpt lat="42.13723" lon="9.08368">
        <ele>2006.89</ele>
        <time>2015-09-11T07:57:23Z</time>
      </trkpt>
      <trkpt lat="42.13724" lon="9.08378">
        <ele>2007.85</ele>
        <time>2015-09-11T07:57:39Z</time>
      </trkpt>
      <trkpt lat="42.13725" lon="9.08392">
        <ele>2007.85</ele>
        <time>2015-09-11T07:57:57Z</time>
      </trkpt>
      <trkpt lat="42.13726" lon="9.08406">
        <ele>2008.33</ele>
        <time>2015-09-11T07:58:19Z</time>
      </trkpt>
      <trkpt lat="42.13724" lon="9.08413">
        <ele>2010.25</ele>
        <time>2015-09-11T07:58:39Z</time>
      </trkpt>
      <trkpt lat="42.13723" lon="9.08418">
        <ele>2010.73</ele>
        <time>2015-09-11T07:59:02Z</time>
      </trkpt>
      <trkpt lat="42.13723" lon="9.08419">
        <ele>2009.29</ele>
        <time>2015-09-11T07:59:06Z</time>
      </trkpt>
      <trkpt lat="42.13722" lon="9.08423">
        <ele>2007.85</ele>
        <time>2015-09-11T07:59:23Z</time>
      </trkpt>
      <trkpt lat="42.13719" lon="9.08425">
        <ele>2004.49</ele>
        <time>2015-09-11T07:59:41Z</time>
      </trkpt>
      <trkpt lat="42.13716" lon="9.08427">
        <ele>2002.56</ele>
        <time>2015-09-11T07:59:59Z</time>
      </trkpt>
      <trkpt lat="42.13717" lon="9.08439">
        <ele>1999.68</ele>
        <time>2015-09-11T08:00:17Z</time>
      </trkpt>
      <trkpt lat="42.13718" lon="9.08449">
        <ele>1998.24</ele>
        <time>2015-09-11T08:00:34Z</time>
      </trkpt>
      <trkpt lat="42.13718" lon="9.08456">
        <ele>1996.8</ele>
        <time>2015-09-11T08:00:52Z</time>
      </trkpt>
      <trkpt lat="42.13719" lon="9.08463">
        <ele>1993.91</ele>
        <time>2015-09-11T08:01:12Z</time>
      </trkpt>
      <trkpt lat="42.13716" lon="9.08469">
        <ele>1991.51</ele>
        <time>2015-09-11T08:01:31Z</time>
      </trkpt>
      <trkpt lat="42.13711" lon="9.08476">
        <ele>1988.62</ele>
        <time>2015-09-11T08:01:49Z</time>
      </trkpt>
      <trkpt lat="42.1371" lon="9.08483">
        <ele>1985.74</ele>
        <time>2015-09-11T08:02:07Z</time>
      </trkpt>
      <trkpt lat="42.13705" lon="9.08483">
        <ele>1983.34</ele>
        <time>2015-09-11T08:02:27Z</time>
      </trkpt>
      <trkpt lat="42.13704" lon="9.0849">
        <ele>1980.45</ele>
        <time>2015-09-11T08:02:45Z</time>
      </trkpt>
      <trkpt lat="42.13698" lon="9.08494">
        <ele>1978.05</ele>
        <time>2015-09-11T08:03:02Z</time>
      </trkpt>
      <trkpt lat="42.13694" lon="9.08499">
        <ele>1974.69</ele>
        <time>2015-09-11T08:03:21Z</time>
      </trkpt>
      <trkpt lat="42.13692" lon="9.08503">
        <ele>1972.28</ele>
        <time>2015-09-11T08:03:40Z</time>
      </trkpt>
      <trkpt lat="42.13688" lon="9.08507">
        <ele>1969.88</ele>
        <time>2015-09-11T08:04:01Z</time>
      </trkpt>
      <trkpt lat="42.13683" lon="9.08518">
        <ele>1967.48</ele>
        <time>2015-09-11T08:04:19Z</time>
      </trkpt>
      <trkpt lat="42.13678" lon="9.08518">
        <ele>1965.07</ele>
        <time>2015-09-11T08:04:35Z</time>
      </trkpt>
      <trkpt lat="42.13679" lon="9.08514">
        <ele>1964.59</ele>
        <time>2015-09-11T08:04:54Z</time>
      </trkpt>
      <trkpt lat="42.13675" lon="9.08516">
        <ele>1962.19</ele>
        <time>2015-09-11T08:05:14Z</time>
      </trkpt>
      <trkpt lat="42.13674" lon="9.08515">
        <ele>1959.78</ele>
        <time>2015-09-11T08:05:32Z</time>
      </trkpt>
      <trkpt lat="42.13668" lon="9.08516">
        <ele>1956.9</ele>
        <time>2015-09-11T08:05:49Z</time>
      </trkpt>
      <trkpt lat="42.13664" lon="9.08522">
        <ele>1954.98</ele>
        <time>2015-09-11T08:06:07Z</time>
      </trkpt>
      <trkpt lat="42.1366" lon="9.08528">
        <ele>1952.57</ele>
        <time>2015-09-11T08:06:26Z</time>
      </trkpt>
      <trkpt lat="42.13658" lon="9.08534">
        <ele>1950.17</ele>
        <time>2015-09-11T08:06:41Z</time>
      </trkpt>
      <trkpt lat="42.13654" lon="9.08539">
        <ele>1948.25</ele>
        <time>2015-09-11T08:06:59Z</time>
      </trkpt>
      <trkpt lat="42.13651" lon="9.08533">
        <ele>1945.36</ele>
        <time>2015-09-11T08:07:20Z</time>
      </trkpt>
      <trkpt lat="42.13644" lon="9.08532">
        <ele>1942.96</ele>
        <time>2015-09-11T08:07:39Z</time>
      </trkpt>
      <trkpt lat="42.13637" lon="9.08533">
        <ele>1940.56</ele>
        <time>2015-09-11T08:07:56Z</time>
      </trkpt>
      <trkpt lat="42.13635" lon="9.08543">
        <ele>1938.16</ele>
        <time>2015-09-11T08:08:11Z</time>
      </trkpt>
      <trkpt lat="42.1363" lon="9.08544">
        <ele>1936.23</ele>
        <time>2015-09-11T08:08:28Z</time>
      </trkpt>
      <trkpt lat="42.13622" lon="9.08543">
        <ele>1933.35</ele>
        <time>2015-09-11T08:08:45Z</time>
      </trkpt>
      <trkpt lat="42.13617" lon="9.08538">
        <ele>1931.43</ele>
        <time>2015-09-11T08:09:02Z</time>
      </trkpt>
      <trkpt lat="42.13616" lon="9.08531">
        <ele>1929.5</ele>
        <time>2015-09-11T08:09:18Z</time>
      </trkpt>
      <trkpt lat="42.13612" lon="9.08517">
        <ele>1928.06</ele>
        <time>2015-09-11T08:09:36Z</time>
      </trkpt>
      <trkpt lat="42.13609" lon="9.08505">
        <ele>1925.66</ele>
        <time>2015-09-11T08:09:53Z</time>
      </trkpt>
      <trkpt lat="42.13609" lon="9.08496">
        <ele>1923.25</ele>
        <time>2015-09-11T08:10:10Z</time>
      </trkpt>
      <trkpt lat="42.13607" lon="9.08487">
        <ele>1921.81</ele>
        <time>2015-09-11T08:10:27Z</time>
      </trkpt>
      <trkpt lat="42.13604" lon="9.08476">
        <ele>1920.85</ele>
        <time>2015-09-11T08:10:44Z</time>
      </trkpt>
      <trkpt lat="42.13599" lon="9.08468">
        <ele>1920.85</ele>
        <time>2015-09-11T08:11:00Z</time>
      </trkpt>
      <trkpt lat="42.13596" lon="9.08461">
        <ele>1919.41</ele>
        <time>2015-09-11T08:11:16Z</time>
      </trkpt>
      <trkpt lat="42.13589" lon="9.08453">
        <ele>1917.01</ele>
        <time>2015-09-11T08:11:32Z</time>
      </trkpt>
      <trkpt lat="42.13583" lon="9.08446">
        <ele>1915.08</ele>
        <time>2015-09-11T08:11:46Z</time>
      </trkpt>
      <trkpt lat="42.13576" lon="9.08439">
        <ele>1913.64</ele>
        <time>2015-09-11T08:12:03Z</time>
      </trkpt>
      <trkpt lat="42.13575" lon="9.08436">
        <ele>1911.24</ele>
        <time>2015-09-11T08:12:20Z</time>
      </trkpt>
      <trkpt lat="42.13567" lon="9.08431">
        <ele>1908.83</ele>
        <time>2015-09-11T08:12:37Z</time>
      </trkpt>
      <trkpt lat="42.1356" lon="9.08431">
        <ele>1905.95</ele>
        <time>2015-09-11T08:12:53Z</time>
      </trkpt>
      <trkpt lat="42.13554" lon="9.08438">
        <ele>1903.07</ele>
        <time>2015-09-11T08:13:10Z</time>
      </trkpt>
      <trkpt lat="42.13557" lon="9.08436">
        <ele>1901.63</ele>
        <time>2015-09-11T08:13:29Z</time>
      </trkpt>
      <trkpt lat="42.13554" lon="9.08433">
        <ele>1900.66</ele>
        <time>2015-09-11T08:13:43Z</time>
      </trkpt>
      <trkpt lat="42.13551" lon="9.0843">
        <ele>1900.66</ele>
        <time>2015-09-11T08:14:07Z</time>
      </trkpt>
      <trkpt lat="42.13551" lon="9.08431">
        <ele>1900.66</ele>
        <time>2015-09-11T08:14:35Z</time>
      </trkpt>
      <trkpt lat="42.13553" lon="9.08431">
        <ele>1900.66</ele>
        <time>2015-09-11T08:15:05Z</time>
      </trkpt>
      <trkpt lat="42.13551" lon="9.08431">
        <ele>1900.66</ele>
        <time>2015-09-11T08:15:27Z</time>
      </trkpt>
      <trkpt lat="42.1355" lon="9.08433">
        <ele>1900.18</ele>
        <time>2015-09-11T08:16:00Z</time>
      </trkpt>
      <trkpt lat="42.13557" lon="9.08433">
        <ele>1901.14</ele>
        <time>2015-09-11T08:16:32Z</time>
      </trkpt>
      <trkpt lat="42.13551" lon="9.08433">
        <ele>1899.7</ele>
        <time>2015-09-11T08:16:52Z</time>
      </trkpt>
      <trkpt lat="42.13548" lon="9.08434">
        <ele>1898.26</ele>
        <time>2015-09-11T08:17:09Z</time>
      </trkpt>
      <trkpt lat="42.13546" lon="9.08429">
        <ele>1896.34</ele>
        <time>2015-09-11T08:17:27Z</time>
      </trkpt>
      <trkpt lat="42.13546" lon="9.08423">
        <ele>1893.93</ele>
        <time>2015-09-11T08:17:42Z</time>
      </trkpt>
      <trkpt lat="42.13542" lon="9.08418">
        <ele>1892.49</ele>
        <time>2015-09-11T08:18:04Z</time>
      </trkpt>
      <trkpt lat="42.13542" lon="9.08412">
        <ele>1891.53</ele>
        <time>2015-09-11T08:18:21Z</time>
      </trkpt>
      <trkpt lat="42.13537" lon="9.08408">
        <ele>1889.13</ele>
        <time>2015-09-11T08:18:38Z</time>
      </trkpt>
      <trkpt lat="42.13533" lon="9.08411">
        <ele>1886.72</ele>
        <time>2015-09-11T08:18:53Z</time>
      </trkpt>
      <trkpt lat="42.13532" lon="9.08412">
        <ele>1886.24</ele>
        <time>2015-09-11T08:19:15Z</time>
      </trkpt>
      <trkpt lat="42.1353" lon="9.08411">
        <ele>1885.28</ele>
        <time>2015-09-11T08:19:47Z</time>
      </trkpt>
      <trkpt lat="42.13525" lon="9.08414">
        <ele>1882.88</ele>
        <time>2015-09-11T08:20:04Z</time>
      </trkpt>
      <trkpt lat="42.1352" lon="9.08414">
        <ele>1880.48</ele>
        <time>2015-09-11T08:20:20Z</time>
      </trkpt>
      <trkpt lat="42.13515" lon="9.08411">
        <ele>1878.07</ele>
        <time>2015-09-11T08:20:37Z</time>
      </trkpt>
      <trkpt lat="42.13508" lon="9.08419">
        <ele>1875.67</ele>
        <time>2015-09-11T08:20:51Z</time>
      </trkpt>
      <trkpt lat="42.13507" lon="9.0843">
        <ele>1874.71</ele>
        <time>2015-09-11T08:21:06Z</time>
      </trkpt>
      <trkpt lat="42.13503" lon="9.0844">
        <ele>1871.82</ele>
        <time>2015-09-11T08:21:25Z</time>
      </trkpt>
      <trkpt lat="42.13502" lon="9.08449">
        <ele>1869.42</ele>
        <time>2015-09-11T08:21:41Z</time>
      </trkpt>
      <trkpt lat="42.13499" lon="9.08455">
        <ele>1866.54</ele>
        <time>2015-09-11T08:21:55Z</time>
      </trkpt>
      <trkpt lat="42.13497" lon="9.08462">
        <ele>1864.61</ele>
        <time>2015-09-11T08:22:12Z</time>
      </trkpt>
      <trkpt lat="42.13495" lon="9.08466">
        <ele>1862.21</ele>
        <time>2015-09-11T08:22:30Z</time>
      </trkpt>
      <trkpt lat="42.13488" lon="9.08468">
        <ele>1860.29</ele>
        <time>2015-09-11T08:22:45Z</time>
      </trkpt>
      <trkpt lat="42.13484" lon="9.08462">
        <ele>1857.4</ele>
        <time>2015-09-11T08:23:04Z</time>
      </trkpt>
      <trkpt lat="42.1348" lon="9.08459">
        <ele>1855</ele>
        <time>2015-09-11T08:23:19Z</time>
      </trkpt>
      <trkpt lat="42.13478" lon="9.08459">
        <ele>1852.12</ele>
        <time>2015-09-11T08:23:35Z</time>
      </trkpt>
      <trkpt lat="42.13472" lon="9.08456">
        <ele>1850.19</ele>
        <time>2015-09-11T08:23:53Z</time>
      </trkpt>
      <trkpt lat="42.1347" lon="9.08457">
        <ele>1849.23</ele>
        <time>2015-09-11T08:24:06Z</time>
      </trkpt>
      <trkpt lat="42.13466" lon="9.08455">
        <ele>1846.35</ele>
        <time>2015-09-11T08:24:22Z</time>
      </trkpt>
      <trkpt lat="42.13464" lon="9.08452">
        <ele>1843.47</ele>
        <time>2015-09-11T08:24:41Z</time>
      </trkpt>
      <trkpt lat="42.13458" lon="9.08456">
        <ele>1841.06</ele>
        <time>2015-09-11T08:24:57Z</time>
      </trkpt>
      <trkpt lat="42.13452" lon="9.08454">
        <ele>1838.66</ele>
        <time>2015-09-11T08:25:13Z</time>
      </trkpt>
      <trkpt lat="42.13445" lon="9.08453">
        <ele>1835.77</ele>
        <time>2015-09-11T08:25:31Z</time>
      </trkpt>
      <trkpt lat="42.13439" lon="9.08457">
        <ele>1834.33</ele>
        <time>2015-09-11T08:25:45Z</time>
      </trkpt>
      <trkpt lat="42.13431" lon="9.08457">
        <ele>1832.41</ele>
        <time>2015-09-11T08:26:04Z</time>
      </trkpt>
      <trkpt lat="42.13425" lon="9.08465">
        <ele>1829.05</ele>
        <time>2015-09-11T08:26:22Z</time>
      </trkpt>
      <trkpt lat="42.13418" lon="9.08471">
        <ele>1826.64</ele>
        <time>2015-09-11T08:26:40Z</time>
      </trkpt>
      <trkpt lat="42.13415" lon="9.08478">
        <ele>1823.76</ele>
        <time>2015-09-11T08:26:50Z</time>
      </trkpt>
      <trkpt lat="42.13419" lon="9.08486">
        <ele>1821.35</ele>
        <time>2015-09-11T08:27:11Z</time>
      </trkpt>
      <trkpt lat="42.13413" lon="9.08486">
        <ele>1818.95</ele>
        <time>2015-09-11T08:27:31Z</time>
      </trkpt>
      <trkpt lat="42.13409" lon="9.08487">
        <ele>1816.07</ele>
        <time>2015-09-11T08:27:46Z</time>
      </trkpt>
      <trkpt lat="42.13404" lon="9.08499">
        <ele>1813.18</ele>
        <time>2015-09-11T08:28:02Z</time>
      </trkpt>
      <trkpt lat="42.13399" lon="9.08507">
        <ele>1811.26</ele>
        <time>2015-09-11T08:28:18Z</time>
      </trkpt>
      <trkpt lat="42.13398" lon="9.08516">
        <ele>1807.9</ele>
        <time>2015-09-11T08:28:35Z</time>
      </trkpt>
      <trkpt lat="42.13396" lon="9.08525">
        <ele>1805.97</ele>
        <time>2015-09-11T08:28:51Z</time>
      </trkpt>
      <trkpt lat="42.13396" lon="9.08537">
        <ele>1805.97</ele>
        <time>2015-09-11T08:29:08Z</time>
      </trkpt>
      <trkpt lat="42.13394" lon="9.08546">
        <ele>1804.05</ele>
        <time>2015-09-11T08:29:25Z</time>
      </trkpt>
      <trkpt lat="42.13391" lon="9.08546">
        <ele>1801.65</ele>
        <time>2015-09-11T08:29:46Z</time>
      </trkpt>
      <trkpt lat="42.13388" lon="9.08552">
        <ele>1798.76</ele>
        <time>2015-09-11T08:30:08Z</time>
      </trkpt>
      <trkpt lat="42.13385" lon="9.08559">
        <ele>1796.36</ele>
        <time>2015-09-11T08:30:30Z</time>
      </trkpt>
      <trkpt lat="42.13379" lon="9.08555">
        <ele>1794.44</ele>
        <time>2015-09-11T08:30:55Z</time>
      </trkpt>
      <trkpt lat="42.13375" lon="9.08551">
        <ele>1791.55</ele>
        <time>2015-09-11T08:31:12Z</time>
      </trkpt>
      <trkpt lat="42.13368" lon="9.08549">
        <ele>1789.15</ele>
        <time>2015-09-11T08:31:31Z</time>
      </trkpt>
      <trkpt lat="42.13362" lon="9.08547">
        <ele>1788.19</ele>
        <time>2015-09-11T08:31:50Z</time>
      </trkpt>
      <trkpt lat="42.1336" lon="9.08544">
        <ele>1786.75</ele>
        <time>2015-09-11T08:32:09Z</time>
      </trkpt>
      <trkpt lat="42.13358" lon="9.08536">
        <ele>1784.34</ele>
        <time>2015-09-11T08:32:25Z</time>
      </trkpt>
      <trkpt lat="42.13354" lon="9.08529">
        <ele>1780.5</ele>
        <time>2015-09-11T08:32:45Z</time>
      </trkpt>
      <trkpt lat="42.1335" lon="9.0853">
        <ele>1779.06</ele>
        <time>2015-09-11T08:33:01Z</time>
      </trkpt>
      <trkpt lat="42.1335" lon="9.08525">
        <ele>1777.13</ele>
        <time>2015-09-11T08:33:17Z</time>
      </trkpt>
      <trkpt lat="42.13348" lon="9.08519">
        <ele>1775.21</ele>
        <time>2015-09-11T08:33:33Z</time>
      </trkpt>
      <trkpt lat="42.13346" lon="9.0851">
        <ele>1774.25</ele>
        <time>2015-09-11T08:33:48Z</time>
      </trkpt>
      <trkpt lat="42.1334" lon="9.08502">
        <ele>1773.77</ele>
        <time>2015-09-11T08:34:05Z</time>
      </trkpt>
      <trkpt lat="42.13338" lon="9.08496">
        <ele>1773.77</ele>
        <time>2015-09-11T08:34:19Z</time>
      </trkpt>
      <trkpt lat="42.13332" lon="9.08493">
        <ele>1770.89</ele>
        <time>2015-09-11T08:34:36Z</time>
      </trkpt>
      <trkpt lat="42.13329" lon="9.08486">
        <ele>1768.48</ele>
        <time>2015-09-11T08:34:54Z</time>
      </trkpt>
      <trkpt lat="42.13328" lon="9.0848">
        <ele>1767.52</ele>
        <time>2015-09-11T08:35:08Z</time>
      </trkpt>
      <trkpt lat="42.13328" lon="9.08473">
        <ele>1766.08</ele>
        <time>2015-09-11T08:35:24Z</time>
      </trkpt>
      <trkpt lat="42.1333" lon="9.08462">
        <ele>1763.68</ele>
        <time>2015-09-11T08:35:44Z</time>
      </trkpt>
      <trkpt lat="42.13328" lon="9.08458">
        <ele>1762.23</ele>
        <time>2015-09-11T08:36:02Z</time>
      </trkpt>
      <trkpt lat="42.13322" lon="9.08452">
        <ele>1759.83</ele>
        <time>2015-09-11T08:36:18Z</time>
      </trkpt>
      <trkpt lat="42.13317" lon="9.08451">
        <ele>1756.95</ele>
        <time>2015-09-11T08:36:39Z</time>
      </trkpt>
      <trkpt lat="42.13313" lon="9.08455">
        <ele>1755.02</ele>
        <time>2015-09-11T08:36:53Z</time>
      </trkpt>
      <trkpt lat="42.13308" lon="9.08461">
        <ele>1752.62</ele>
        <time>2015-09-11T08:37:11Z</time>
      </trkpt>
      <trkpt lat="42.13299" lon="9.08467">
        <ele>1750.7</ele>
        <time>2015-09-11T08:37:28Z</time>
      </trkpt>
      <trkpt lat="42.13298" lon="9.08466">
        <ele>1747.33</ele>
        <time>2015-09-11T08:37:52Z</time>
      </trkpt>
      <trkpt lat="42.13295" lon="9.08463">
        <ele>1747.33</ele>
        <time>2015-09-11T08:38:10Z</time>
      </trkpt>
      <trkpt lat="42.13296" lon="9.08463">
        <ele>1747.33</ele>
        <time>2015-09-11T08:38:38Z</time>
      </trkpt>
      <trkpt lat="42.13297" lon="9.08463">
        <ele>1746.85</ele>
        <time>2015-09-11T08:39:01Z</time>
      </trkpt>
      <trkpt lat="42.13296" lon="9.08462">
        <ele>1746.85</ele>
        <time>2015-09-11T08:39:28Z</time>
      </trkpt>
      <trkpt lat="42.13296" lon="9.08466">
        <ele>1746.85</ele>
        <time>2015-09-11T08:39:52Z</time>
      </trkpt>
      <trkpt lat="42.13298" lon="9.08465">
        <ele>1746.85</ele>
        <time>2015-09-11T08:40:13Z</time>
      </trkpt>
      <trkpt lat="42.13296" lon="9.08463">
        <ele>1746.85</ele>
        <time>2015-09-11T08:40:33Z</time>
      </trkpt>
      <trkpt lat="42.13296" lon="9.08464">
        <ele>1746.85</ele>
        <time>2015-09-11T08:40:55Z</time>
      </trkpt>
      <trkpt lat="42.13297" lon="9.08464">
        <ele>1746.85</ele>
        <time>2015-09-11T08:41:20Z</time>
      </trkpt>
      <trkpt lat="42.13297" lon="9.08464">
        <ele>1746.85</ele>
        <time>2015-09-11T08:41:42Z</time>
      </trkpt>
      <trkpt lat="42.13299" lon="9.08467">
        <ele>1746.85</ele>
        <time>2015-09-11T08:42:09Z</time>
      </trkpt>
      <trkpt lat="42.13298" lon="9.08465">
        <ele>1746.85</ele>
        <time>2015-09-11T08:42:35Z</time>
      </trkpt>
      <trkpt lat="42.13297" lon="9.08463">
        <ele>1746.85</ele>
        <time>2015-09-11T08:43:04Z</time>
      </trkpt>
      <trkpt lat="42.13296" lon="9.08463">
        <ele>1746.37</ele>
        <time>2015-09-11T08:43:33Z</time>
      </trkpt>
      <trkpt lat="42.13298" lon="9.08462">
        <ele>1746.37</ele>
        <time>2015-09-11T08:44:08Z</time>
      </trkpt>
      <trkpt lat="42.13299" lon="9.08465">
        <ele>1746.37</ele>
        <time>2015-09-11T08:44:33Z</time>
      </trkpt>
      <trkpt lat="42.13303" lon="9.08469">
        <ele>1746.37</ele>
        <time>2015-09-11T08:44:55Z</time>
      </trkpt>
      <trkpt lat="42.13301" lon="9.08467">
        <ele>1746.37</ele>
        <time>2015-09-11T08:45:17Z</time>
      </trkpt>
      <trkpt lat="42.13297" lon="9.08466">
        <ele>1746.37</ele>
        <time>2015-09-11T08:45:41Z</time>
      </trkpt>
      <trkpt lat="42.13301" lon="9.08468">
        <ele>1746.37</ele>
        <time>2015-09-11T08:46:14Z</time>
      </trkpt>
      <trkpt lat="42.13302" lon="9.08471">
        <ele>1745.89</ele>
        <time>2015-09-11T08:46:34Z</time>
      </trkpt>
      <trkpt lat="42.13301" lon="9.08473">
        <ele>1745.89</ele>
        <time>2015-09-11T08:46:56Z</time>
      </trkpt>
      <trkpt lat="42.13295" lon="9.0847">
        <ele>1745.89</ele>
        <time>2015-09-11T08:47:21Z</time>
      </trkpt>
      <trkpt lat="42.13295" lon="9.08474">
        <ele>1745.89</ele>
        <time>2015-09-11T08:47:38Z</time>
      </trkpt>
      <trkpt lat="42.1329" lon="9.08479">
        <ele>1744.45</ele>
        <time>2015-09-11T08:47:58Z</time>
      </trkpt>
      <trkpt lat="42.13286" lon="9.08486">
        <ele>1741.57</ele>
        <time>2015-09-11T08:48:15Z</time>
      </trkpt>
      <trkpt lat="42.13283" lon="9.08487">
        <ele>1739.64</ele>
        <time>2015-09-11T08:48:33Z</time>
      </trkpt>
      <trkpt lat="42.13276" lon="9.08486">
        <ele>1738.68</ele>
        <time>2015-09-11T08:48:48Z</time>
      </trkpt>
      <trkpt lat="42.13272" lon="9.0849">
        <ele>1738.2</ele>
        <time>2015-09-11T08:49:03Z</time>
      </trkpt>
      <trkpt lat="42.13266" lon="9.08496">
        <ele>1735.32</ele>
        <time>2015-09-11T08:49:21Z</time>
      </trkpt>
      <trkpt lat="42.13264" lon="9.08502">
        <ele>1733.88</ele>
        <time>2015-09-11T08:49:35Z</time>
      </trkpt>
      <trkpt lat="42.1326" lon="9.0851">
        <ele>1732.43</ele>
        <time>2015-09-11T08:49:51Z</time>
      </trkpt>
      <trkpt lat="42.13253" lon="9.08514">
        <ele>1730.51</ele>
        <time>2015-09-11T08:50:09Z</time>
      </trkpt>
      <trkpt lat="42.13243" lon="9.08508">
        <ele>1729.07</ele>
        <time>2015-09-11T08:50:26Z</time>
      </trkpt>
      <trkpt lat="42.13234" lon="9.08507">
        <ele>1726.67</ele>
        <time>2015-09-11T08:50:45Z</time>
      </trkpt>
      <trkpt lat="42.1323" lon="9.08505">
        <ele>1725.7</ele>
        <time>2015-09-11T08:50:59Z</time>
      </trkpt>
      <trkpt lat="42.13222" lon="9.08497">
        <ele>1722.82</ele>
        <time>2015-09-11T08:51:16Z</time>
      </trkpt>
      <trkpt lat="42.13217" lon="9.08491">
        <ele>1722.34</ele>
        <time>2015-09-11T08:51:32Z</time>
      </trkpt>
      <trkpt lat="42.13215" lon="9.08485">
        <ele>1719.94</ele>
        <time>2015-09-11T08:51:52Z</time>
      </trkpt>
      <trkpt lat="42.13204" lon="9.08488">
        <ele>1717.05</ele>
        <time>2015-09-11T08:52:10Z</time>
      </trkpt>
      <trkpt lat="42.132" lon="9.08487">
        <ele>1715.61</ele>
        <time>2015-09-11T08:52:24Z</time>
      </trkpt>
      <trkpt lat="42.13194" lon="9.08483">
        <ele>1715.13</ele>
        <time>2015-09-11T08:52:40Z</time>
      </trkpt>
      <trkpt lat="42.13191" lon="9.08473">
        <ele>1714.17</ele>
        <time>2015-09-11T08:52:56Z</time>
      </trkpt>
      <trkpt lat="42.13186" lon="9.08465">
        <ele>1711.76</ele>
        <time>2015-09-11T08:53:16Z</time>
      </trkpt>
      <trkpt lat="42.1318" lon="9.08465">
        <ele>1709.84</ele>
        <time>2015-09-11T08:53:33Z</time>
      </trkpt>
      <trkpt lat="42.13173" lon="9.08466">
        <ele>1707.92</ele>
        <time>2015-09-11T08:53:50Z</time>
      </trkpt>
      <trkpt lat="42.13165" lon="9.08465">
        <ele>1705.04</ele>
        <time>2015-09-11T08:54:05Z</time>
      </trkpt>
      <trkpt lat="42.13158" lon="9.08464">
        <ele>1702.63</ele>
        <time>2015-09-11T08:54:22Z</time>
      </trkpt>
      <trkpt lat="42.13157" lon="9.08459">
        <ele>1700.71</ele>
        <time>2015-09-11T08:54:43Z</time>
      </trkpt>
      <trkpt lat="42.13152" lon="9.08462">
        <ele>1698.31</ele>
        <time>2015-09-11T08:55:00Z</time>
      </trkpt>
      <trkpt lat="42.13146" lon="9.08474">
        <ele>1696.38</ele>
        <time>2015-09-11T08:55:17Z</time>
      </trkpt>
      <trkpt lat="42.13142" lon="9.0848">
        <ele>1693.98</ele>
        <time>2015-09-11T08:55:35Z</time>
      </trkpt>
      <trkpt lat="42.13139" lon="9.08483">
        <ele>1696.38</ele>
        <time>2015-09-11T08:55:55Z</time>
      </trkpt>
      <trkpt lat="42.13138" lon="9.08486">
        <ele>1692.54</ele>
        <time>2015-09-11T08:56:08Z</time>
      </trkpt>
      <trkpt lat="42.13138" lon="9.08487">
        <ele>1692.54</ele>
        <time>2015-09-11T08:56:09Z</time>
      </trkpt>
      <trkpt lat="42.13138" lon="9.08492">
        <ele>1690.14</ele>
        <time>2015-09-11T08:56:30Z</time>
      </trkpt>
      <trkpt lat="42.1314" lon="9.08498">
        <ele>1688.21</ele>
        <time>2015-09-11T08:56:48Z</time>
      </trkpt>
      <trkpt lat="42.13141" lon="9.08501">
        <ele>1686.77</ele>
        <time>2015-09-11T08:57:05Z</time>
      </trkpt>
      <trkpt lat="42.13142" lon="9.0851">
        <ele>1684.85</ele>
        <time>2015-09-11T08:57:23Z</time>
      </trkpt>
      <trkpt lat="42.13145" lon="9.08515">
        <ele>1684.37</ele>
        <time>2015-09-11T08:57:41Z</time>
      </trkpt>
      <trkpt lat="42.1314" lon="9.08523">
        <ele>1682.93</ele>
        <time>2015-09-11T08:58:00Z</time>
      </trkpt>
      <trkpt lat="42.13137" lon="9.08531">
        <ele>1680.52</ele>
        <time>2015-09-11T08:58:17Z</time>
      </trkpt>
      <trkpt lat="42.13134" lon="9.0854">
        <ele>1679.08</ele>
        <time>2015-09-11T08:58:32Z</time>
      </trkpt>
      <trkpt lat="42.13139" lon="9.0855">
        <ele>1676.68</ele>
        <time>2015-09-11T08:58:51Z</time>
      </trkpt>
      <trkpt lat="42.13143" lon="9.08554">
        <ele>1674.75</ele>
        <time>2015-09-11T08:59:08Z</time>
      </trkpt>
      <trkpt lat="42.13151" lon="9.08558">
        <ele>1673.31</ele>
        <time>2015-09-11T08:59:26Z</time>
      </trkpt>
      <trkpt lat="42.13151" lon="9.08563">
        <ele>1671.39</ele>
        <time>2015-09-11T08:59:47Z</time>
      </trkpt>
      <trkpt lat="42.13154" lon="9.08571">
        <ele>1669.47</ele>
        <time>2015-09-11T09:00:04Z</time>
      </trkpt>
      <trkpt lat="42.13156" lon="9.0858">
        <ele>1666.58</ele>
        <time>2015-09-11T09:00:21Z</time>
      </trkpt>
      <trkpt lat="42.13157" lon="9.08588">
        <ele>1665.14</ele>
        <time>2015-09-11T09:00:38Z</time>
      </trkpt>
      <trkpt lat="42.13157" lon="9.08595">
        <ele>1663.22</ele>
        <time>2015-09-11T09:00:55Z</time>
      </trkpt>
      <trkpt lat="42.13155" lon="9.08604">
        <ele>1660.33</ele>
        <time>2015-09-11T09:01:12Z</time>
      </trkpt>
      <trkpt lat="42.13147" lon="9.08605">
        <ele>1657.93</ele>
        <time>2015-09-11T09:01:31Z</time>
      </trkpt>
      <trkpt lat="42.13141" lon="9.0861">
        <ele>1655.05</ele>
        <time>2015-09-11T09:01:49Z</time>
      </trkpt>
      <trkpt lat="42.13136" lon="9.08608">
        <ele>1653.12</ele>
        <time>2015-09-11T09:02:08Z</time>
      </trkpt>
      <trkpt lat="42.13127" lon="9.08603">
        <ele>1651.2</ele>
        <time>2015-09-11T09:02:26Z</time>
      </trkpt>
      <trkpt lat="42.13121" lon="9.08604">
        <ele>1648.8</ele>
        <time>2015-09-11T09:02:44Z</time>
      </trkpt>
      <trkpt lat="42.13114" lon="9.08605">
        <ele>1646.88</ele>
        <time>2015-09-11T09:03:03Z</time>
      </trkpt>
      <trkpt lat="42.13105" lon="9.08605">
        <ele>1644.95</ele>
        <time>2015-09-11T09:03:20Z</time>
      </trkpt>
      <trkpt lat="42.131" lon="9.08598">
        <ele>1643.03</ele>
        <time>2015-09-11T09:03:37Z</time>
      </trkpt>
      <trkpt lat="42.13098" lon="9.08588">
        <ele>1641.11</ele>
        <time>2015-09-11T09:03:53Z</time>
      </trkpt>
      <trkpt lat="42.13089" lon="9.0858">
        <ele>1638.7</ele>
        <time>2015-09-11T09:04:14Z</time>
      </trkpt>
      <trkpt lat="42.13075" lon="9.08575">
        <ele>1636.78</ele>
        <time>2015-09-11T09:04:32Z</time>
      </trkpt>
      <trkpt lat="42.13065" lon="9.08579">
        <ele>1634.86</ele>
        <time>2015-09-11T09:04:52Z</time>
      </trkpt>
      <trkpt lat="42.13054" lon="9.08576">
        <ele>1632.46</ele>
        <time>2015-09-11T09:05:09Z</time>
      </trkpt>
      <trkpt lat="42.13043" lon="9.08579">
        <ele>1631.01</ele>
        <time>2015-09-11T09:05:26Z</time>
      </trkpt>
      <trkpt lat="42.13032" lon="9.08582">
        <ele>1628.13</ele>
        <time>2015-09-11T09:05:43Z</time>
      </trkpt>
      <trkpt lat="42.1302" lon="9.08586">
        <ele>1626.69</ele>
        <time>2015-09-11T09:05:59Z</time>
      </trkpt>
      <trkpt lat="42.1301" lon="9.08587">
        <ele>1625.25</ele>
        <time>2015-09-11T09:06:18Z</time>
      </trkpt>
      <trkpt lat="42.13" lon="9.08597">
        <ele>1623.8</ele>
        <time>2015-09-11T09:06:37Z</time>
      </trkpt>
      <trkpt lat="42.12991" lon="9.08598">
        <ele>1622.36</ele>
        <time>2015-09-11T09:06:54Z</time>
      </trkpt>
      <trkpt lat="42.12982" lon="9.08602">
        <ele>1620.92</ele>
        <time>2015-09-11T09:07:12Z</time>
      </trkpt>
      <trkpt lat="42.12973" lon="9.08603">
        <ele>1619.96</ele>
        <time>2015-09-11T09:07:27Z</time>
      </trkpt>
      <trkpt lat="42.12965" lon="9.08607">
        <ele>1618.52</ele>
        <time>2015-09-11T09:07:42Z</time>
      </trkpt>
      <trkpt lat="42.12958" lon="9.08617">
        <ele>1616.59</ele>
        <time>2015-09-11T09:08:01Z</time>
      </trkpt>
      <trkpt lat="42.12946" lon="9.08615">
        <ele>1616.11</ele>
        <time>2015-09-11T09:08:18Z</time>
      </trkpt>
      <trkpt lat="42.12941" lon="9.08622">
        <ele>1616.11</ele>
        <time>2015-09-11T09:08:33Z</time>
      </trkpt>
      <trkpt lat="42.1293" lon="9.08638">
        <ele>1616.11</ele>
        <time>2015-09-11T09:08:50Z</time>
      </trkpt>
      <trkpt lat="42.12933" lon="9.08649">
        <ele>1612.75</ele>
        <time>2015-09-11T09:09:03Z</time>
      </trkpt>
      <trkpt lat="42.1293" lon="9.0866">
        <ele>1610.35</ele>
        <time>2015-09-11T09:09:17Z</time>
      </trkpt>
      <trkpt lat="42.1293" lon="9.08672">
        <ele>1609.38</ele>
        <time>2015-09-11T09:09:34Z</time>
      </trkpt>
      <trkpt lat="42.12929" lon="9.08683">
        <ele>1606.5</ele>
        <time>2015-09-11T09:09:50Z</time>
      </trkpt>
      <trkpt lat="42.12929" lon="9.08691">
        <ele>1604.1</ele>
        <time>2015-09-11T09:10:04Z</time>
      </trkpt>
      <trkpt lat="42.1293" lon="9.08703">
        <ele>1601.21</ele>
        <time>2015-09-11T09:10:22Z</time>
      </trkpt>
      <trkpt lat="42.1293" lon="9.08709">
        <ele>1599.29</ele>
        <time>2015-09-11T09:10:41Z</time>
      </trkpt>
      <trkpt lat="42.12933" lon="9.08715">
        <ele>1597.37</ele>
        <time>2015-09-11T09:10:56Z</time>
      </trkpt>
      <trkpt lat="42.12926" lon="9.08709">
        <ele>1595.45</ele>
        <time>2015-09-11T09:11:17Z</time>
      </trkpt>
      <trkpt lat="42.12923" lon="9.08713">
        <ele>1592.56</ele>
        <time>2015-09-11T09:11:36Z</time>
      </trkpt>
      <trkpt lat="42.12917" lon="9.08711">
        <ele>1591.12</ele>
        <time>2015-09-11T09:11:55Z</time>
      </trkpt>
      <trkpt lat="42.12913" lon="9.08715">
        <ele>1587.75</ele>
        <time>2015-09-11T09:12:13Z</time>
      </trkpt>
      <trkpt lat="42.12909" lon="9.08724">
        <ele>1585.83</ele>
        <time>2015-09-11T09:12:32Z</time>
      </trkpt>
      <trkpt lat="42.1291" lon="9.08734">
        <ele>1584.39</ele>
        <time>2015-09-11T09:12:51Z</time>
      </trkpt>
      <trkpt lat="42.12913" lon="9.08731">
        <ele>1582.95</ele>
        <time>2015-09-11T09:13:11Z</time>
      </trkpt>
      <trkpt lat="42.1291" lon="9.0873">
        <ele>1581.03</ele>
        <time>2015-09-11T09:13:33Z</time>
      </trkpt>
      <trkpt lat="42.12907" lon="9.08734">
        <ele>1580.06</ele>
        <time>2015-09-11T09:13:51Z</time>
      </trkpt>
      <trkpt lat="42.12903" lon="9.08741">
        <ele>1579.58</ele>
        <time>2015-09-11T09:14:07Z</time>
      </trkpt>
      <trkpt lat="42.12894" lon="9.08749">
        <ele>1579.1</ele>
        <time>2015-09-11T09:14:30Z</time>
      </trkpt>
      <trkpt lat="42.12888" lon="9.08753">
        <ele>1578.62</ele>
        <time>2015-09-11T09:14:49Z</time>
      </trkpt>
      <trkpt lat="42.1288" lon="9.08758">
        <ele>1577.66</ele>
        <time>2015-09-11T09:15:05Z</time>
      </trkpt>
      <trkpt lat="42.12863" lon="9.08766">
        <ele>1576.22</ele>
        <time>2015-09-11T09:15:26Z</time>
      </trkpt>
      <trkpt lat="42.12857" lon="9.08764">
        <ele>1572.85</ele>
        <time>2015-09-11T09:15:42Z</time>
      </trkpt>
      <trkpt lat="42.1285" lon="9.0877">
        <ele>1570.93</ele>
        <time>2015-09-11T09:16:01Z</time>
      </trkpt>
      <trkpt lat="42.12843" lon="9.08781">
        <ele>1569.97</ele>
        <time>2015-09-11T09:16:20Z</time>
      </trkpt>
      <trkpt lat="42.12835" lon="9.0878">
        <ele>1567.57</ele>
        <time>2015-09-11T09:16:39Z</time>
      </trkpt>
      <trkpt lat="42.12831" lon="9.08779">
        <ele>1565.64</ele>
        <time>2015-09-11T09:16:59Z</time>
      </trkpt>
      <trkpt lat="42.12825" lon="9.08776">
        <ele>1562.76</ele>
        <time>2015-09-11T09:17:19Z</time>
      </trkpt>
      <trkpt lat="42.12819" lon="9.08771">
        <ele>1561.32</ele>
        <time>2015-09-11T09:17:39Z</time>
      </trkpt>
      <trkpt lat="42.12809" lon="9.08771">
        <ele>1561.32</ele>
        <time>2015-09-11T09:17:56Z</time>
      </trkpt>
      <trkpt lat="42.12799" lon="9.0877">
        <ele>1558.43</ele>
        <time>2015-09-11T09:18:18Z</time>
      </trkpt>
      <trkpt lat="42.12795" lon="9.08765">
        <ele>1556.99</ele>
        <time>2015-09-11T09:18:37Z</time>
      </trkpt>
      <trkpt lat="42.12781" lon="9.0877">
        <ele>1555.55</ele>
        <time>2015-09-11T09:18:57Z</time>
      </trkpt>
      <trkpt lat="42.1277" lon="9.08771">
        <ele>1554.11</ele>
        <time>2015-09-11T09:19:16Z</time>
      </trkpt>
      <trkpt lat="42.12763" lon="9.08771">
        <ele>1553.63</ele>
        <time>2015-09-11T09:19:33Z</time>
      </trkpt>
      <trkpt lat="42.12749" lon="9.08773">
        <ele>1552.19</ele>
        <time>2015-09-11T09:19:55Z</time>
      </trkpt>
      <trkpt lat="42.12743" lon="9.08776">
        <ele>1551.71</ele>
        <time>2015-09-11T09:20:11Z</time>
      </trkpt>
      <trkpt lat="42.1274" lon="9.08772">
        <ele>1549.3</ele>
        <time>2015-09-11T09:20:32Z</time>
      </trkpt>
      <trkpt lat="42.12736" lon="9.0877">
        <ele>1548.34</ele>
        <time>2015-09-11T09:20:51Z</time>
      </trkpt>
      <trkpt lat="42.12736" lon="9.08765">
        <ele>1545.94</ele>
        <time>2015-09-11T09:21:12Z</time>
      </trkpt>
      <trkpt lat="42.1273" lon="9.0876">
        <ele>1543.05</ele>
        <time>2015-09-11T09:21:31Z</time>
      </trkpt>
      <trkpt lat="42.12722" lon="9.08761">
        <ele>1541.13</ele>
        <time>2015-09-11T09:21:51Z</time>
      </trkpt>
      <trkpt lat="42.12715" lon="9.08762">
        <ele>1539.69</ele>
        <time>2015-09-11T09:22:10Z</time>
      </trkpt>
      <trkpt lat="42.12706" lon="9.08761">
        <ele>1537.29</ele>
        <time>2015-09-11T09:22:28Z</time>
      </trkpt>
      <trkpt lat="42.12702" lon="9.08754">
        <ele>1534.4</ele>
        <time>2015-09-11T09:22:46Z</time>
      </trkpt>
      <trkpt lat="42.12695" lon="9.08754">
        <ele>1532</ele>
        <time>2015-09-11T09:23:05Z</time>
      </trkpt>
      <trkpt lat="42.12687" lon="9.08754">
        <ele>1530.08</ele>
        <time>2015-09-11T09:23:22Z</time>
      </trkpt>
      <trkpt lat="42.12674" lon="9.08755">
        <ele>1527.19</ele>
        <time>2015-09-11T09:23:45Z</time>
      </trkpt>
      <trkpt lat="42.12661" lon="9.08751">
        <ele>1525.27</ele>
        <time>2015-09-11T09:24:07Z</time>
      </trkpt>
      <trkpt lat="42.12651" lon="9.08745">
        <ele>1522.39</ele>
        <time>2015-09-11T09:24:24Z</time>
      </trkpt>
      <trkpt lat="42.12639" lon="9.0875">
        <ele>1520.94</ele>
        <time>2015-09-11T09:24:45Z</time>
      </trkpt>
      <trkpt lat="42.12631" lon="9.08754">
        <ele>1519.98</ele>
        <time>2015-09-11T09:25:03Z</time>
      </trkpt>
      <trkpt lat="42.12618" lon="9.0876">
        <ele>1518.06</ele>
        <time>2015-09-11T09:25:19Z</time>
      </trkpt>
      <trkpt lat="42.12615" lon="9.08774">
        <ele>1517.58</ele>
        <time>2015-09-11T09:25:34Z</time>
      </trkpt>
      <trkpt lat="42.12609" lon="9.08785">
        <ele>1517.1</ele>
        <time>2015-09-11T09:25:49Z</time>
      </trkpt>
      <trkpt lat="42.12602" lon="9.08795">
        <ele>1516.14</ele>
        <time>2015-09-11T09:26:04Z</time>
      </trkpt>
      <trkpt lat="42.12595" lon="9.08805">
        <ele>1517.58</ele>
        <time>2015-09-11T09:26:19Z</time>
      </trkpt>
      <trkpt lat="42.12586" lon="9.08808">
        <ele>1516.14</ele>
        <time>2015-09-11T09:26:37Z</time>
      </trkpt>
      <trkpt lat="42.12578" lon="9.08809">
        <ele>1514.69</ele>
        <time>2015-09-11T09:26:52Z</time>
      </trkpt>
      <trkpt lat="42.1257" lon="9.08817">
        <ele>1513.73</ele>
        <time>2015-09-11T09:27:08Z</time>
      </trkpt>
      <trkpt lat="42.12562" lon="9.08821">
        <ele>1513.25</ele>
        <time>2015-09-11T09:27:25Z</time>
      </trkpt>
      <trkpt lat="42.12561" lon="9.08821">
        <ele>1513.25</ele>
        <time>2015-09-11T09:27:26Z</time>
      </trkpt>
      <trkpt lat="42.12554" lon="9.08831">
        <ele>1511.33</ele>
        <time>2015-09-11T09:27:42Z</time>
      </trkpt>
      <trkpt lat="42.12549" lon="9.08842">
        <ele>1510.37</ele>
        <time>2015-09-11T09:27:58Z</time>
      </trkpt>
      <trkpt lat="42.12549" lon="9.08851">
        <ele>1508.93</ele>
        <time>2015-09-11T09:28:17Z</time>
      </trkpt>
      <trkpt lat="42.12543" lon="9.08849">
        <ele>1507.48</ele>
        <time>2015-09-11T09:28:34Z</time>
      </trkpt>
      <trkpt lat="42.12538" lon="9.08855">
        <ele>1506.04</ele>
        <time>2015-09-11T09:28:49Z</time>
      </trkpt>
      <trkpt lat="42.12532" lon="9.08855">
        <ele>1504.12</ele>
        <time>2015-09-11T09:29:07Z</time>
      </trkpt>
      <trkpt lat="42.12533" lon="9.08868">
        <ele>1502.68</ele>
        <time>2015-09-11T09:29:25Z</time>
      </trkpt>
      <trkpt lat="42.12528" lon="9.08872">
        <ele>1501.72</ele>
        <time>2015-09-11T09:29:40Z</time>
      </trkpt>
      <trkpt lat="42.12524" lon="9.08881">
        <ele>1499.79</ele>
        <time>2015-09-11T09:29:59Z</time>
      </trkpt>
      <trkpt lat="42.12524" lon="9.08892">
        <ele>1497.39</ele>
        <time>2015-09-11T09:30:16Z</time>
      </trkpt>
      <trkpt lat="42.12525" lon="9.08898">
        <ele>1496.43</ele>
        <time>2015-09-11T09:30:31Z</time>
      </trkpt>
      <trkpt lat="42.12525" lon="9.08906">
        <ele>1494.51</ele>
        <time>2015-09-11T09:30:50Z</time>
      </trkpt>
      <trkpt lat="42.12522" lon="9.08916">
        <ele>1493.55</ele>
        <time>2015-09-11T09:31:07Z</time>
      </trkpt>
      <trkpt lat="42.12517" lon="9.08917">
        <ele>1491.62</ele>
        <time>2015-09-11T09:31:25Z</time>
      </trkpt>
      <trkpt lat="42.12516" lon="9.0893">
        <ele>1489.7</ele>
        <time>2015-09-11T09:31:43Z</time>
      </trkpt>
      <trkpt lat="42.12509" lon="9.08934">
        <ele>1488.74</ele>
        <time>2015-09-11T09:31:58Z</time>
      </trkpt>
      <trkpt lat="42.12505" lon="9.08939">
        <ele>1486.82</ele>
        <time>2015-09-11T09:32:18Z</time>
      </trkpt>
      <trkpt lat="42.12499" lon="9.08936">
        <ele>1483.45</ele>
        <time>2015-09-11T09:32:35Z</time>
      </trkpt>
      <trkpt lat="42.12495" lon="9.08936">
        <ele>1482.01</ele>
        <time>2015-09-11T09:32:49Z</time>
      </trkpt>
      <trkpt lat="42.12489" lon="9.08937">
        <ele>1481.53</ele>
        <time>2015-09-11T09:33:05Z</time>
      </trkpt>
      <trkpt lat="42.12488" lon="9.0894">
        <ele>1481.05</ele>
        <time>2015-09-11T09:33:25Z</time>
      </trkpt>
      <trkpt lat="42.12496" lon="9.08948">
        <ele>1481.05</ele>
        <time>2015-09-11T09:33:53Z</time>
      </trkpt>
      <trkpt lat="42.12493" lon="9.08945">
        <ele>1480.57</ele>
        <time>2015-09-11T09:34:19Z</time>
      </trkpt>
      <trkpt lat="42.12498" lon="9.08944">
        <ele>1480.09</ele>
        <time>2015-09-11T09:34:41Z</time>
      </trkpt>
      <trkpt lat="42.12495" lon="9.08943">
        <ele>1480.09</ele>
        <time>2015-09-11T09:35:15Z</time>
      </trkpt>
      <trkpt lat="42.12497" lon="9.08945">
        <ele>1480.09</ele>
        <time>2015-09-11T09:35:53Z</time>
      </trkpt>
      <trkpt lat="42.12498" lon="9.08946">
        <ele>1480.09</ele>
        <time>2015-09-11T09:36:17Z</time>
      </trkpt>
      <trkpt lat="42.1249" lon="9.08943">
        <ele>1480.09</ele>
        <time>2015-09-11T09:36:49Z</time>
      </trkpt>
      <trkpt lat="42.12491" lon="9.08945">
        <ele>1480.09</ele>
        <time>2015-09-11T09:37:06Z</time>
      </trkpt>
      <trkpt lat="42.12494" lon="9.08944">
        <ele>1479.61</ele>
        <time>2015-09-11T09:37:34Z</time>
      </trkpt>
      <trkpt lat="42.12489" lon="9.08945">
        <ele>1481.05</ele>
        <time>2015-09-11T09:38:02Z</time>
      </trkpt>
      <trkpt lat="42.12487" lon="9.08948">
        <ele>1481.05</ele>
        <time>2015-09-11T09:38:28Z</time>
      </trkpt>
      <trkpt lat="42.12484" lon="9.08949">
        <ele>1481.05</ele>
        <time>2015-09-11T09:38:36Z</time>
      </trkpt>
      <trkpt lat="42.12478" lon="9.08954">
        <ele>1479.61</ele>
        <time>2015-09-11T09:38:50Z</time>
      </trkpt>
      <trkpt lat="42.12471" lon="9.08955">
        <ele>1478.16</ele>
        <time>2015-09-11T09:39:05Z</time>
      </trkpt>
      <trkpt lat="42.12458" lon="9.08955">
        <ele>1477.2</ele>
        <time>2015-09-11T09:39:24Z</time>
      </trkpt>
      <trkpt lat="42.12448" lon="9.0896">
        <ele>1475.76</ele>
        <time>2015-09-11T09:39:41Z</time>
      </trkpt>
      <trkpt lat="42.12442" lon="9.08965">
        <ele>1474.32</ele>
        <time>2015-09-11T09:39:57Z</time>
      </trkpt>
      <trkpt lat="42.12433" lon="9.08974">
        <ele>1472.4</ele>
        <time>2015-09-11T09:40:13Z</time>
      </trkpt>
      <trkpt lat="42.12424" lon="9.08974">
        <ele>1470.47</ele>
        <time>2015-09-11T09:40:31Z</time>
      </trkpt>
      <trkpt lat="42.12417" lon="9.08974">
        <ele>1469.03</ele>
        <time>2015-09-11T09:40:45Z</time>
      </trkpt>
      <trkpt lat="42.12407" lon="9.08978">
        <ele>1466.63</ele>
        <time>2015-09-11T09:41:03Z</time>
      </trkpt>
      <trkpt lat="42.12403" lon="9.08986">
        <ele>1464.71</ele>
        <time>2015-09-11T09:41:19Z</time>
      </trkpt>
      <trkpt lat="42.12395" lon="9.0899">
        <ele>1462.78</ele>
        <time>2015-09-11T09:41:35Z</time>
      </trkpt>
      <trkpt lat="42.12392" lon="9.09">
        <ele>1461.34</ele>
        <time>2015-09-11T09:41:50Z</time>
      </trkpt>
      <trkpt lat="42.12382" lon="9.09002">
        <ele>1460.38</ele>
        <time>2015-09-11T09:42:06Z</time>
      </trkpt>
      <trkpt lat="42.12373" lon="9.09">
        <ele>1458.94</ele>
        <time>2015-09-11T09:42:20Z</time>
      </trkpt>
      <trkpt lat="42.12364" lon="9.09004">
        <ele>1457.02</ele>
        <time>2015-09-11T09:42:35Z</time>
      </trkpt>
      <trkpt lat="42.12358" lon="9.09016">
        <ele>1454.13</ele>
        <time>2015-09-11T09:42:51Z</time>
      </trkpt>
      <trkpt lat="42.12348" lon="9.09024">
        <ele>1452.69</ele>
        <time>2015-09-11T09:43:09Z</time>
      </trkpt>
      <trkpt lat="42.12339" lon="9.09033">
        <ele>1450.77</ele>
        <time>2015-09-11T09:43:25Z</time>
      </trkpt>
      <trkpt lat="42.12331" lon="9.09032">
        <ele>1448.84</ele>
        <time>2015-09-11T09:43:40Z</time>
      </trkpt>
      <trkpt lat="42.12323" lon="9.09036">
        <ele>1447.88</ele>
        <time>2015-09-11T09:43:59Z</time>
      </trkpt>
      <trkpt lat="42.12314" lon="9.09033">
        <ele>1446.44</ele>
        <time>2015-09-11T09:44:17Z</time>
      </trkpt>
      <trkpt lat="42.12304" lon="9.09041">
        <ele>1444.52</ele>
        <time>2015-09-11T09:44:37Z</time>
      </trkpt>
      <trkpt lat="42.12294" lon="9.09046">
        <ele>1442.6</ele>
        <time>2015-09-11T09:44:56Z</time>
      </trkpt>
      <trkpt lat="42.12281" lon="9.09043">
        <ele>1439.71</ele>
        <time>2015-09-11T09:45:17Z</time>
      </trkpt>
      <trkpt lat="42.12276" lon="9.09053">
        <ele>1438.27</ele>
        <time>2015-09-11T09:45:36Z</time>
      </trkpt>
      <trkpt lat="42.1227" lon="9.09066">
        <ele>1435.39</ele>
        <time>2015-09-11T09:45:58Z</time>
      </trkpt>
      <trkpt lat="42.1226" lon="9.09073">
        <ele>1433.46</ele>
        <time>2015-09-11T09:46:18Z</time>
      </trkpt>
      <trkpt lat="42.12251" lon="9.09081">
        <ele>1432.02</ele>
        <time>2015-09-11T09:46:36Z</time>
      </trkpt>
      <trkpt lat="42.12238" lon="9.09088">
        <ele>1429.14</ele>
        <time>2015-09-11T09:46:59Z</time>
      </trkpt>
      <trkpt lat="42.12228" lon="9.09103">
        <ele>1425.77</ele>
        <time>2015-09-11T09:47:23Z</time>
      </trkpt>
      <trkpt lat="42.12234" lon="9.09118">
        <ele>1424.81</ele>
        <time>2015-09-11T09:47:49Z</time>
      </trkpt>
      <trkpt lat="42.12226" lon="9.09122">
        <ele>1424.81</ele>
        <time>2015-09-11T09:48:14Z</time>
      </trkpt>
      <trkpt lat="42.12219" lon="9.09131">
        <ele>1423.37</ele>
        <time>2015-09-11T09:48:36Z</time>
      </trkpt>
      <trkpt lat="42.12216" lon="9.0914">
        <ele>1423.37</ele>
        <time>2015-09-11T09:49:00Z</time>
      </trkpt>
      <trkpt lat="42.12209" lon="9.09142">
        <ele>1420.97</ele>
        <time>2015-09-11T09:49:28Z</time>
      </trkpt>
      <trkpt lat="42.12201" lon="9.09129">
        <ele>1419.04</ele>
        <time>2015-09-11T09:49:52Z</time>
      </trkpt>
      <trkpt lat="42.12192" lon="9.09138">
        <ele>1417.6</ele>
        <time>2015-09-11T09:50:13Z</time>
      </trkpt>
      <trkpt lat="42.12198" lon="9.09141">
        <ele>1417.12</ele>
        <time>2015-09-11T09:50:44Z</time>
      </trkpt>
      <trkpt lat="42.12198" lon="9.09142">
        <ele>1415.2</ele>
        <time>2015-09-11T09:50:46Z</time>
      </trkpt>
      <trkpt lat="42.122" lon="9.09146">
        <ele>1416.64</ele>
        <time>2015-09-11T09:51:34Z</time>
      </trkpt>
      <trkpt lat="42.12199" lon="9.0914">
        <ele>1416.64</ele>
        <time>2015-09-11T09:52:29Z</time>
      </trkpt>
      <trkpt lat="42.122" lon="9.09148">
        <ele>1417.12</ele>
        <time>2015-09-11T09:53:26Z</time>
      </trkpt>
      <trkpt lat="42.12194" lon="9.09139">
        <ele>1417.6</ele>
        <time>2015-09-11T09:54:15Z</time>
      </trkpt>
      <trkpt lat="42.12196" lon="9.09141">
        <ele>1417.6</ele>
        <time>2015-09-11T09:55:09Z</time>
      </trkpt>
      <trkpt lat="42.12198" lon="9.09143">
        <ele>1417.6</ele>
        <time>2015-09-11T09:55:58Z</time>
      </trkpt>
      <trkpt lat="42.12201" lon="9.09132">
        <ele>1417.6</ele>
        <time>2015-09-11T09:56:52Z</time>
      </trkpt>
      <trkpt lat="42.12204" lon="9.09142">
        <ele>1416.64</ele>
        <time>2015-09-11T09:57:41Z</time>
      </trkpt>
      <trkpt lat="42.12208" lon="9.09147">
        <ele>1416.64</ele>
        <time>2015-09-11T09:58:26Z</time>
      </trkpt>
      <trkpt lat="42.12202" lon="9.09134">
        <ele>1416.64</ele>
        <time>2015-09-11T09:59:17Z</time>
      </trkpt>
      <trkpt lat="42.12202" lon="9.0914">
        <ele>1415.68</ele>
        <time>2015-09-11T10:00:16Z</time>
      </trkpt>
      <trkpt lat="42.12205" lon="9.09143">
        <ele>1414.72</ele>
        <time>2015-09-11T10:01:15Z</time>
      </trkpt>
      <trkpt lat="42.122" lon="9.09141">
        <ele>1414.72</ele>
        <time>2015-09-11T10:02:18Z</time>
      </trkpt>
      <trkpt lat="42.12206" lon="9.09135">
        <ele>1414.72</ele>
        <time>2015-09-11T10:03:13Z</time>
      </trkpt>
      <trkpt lat="42.12203" lon="9.09136">
        <ele>1414.72</ele>
        <time>2015-09-11T10:04:03Z</time>
      </trkpt>
      <trkpt lat="42.12203" lon="9.09137">
        <ele>1414.24</ele>
        <time>2015-09-11T10:04:57Z</time>
      </trkpt>
      <trkpt lat="42.12204" lon="9.09137">
        <ele>1413.76</ele>
        <time>2015-09-11T10:05:46Z</time>
      </trkpt>
      <trkpt lat="42.12201" lon="9.09141">
        <ele>1413.76</ele>
        <time>2015-09-11T10:06:38Z</time>
      </trkpt>
      <trkpt lat="42.12201" lon="9.09139">
        <ele>1413.28</ele>
        <time>2015-09-11T10:07:24Z</time>
      </trkpt>
      <trkpt lat="42.12201" lon="9.09136">
        <ele>1413.28</ele>
        <time>2015-09-11T10:08:16Z</time>
      </trkpt>
      <trkpt lat="42.12202" lon="9.09139">
        <ele>1414.24</ele>
        <time>2015-09-11T10:09:12Z</time>
      </trkpt>
      <trkpt lat="42.12199" lon="9.0914">
        <ele>1413.76</ele>
        <time>2015-09-11T10:10:05Z</time>
      </trkpt>
      <trkpt lat="42.12202" lon="9.09142">
        <ele>1413.76</ele>
        <time>2015-09-11T10:10:55Z</time>
      </trkpt>
      <trkpt lat="42.12205" lon="9.09143">
        <ele>1414.24</ele>
        <time>2015-09-11T10:11:47Z</time>
      </trkpt>
      <trkpt lat="42.12201" lon="9.09136">
        <ele>1414.72</ele>
        <time>2015-09-11T10:12:35Z</time>
      </trkpt>
      <trkpt lat="42.12201" lon="9.09144">
        <ele>1414.72</ele>
        <time>2015-09-11T10:13:33Z</time>
      </trkpt>
      <trkpt lat="42.12198" lon="9.09139">
        <ele>1414.72</ele>
        <time>2015-09-11T10:14:34Z</time>
      </trkpt>
      <trkpt lat="42.12195" lon="9.09133">
        <ele>1414.24</ele>
        <time>2015-09-11T10:15:28Z</time>
      </trkpt>
      <trkpt lat="42.12202" lon="9.09139">
        <ele>1414.24</ele>
        <time>2015-09-11T10:16:28Z</time>
      </trkpt>
      <trkpt lat="42.12204" lon="9.09139">
        <ele>1414.24</ele>
        <time>2015-09-11T10:17:13Z</time>
      </trkpt>
      <trkpt lat="42.12195" lon="9.09137">
        <ele>1413.76</ele>
        <time>2015-09-11T10:18:04Z</time>
      </trkpt>
      <trkpt lat="42.12195" lon="9.09138">
        <ele>1413.76</ele>
        <time>2015-09-11T10:18:58Z</time>
      </trkpt>
      <trkpt lat="42.12194" lon="9.09139">
        <ele>1413.76</ele>
        <time>2015-09-11T10:19:50Z</time>
      </trkpt>
      <trkpt lat="42.12198" lon="9.09142">
        <ele>1414.24</ele>
        <time>2015-09-11T10:20:38Z</time>
      </trkpt>
      <trkpt lat="42.12202" lon="9.09141">
        <ele>1414.24</ele>
        <time>2015-09-11T10:21:24Z</time>
      </trkpt>
      <trkpt lat="42.122" lon="9.09138">
        <ele>1414.24</ele>
        <time>2015-09-11T10:22:18Z</time>
      </trkpt>
      <trkpt lat="42.12198" lon="9.0914">
        <ele>1414.72</ele>
        <time>2015-09-11T10:22:39Z</time>
      </trkpt>
      <trkpt lat="42.122" lon="9.09138">
        <ele>1414.72</ele>
        <time>2015-09-11T10:22:56Z</time>
      </trkpt>
      <trkpt lat="42.122" lon="9.09134">
        <ele>1414.72</ele>
        <time>2015-09-11T10:23:18Z</time>
      </trkpt>
      <trkpt lat="42.12202" lon="9.09135">
        <ele>1414.24</ele>
        <time>2015-09-11T10:23:40Z</time>
      </trkpt>
      <trkpt lat="42.12206" lon="9.09136">
        <ele>1414.24</ele>
        <time>2015-09-11T10:24:08Z</time>
      </trkpt>
      <trkpt lat="42.12202" lon="9.09139">
        <ele>1414.24</ele>
        <time>2015-09-11T10:24:34Z</time>
      </trkpt>
      <trkpt lat="42.122" lon="9.09142">
        <ele>1414.24</ele>
        <time>2015-09-11T10:25:04Z</time>
      </trkpt>
      <trkpt lat="42.12206" lon="9.09144">
        <ele>1414.72</ele>
        <time>2015-09-11T10:25:27Z</time>
      </trkpt>
      <trkpt lat="42.12202" lon="9.09151">
        <ele>1417.12</ele>
        <time>2015-09-11T10:25:49Z</time>
      </trkpt>
      <trkpt lat="42.12203" lon="9.09157">
        <ele>1417.12</ele>
        <time>2015-09-11T10:26:18Z</time>
      </trkpt>
      <trkpt lat="42.12193" lon="9.09158">
        <ele>1418.08</ele>
        <time>2015-09-11T10:26:37Z</time>
      </trkpt>
      <trkpt lat="42.12173" lon="9.09139">
        <ele>1416.16</ele>
        <time>2015-09-11T10:26:52Z</time>
      </trkpt>
      <trkpt lat="42.12174" lon="9.09161">
        <ele>1415.2</ele>
        <time>2015-09-11T10:27:11Z</time>
      </trkpt>
      <trkpt lat="42.12172" lon="9.09161">
        <ele>1413.28</ele>
        <time>2015-09-11T10:27:29Z</time>
      </trkpt>
      <trkpt lat="42.12168" lon="9.09163">
        <ele>1412.79</ele>
        <time>2015-09-11T10:27:44Z</time>
      </trkpt>
      <trkpt lat="42.12162" lon="9.0917">
        <ele>1412.79</ele>
        <time>2015-09-11T10:28:09Z</time>
      </trkpt>
      <trkpt lat="42.12156" lon="9.09169">
        <ele>1413.76</ele>
        <time>2015-09-11T10:28:29Z</time>
      </trkpt>
      <trkpt lat="42.12153" lon="9.09178">
        <ele>1414.24</ele>
        <time>2015-09-11T10:28:50Z</time>
      </trkpt>
      <trkpt lat="42.12148" lon="9.09186">
        <ele>1414.72</ele>
        <time>2015-09-11T10:29:08Z</time>
      </trkpt>
      <trkpt lat="42.12144" lon="9.09187">
        <ele>1414.72</ele>
        <time>2015-09-11T10:29:29Z</time>
      </trkpt>
      <trkpt lat="42.12134" lon="9.09197">
        <ele>1412.31</ele>
        <time>2015-09-11T10:29:48Z</time>
      </trkpt>
      <trkpt lat="42.12131" lon="9.09207">
        <ele>1413.28</ele>
        <time>2015-09-11T10:29:56Z</time>
      </trkpt>
      <trkpt lat="42.12129" lon="9.09211">
        <ele>1412.31</ele>
        <time>2015-09-11T10:30:01Z</time>
      </trkpt>
      <trkpt lat="42.12128" lon="9.09222">
        <ele>1410.39</ele>
        <time>2015-09-11T10:30:16Z</time>
      </trkpt>
      <trkpt lat="42.12127" lon="9.09227">
        <ele>1407.51</ele>
        <time>2015-09-11T10:30:25Z</time>
      </trkpt>
      <trkpt lat="42.12121" lon="9.09244">
        <ele>1406.55</ele>
        <time>2015-09-11T10:30:46Z</time>
      </trkpt>
      <trkpt lat="42.12121" lon="9.09252">
        <ele>1404.62</ele>
        <time>2015-09-11T10:31:01Z</time>
      </trkpt>
      <trkpt lat="42.12121" lon="9.09259">
        <ele>1401.74</ele>
        <time>2015-09-11T10:31:20Z</time>
      </trkpt>
      <trkpt lat="42.12121" lon="9.09266">
        <ele>1398.86</ele>
        <time>2015-09-11T10:31:41Z</time>
      </trkpt>
      <trkpt lat="42.12121" lon="9.09278">
        <ele>1395.49</ele>
        <time>2015-09-11T10:32:02Z</time>
      </trkpt>
      <trkpt lat="42.12112" lon="9.09299">
        <ele>1393.09</ele>
        <time>2015-09-11T10:32:21Z</time>
      </trkpt>
      <trkpt lat="42.12105" lon="9.09313">
        <ele>1390.2</ele>
        <time>2015-09-11T10:32:41Z</time>
      </trkpt>
      <trkpt lat="42.12103" lon="9.09329">
        <ele>1387.32</ele>
        <time>2015-09-11T10:33:00Z</time>
      </trkpt>
      <trkpt lat="42.12099" lon="9.09347">
        <ele>1386.36</ele>
        <time>2015-09-11T10:33:21Z</time>
      </trkpt>
      <trkpt lat="42.12106" lon="9.09361">
        <ele>1384.44</ele>
        <time>2015-09-11T10:33:41Z</time>
      </trkpt>
      <trkpt lat="42.12106" lon="9.09376">
        <ele>1382.99</ele>
        <time>2015-09-11T10:33:59Z</time>
      </trkpt>
      <trkpt lat="42.12107" lon="9.09388">
        <ele>1380.11</ele>
        <time>2015-09-11T10:34:19Z</time>
      </trkpt>
      <trkpt lat="42.12108" lon="9.09399">
        <ele>1378.67</ele>
        <time>2015-09-11T10:34:36Z</time>
      </trkpt>
      <trkpt lat="42.12111" lon="9.09415">
        <ele>1377.71</ele>
        <time>2015-09-11T10:34:53Z</time>
      </trkpt>
      <trkpt lat="42.12114" lon="9.09434">
        <ele>1377.23</ele>
        <time>2015-09-11T10:35:10Z</time>
      </trkpt>
      <trkpt lat="42.12114" lon="9.09451">
        <ele>1374.34</ele>
        <time>2015-09-11T10:35:29Z</time>
      </trkpt>
      <trkpt lat="42.12108" lon="9.09451">
        <ele>1372.42</ele>
        <time>2015-09-11T10:35:49Z</time>
      </trkpt>
      <trkpt lat="42.12108" lon="9.09459">
        <ele>1370.98</ele>
        <time>2015-09-11T10:36:06Z</time>
      </trkpt>
      <trkpt lat="42.12105" lon="9.09464">
        <ele>1369.05</ele>
        <time>2015-09-11T10:36:25Z</time>
      </trkpt>
      <trkpt lat="42.12103" lon="9.09474">
        <ele>1367.61</ele>
        <time>2015-09-11T10:36:42Z</time>
      </trkpt>
      <trkpt lat="42.12103" lon="9.09483">
        <ele>1365.21</ele>
        <time>2015-09-11T10:36:58Z</time>
      </trkpt>
      <trkpt lat="42.12109" lon="9.09485">
        <ele>1363.77</ele>
        <time>2015-09-11T10:37:16Z</time>
      </trkpt>
      <trkpt lat="42.12112" lon="9.09492">
        <ele>1361.84</ele>
        <time>2015-09-11T10:37:36Z</time>
      </trkpt>
      <trkpt lat="42.12105" lon="9.09502">
        <ele>1360.4</ele>
        <time>2015-09-11T10:37:59Z</time>
      </trkpt>
      <trkpt lat="42.12092" lon="9.09506">
        <ele>1358.96</ele>
        <time>2015-09-11T10:38:17Z</time>
      </trkpt>
      <trkpt lat="42.12081" lon="9.09514">
        <ele>1358.48</ele>
        <time>2015-09-11T10:38:36Z</time>
      </trkpt>
      <trkpt lat="42.12078" lon="9.0953">
        <ele>1357.04</ele>
        <time>2015-09-11T10:38:55Z</time>
      </trkpt>
      <trkpt lat="42.12071" lon="9.0954">
        <ele>1355.6</ele>
        <time>2015-09-11T10:39:11Z</time>
      </trkpt>
      <trkpt lat="42.12064" lon="9.09564">
        <ele>1353.67</ele>
        <time>2015-09-11T10:39:27Z</time>
      </trkpt>
      <trkpt lat="42.1206" lon="9.09576">
        <ele>1350.79</ele>
        <time>2015-09-11T10:39:42Z</time>
      </trkpt>
      <trkpt lat="42.12061" lon="9.09582">
        <ele>1349.35</ele>
        <time>2015-09-11T10:39:59Z</time>
      </trkpt>
      <trkpt lat="42.12062" lon="9.09588">
        <ele>1347.43</ele>
        <time>2015-09-11T10:40:15Z</time>
      </trkpt>
      <trkpt lat="42.1205" lon="9.09593">
        <ele>1345.98</ele>
        <time>2015-09-11T10:40:35Z</time>
      </trkpt>
      <trkpt lat="42.12041" lon="9.0959">
        <ele>1344.06</ele>
        <time>2015-09-11T10:40:57Z</time>
      </trkpt>
      <trkpt lat="42.12039" lon="9.09598">
        <ele>1341.18</ele>
        <time>2015-09-11T10:41:11Z</time>
      </trkpt>
      <trkpt lat="42.12034" lon="9.09603">
        <ele>1338.29</ele>
        <time>2015-09-11T10:41:31Z</time>
      </trkpt>
      <trkpt lat="42.12022" lon="9.09614">
        <ele>1337.33</ele>
        <time>2015-09-11T10:41:51Z</time>
      </trkpt>
      <trkpt lat="42.12019" lon="9.09631">
        <ele>1336.85</ele>
        <time>2015-09-11T10:42:06Z</time>
      </trkpt>
      <trkpt lat="42.12014" lon="9.09653">
        <ele>1336.37</ele>
        <time>2015-09-11T10:42:27Z</time>
      </trkpt>
      <trkpt lat="42.1201" lon="9.09669">
        <ele>1334.93</ele>
        <time>2015-09-11T10:42:44Z</time>
      </trkpt>
      <trkpt lat="42.12004" lon="9.09678">
        <ele>1334.45</ele>
        <time>2015-09-11T10:43:00Z</time>
      </trkpt>
      <trkpt lat="42.11999" lon="9.09698">
        <ele>1333.49</ele>
        <time>2015-09-11T10:43:18Z</time>
      </trkpt>
      <trkpt lat="42.11994" lon="9.09712">
        <ele>1333.01</ele>
        <time>2015-09-11T10:43:36Z</time>
      </trkpt>
      <trkpt lat="42.11994" lon="9.09714">
        <ele>1333.97</ele>
        <time>2015-09-11T10:43:38Z</time>
      </trkpt>
      <trkpt lat="42.11992" lon="9.09718">
        <ele>1333.97</ele>
        <time>2015-09-11T10:43:42Z</time>
      </trkpt>
      <trkpt lat="42.11986" lon="9.09738">
        <ele>1333.97</ele>
        <time>2015-09-11T10:43:59Z</time>
      </trkpt>
      <trkpt lat="42.1198" lon="9.09748">
        <ele>1335.41</ele>
        <time>2015-09-11T10:44:13Z</time>
      </trkpt>
      <trkpt lat="42.11976" lon="9.09765">
        <ele>1335.41</ele>
        <time>2015-09-11T10:44:31Z</time>
      </trkpt>
      <trkpt lat="42.11974" lon="9.09774">
        <ele>1333.97</ele>
        <time>2015-09-11T10:44:40Z</time>
      </trkpt>
      <trkpt lat="42.1197" lon="9.09785">
        <ele>1332.52</ele>
        <time>2015-09-11T10:44:52Z</time>
      </trkpt>
      <trkpt lat="42.11967" lon="9.09799">
        <ele>1331.08</ele>
        <time>2015-09-11T10:45:08Z</time>
      </trkpt>
      <trkpt lat="42.11969" lon="9.09809">
        <ele>1329.16</ele>
        <time>2015-09-11T10:45:24Z</time>
      </trkpt>
      <trkpt lat="42.11971" lon="9.09816">
        <ele>1327.24</ele>
        <time>2015-09-11T10:45:42Z</time>
      </trkpt>
      <trkpt lat="42.11972" lon="9.09817">
        <ele>1326.76</ele>
        <time>2015-09-11T10:46:03Z</time>
      </trkpt>
      <trkpt lat="42.11967" lon="9.09824">
        <ele>1325.8</ele>
        <time>2015-09-11T10:46:20Z</time>
      </trkpt>
      <trkpt lat="42.11964" lon="9.09823">
        <ele>1325.31</ele>
        <time>2015-09-11T10:46:38Z</time>
      </trkpt>
      <trkpt lat="42.11957" lon="9.09824">
        <ele>1321.95</ele>
        <time>2015-09-11T10:46:59Z</time>
      </trkpt>
      <trkpt lat="42.11951" lon="9.09831">
        <ele>1318.59</ele>
        <time>2015-09-11T10:47:16Z</time>
      </trkpt>
      <trkpt lat="42.11946" lon="9.0984">
        <ele>1315.7</ele>
        <time>2015-09-11T10:47:34Z</time>
      </trkpt>
      <trkpt lat="42.11943" lon="9.0985">
        <ele>1312.34</ele>
        <time>2015-09-11T10:47:49Z</time>
      </trkpt>
      <trkpt lat="42.11944" lon="9.09856">
        <ele>1309.45</ele>
        <time>2015-09-11T10:48:08Z</time>
      </trkpt>
      <trkpt lat="42.11946" lon="9.09867">
        <ele>1306.09</ele>
        <time>2015-09-11T10:48:26Z</time>
      </trkpt>
      <trkpt lat="42.11943" lon="9.09878">
        <ele>1303.2</ele>
        <time>2015-09-11T10:48:48Z</time>
      </trkpt>
      <trkpt lat="42.11941" lon="9.09891">
        <ele>1299.84</ele>
        <time>2015-09-11T10:49:05Z</time>
      </trkpt>
      <trkpt lat="42.11932" lon="9.09906">
        <ele>1299.36</ele>
        <time>2015-09-11T10:49:22Z</time>
      </trkpt>
      <trkpt lat="42.11923" lon="9.09911">
        <ele>1296.96</ele>
        <time>2015-09-11T10:49:40Z</time>
      </trkpt>
      <trkpt lat="42.1192" lon="9.09927">
        <ele>1295.51</ele>
        <time>2015-09-11T10:49:57Z</time>
      </trkpt>
      <trkpt lat="42.11922" lon="9.09941">
        <ele>1293.59</ele>
        <time>2015-09-11T10:50:15Z</time>
      </trkpt>
      <trkpt lat="42.11919" lon="9.09952">
        <ele>1292.15</ele>
        <time>2015-09-11T10:50:32Z</time>
      </trkpt>
      <trkpt lat="42.11913" lon="9.09963">
        <ele>1291.19</ele>
        <time>2015-09-11T10:50:53Z</time>
      </trkpt>
      <trkpt lat="42.11913" lon="9.0998">
        <ele>1290.23</ele>
        <time>2015-09-11T10:51:12Z</time>
      </trkpt>
      <trkpt lat="42.1191" lon="9.09989">
        <ele>1288.3</ele>
        <time>2015-09-11T10:51:31Z</time>
      </trkpt>
      <trkpt lat="42.11908" lon="9.10004">
        <ele>1288.3</ele>
        <time>2015-09-11T10:51:47Z</time>
      </trkpt>
      <trkpt lat="42.119" lon="9.10018">
        <ele>1286.38</ele>
        <time>2015-09-11T10:52:04Z</time>
      </trkpt>
      <trkpt lat="42.11897" lon="9.1003">
        <ele>1284.46</ele>
        <time>2015-09-11T10:52:19Z</time>
      </trkpt>
      <trkpt lat="42.11892" lon="9.10033">
        <ele>1282.06</ele>
        <time>2015-09-11T10:52:37Z</time>
      </trkpt>
      <trkpt lat="42.11896" lon="9.10046">
        <ele>1280.13</ele>
        <time>2015-09-11T10:52:54Z</time>
      </trkpt>
      <trkpt lat="42.119" lon="9.10049">
        <ele>1277.73</ele>
        <time>2015-09-11T10:53:16Z</time>
      </trkpt>
      <trkpt lat="42.11899" lon="9.10049">
        <ele>1276.29</ele>
        <time>2015-09-11T10:53:33Z</time>
      </trkpt>
      <trkpt lat="42.1189" lon="9.10045">
        <ele>1273.4</ele>
        <time>2015-09-11T10:53:55Z</time>
      </trkpt>
      <trkpt lat="42.11884" lon="9.10053">
        <ele>1271.48</ele>
        <time>2015-09-11T10:54:19Z</time>
      </trkpt>
      <trkpt lat="42.11881" lon="9.10062">
        <ele>1272.44</ele>
        <time>2015-09-11T10:54:27Z</time>
      </trkpt>
      <trkpt lat="42.11888" lon="9.10076">
        <ele>1272.92</ele>
        <time>2015-09-11T10:54:46Z</time>
      </trkpt>
      <trkpt lat="42.11889" lon="9.10078">
        <ele>1271.96</ele>
        <time>2015-09-11T10:54:49Z</time>
      </trkpt>
      <trkpt lat="42.11895" lon="9.10105">
        <ele>1271</ele>
        <time>2015-09-11T10:55:10Z</time>
      </trkpt>
      <trkpt lat="42.1191" lon="9.10129">
        <ele>1268.12</ele>
        <time>2015-09-11T10:55:35Z</time>
      </trkpt>
      <trkpt lat="42.11922" lon="9.10157">
        <ele>1266.19</ele>
        <time>2015-09-11T10:56:00Z</time>
      </trkpt>
      <trkpt lat="42.11936" lon="9.10166">
        <ele>1263.79</ele>
        <time>2015-09-11T10:56:20Z</time>
      </trkpt>
      <trkpt lat="42.11946" lon="9.10177">
        <ele>1262.83</ele>
        <time>2015-09-11T10:56:41Z</time>
      </trkpt>
      <trkpt lat="42.11952" lon="9.10195">
        <ele>1261.87</ele>
        <time>2015-09-11T10:56:59Z</time>
      </trkpt>
      <trkpt lat="42.11948" lon="9.10217">
        <ele>1261.87</ele>
        <time>2015-09-11T10:57:17Z</time>
      </trkpt>
      <trkpt lat="42.1195" lon="9.10237">
        <ele>1258.5</ele>
        <time>2015-09-11T10:57:39Z</time>
      </trkpt>
      <trkpt lat="42.11942" lon="9.10263">
        <ele>1258.5</ele>
        <time>2015-09-11T10:58:03Z</time>
      </trkpt>
      <trkpt lat="42.11941" lon="9.10278">
        <ele>1257.54</ele>
        <time>2015-09-11T10:58:22Z</time>
      </trkpt>
      <trkpt lat="42.11938" lon="9.10282">
        <ele>1258.98</ele>
        <time>2015-09-11T10:58:27Z</time>
      </trkpt>
      <trkpt lat="42.11938" lon="9.10305">
        <ele>1258.98</ele>
        <time>2015-09-11T10:58:46Z</time>
      </trkpt>
      <trkpt lat="42.11936" lon="9.10328">
        <ele>1256.58</ele>
        <time>2015-09-11T10:59:08Z</time>
      </trkpt>
      <trkpt lat="42.11936" lon="9.10348">
        <ele>1255.62</ele>
        <time>2015-09-11T10:59:30Z</time>
      </trkpt>
      <trkpt lat="42.1194" lon="9.10367">
        <ele>1253.7</ele>
        <time>2015-09-11T10:59:49Z</time>
      </trkpt>
      <trkpt lat="42.11941" lon="9.1038">
        <ele>1254.66</ele>
        <time>2015-09-11T11:00:05Z</time>
      </trkpt>
      <trkpt lat="42.11943" lon="9.10392">
        <ele>1253.7</ele>
        <time>2015-09-11T11:00:27Z</time>
      </trkpt>
      <trkpt lat="42.11939" lon="9.1041">
        <ele>1253.7</ele>
        <time>2015-09-11T11:00:44Z</time>
      </trkpt>
      <trkpt lat="42.11937" lon="9.10426">
        <ele>1253.22</ele>
        <time>2015-09-11T11:01:07Z</time>
      </trkpt>
      <trkpt lat="42.11935" lon="9.10435">
        <ele>1254.18</ele>
        <time>2015-09-11T11:01:26Z</time>
      </trkpt>
      <trkpt lat="42.11935" lon="9.10441">
        <ele>1254.66</ele>
        <time>2015-09-11T11:01:45Z</time>
      </trkpt>
      <trkpt lat="42.11933" lon="9.10451">
        <ele>1252.74</ele>
        <time>2015-09-11T11:02:05Z</time>
      </trkpt>
      <trkpt lat="42.11938" lon="9.10455">
        <ele>1252.25</ele>
        <time>2015-09-11T11:02:37Z</time>
      </trkpt>
      <trkpt lat="42.11936" lon="9.10461">
        <ele>1255.14</ele>
        <time>2015-09-11T11:02:56Z</time>
      </trkpt>
      <trkpt lat="42.11931" lon="9.10467">
        <ele>1256.58</ele>
        <time>2015-09-11T11:03:13Z</time>
      </trkpt>
      <trkpt lat="42.1193" lon="9.10476">
        <ele>1258.98</ele>
        <time>2015-09-11T11:03:34Z</time>
      </trkpt>
      <trkpt lat="42.11927" lon="9.10488">
        <ele>1259.46</ele>
        <time>2015-09-11T11:03:48Z</time>
      </trkpt>
      <trkpt lat="42.11928" lon="9.10496">
        <ele>1259.46</ele>
        <time>2015-09-11T11:04:08Z</time>
      </trkpt>
      <trkpt lat="42.11926" lon="9.10506">
        <ele>1257.06</ele>
        <time>2015-09-11T11:04:26Z</time>
      </trkpt>
      <trkpt lat="42.11926" lon="9.1052">
        <ele>1255.14</ele>
        <time>2015-09-11T11:04:46Z</time>
      </trkpt>
      <trkpt lat="42.11922" lon="9.10533">
        <ele>1255.14</ele>
        <time>2015-09-11T11:05:05Z</time>
      </trkpt>
      <trkpt lat="42.11917" lon="9.10543">
        <ele>1254.18</ele>
        <time>2015-09-11T11:05:21Z</time>
      </trkpt>
      <trkpt lat="42.11913" lon="9.1056">
        <ele>1252.74</ele>
        <time>2015-09-11T11:05:42Z</time>
      </trkpt>
      <trkpt lat="42.11908" lon="9.10574">
        <ele>1250.81</ele>
        <time>2015-09-11T11:06:01Z</time>
      </trkpt>
      <trkpt lat="42.11904" lon="9.10587">
        <ele>1250.33</ele>
        <time>2015-09-11T11:06:15Z</time>
      </trkpt>
      <trkpt lat="42.11903" lon="9.10606">
        <ele>1247.45</ele>
        <time>2015-09-11T11:06:39Z</time>
      </trkpt>
      <trkpt lat="42.11901" lon="9.10606">
        <ele>1245.53</ele>
        <time>2015-09-11T11:06:58Z</time>
      </trkpt>
      <trkpt lat="42.11899" lon="9.10609">
        <ele>1244.56</ele>
        <time>2015-09-11T11:07:21Z</time>
      </trkpt>
      <trkpt lat="42.11901" lon="9.10614">
        <ele>1243.6</ele>
        <time>2015-09-11T11:07:46Z</time>
      </trkpt>
      <trkpt lat="42.11898" lon="9.10614">
        <ele>1242.16</ele>
        <time>2015-09-11T11:08:13Z</time>
      </trkpt>
      <trkpt lat="42.119" lon="9.10616">
        <ele>1240.72</ele>
        <time>2015-09-11T11:08:32Z</time>
      </trkpt>
      <trkpt lat="42.11902" lon="9.10621">
        <ele>1239.28</ele>
        <time>2015-09-11T11:08:49Z</time>
      </trkpt>
      <trkpt lat="42.11902" lon="9.10625">
        <ele>1237.35</ele>
        <time>2015-09-11T11:09:03Z</time>
      </trkpt>
      <trkpt lat="42.11908" lon="9.10624">
        <ele>1235.91</ele>
        <time>2015-09-11T11:09:19Z</time>
      </trkpt>
      <trkpt lat="42.11913" lon="9.10624">
        <ele>1233.03</ele>
        <time>2015-09-11T11:09:37Z</time>
      </trkpt>
      <trkpt lat="42.11912" lon="9.1063">
        <ele>1231.11</ele>
        <time>2015-09-11T11:09:54Z</time>
      </trkpt>
      <trkpt lat="42.11908" lon="9.1064">
        <ele>1229.66</ele>
        <time>2015-09-11T11:10:10Z</time>
      </trkpt>
      <trkpt lat="42.11905" lon="9.10655">
        <ele>1229.66</ele>
        <time>2015-09-11T11:10:26Z</time>
      </trkpt>
      <trkpt lat="42.11898" lon="9.10665">
        <ele>1231.11</ele>
        <time>2015-09-11T11:10:42Z</time>
      </trkpt>
      <trkpt lat="42.11891" lon="9.10672">
        <ele>1231.11</ele>
        <time>2015-09-11T11:10:57Z</time>
      </trkpt>
      <trkpt lat="42.11889" lon="9.10673">
        <ele>1229.66</ele>
        <time>2015-09-11T11:11:02Z</time>
      </trkpt>
      <trkpt lat="42.11881" lon="9.10683">
        <ele>1227.74</ele>
        <time>2015-09-11T11:11:18Z</time>
      </trkpt>
      <trkpt lat="42.11875" lon="9.10693">
        <ele>1226.3</ele>
        <time>2015-09-11T11:11:35Z</time>
      </trkpt>
      <trkpt lat="42.11873" lon="9.10699">
        <ele>1223.9</ele>
        <time>2015-09-11T11:11:49Z</time>
      </trkpt>
      <trkpt lat="42.11864" lon="9.10703">
        <ele>1221.49</ele>
        <time>2015-09-11T11:12:06Z</time>
      </trkpt>
      <trkpt lat="42.11856" lon="9.10711">
        <ele>1218.61</ele>
        <time>2015-09-11T11:12:22Z</time>
      </trkpt>
      <trkpt lat="42.11853" lon="9.10713">
        <ele>1217.17</ele>
        <time>2015-09-11T11:12:35Z</time>
      </trkpt>
      <trkpt lat="42.11848" lon="9.1072">
        <ele>1214.28</ele>
        <time>2015-09-11T11:12:52Z</time>
      </trkpt>
      <trkpt lat="42.11847" lon="9.10732">
        <ele>1210.92</ele>
        <time>2015-09-11T11:13:08Z</time>
      </trkpt>
      <trkpt lat="42.11843" lon="9.1074">
        <ele>1209</ele>
        <time>2015-09-11T11:13:23Z</time>
      </trkpt>
      <trkpt lat="42.11834" lon="9.10741">
        <ele>1208.03</ele>
        <time>2015-09-11T11:13:40Z</time>
      </trkpt>
      <trkpt lat="42.11825" lon="9.10741">
        <ele>1207.55</ele>
        <time>2015-09-11T11:13:57Z</time>
      </trkpt>
      <trkpt lat="42.1182" lon="9.10749">
        <ele>1206.11</ele>
        <time>2015-09-11T11:14:14Z</time>
      </trkpt>
      <trkpt lat="42.11815" lon="9.10757">
        <ele>1204.19</ele>
        <time>2015-09-11T11:14:30Z</time>
      </trkpt>
      <trkpt lat="42.11808" lon="9.10766">
        <ele>1201.79</ele>
        <time>2015-09-11T11:14:48Z</time>
      </trkpt>
      <trkpt lat="42.11801" lon="9.1077">
        <ele>1199.38</ele>
        <time>2015-09-11T11:15:04Z</time>
      </trkpt>
      <trkpt lat="42.11796" lon="9.10776">
        <ele>1196.98</ele>
        <time>2015-09-11T11:15:21Z</time>
      </trkpt>
      <trkpt lat="42.11796" lon="9.10778">
        <ele>1196.02</ele>
        <time>2015-09-11T11:15:44Z</time>
      </trkpt>
      <trkpt lat="42.11805" lon="9.10791">
        <ele>1194.09</ele>
        <time>2015-09-11T11:16:05Z</time>
      </trkpt>
      <trkpt lat="42.11802" lon="9.10795">
        <ele>1192.17</ele>
        <time>2015-09-11T11:16:19Z</time>
      </trkpt>
      <trkpt lat="42.11796" lon="9.10801">
        <ele>1189.29</ele>
        <time>2015-09-11T11:16:37Z</time>
      </trkpt>
      <trkpt lat="42.11791" lon="9.108">
        <ele>1187.37</ele>
        <time>2015-09-11T11:16:54Z</time>
      </trkpt>
      <trkpt lat="42.11792" lon="9.10805">
        <ele>1186.4</ele>
        <time>2015-09-11T11:17:10Z</time>
      </trkpt>
      <trkpt lat="42.11792" lon="9.10806">
        <ele>1186.88</ele>
        <time>2015-09-11T11:17:28Z</time>
      </trkpt>
      <trkpt lat="42.1179" lon="9.10806">
        <ele>1185.44</ele>
        <time>2015-09-11T11:17:34Z</time>
      </trkpt>
      <trkpt lat="42.11788" lon="9.10798">
        <ele>1185.44</ele>
        <time>2015-09-11T11:17:58Z</time>
      </trkpt>
      <trkpt lat="42.11788" lon="9.10799">
        <ele>1185.44</ele>
        <time>2015-09-11T11:18:24Z</time>
      </trkpt>
      <trkpt lat="42.11788" lon="9.108">
        <ele>1184.96</ele>
        <time>2015-09-11T11:18:44Z</time>
      </trkpt>
      <trkpt lat="42.1179" lon="9.10799">
        <ele>1184.96</ele>
        <time>2015-09-11T11:19:10Z</time>
      </trkpt>
      <trkpt lat="42.11788" lon="9.10804">
        <ele>1184.96</ele>
        <time>2015-09-11T11:19:43Z</time>
      </trkpt>
      <trkpt lat="42.11788" lon="9.10801">
        <ele>1184.48</ele>
        <time>2015-09-11T11:20:14Z</time>
      </trkpt>
      <trkpt lat="42.11792" lon="9.10802">
        <ele>1184.48</ele>
        <time>2015-09-11T11:20:49Z</time>
      </trkpt>
      <trkpt lat="42.11789" lon="9.108">
        <ele>1184.48</ele>
        <time>2015-09-11T11:21:13Z</time>
      </trkpt>
      <trkpt lat="42.11791" lon="9.108">
        <ele>1185.44</ele>
        <time>2015-09-11T11:21:32Z</time>
      </trkpt>
      <trkpt lat="42.11794" lon="9.10802">
        <ele>1184</ele>
        <time>2015-09-11T11:21:55Z</time>
      </trkpt>
      <trkpt lat="42.11789" lon="9.10807">
        <ele>1181.12</ele>
        <time>2015-09-11T11:22:18Z</time>
      </trkpt>
      <trkpt lat="42.11788" lon="9.10811">
        <ele>1178.71</ele>
        <time>2015-09-11T11:22:37Z</time>
      </trkpt>
      <trkpt lat="42.11789" lon="9.10819">
        <ele>1177.27</ele>
        <time>2015-09-11T11:23:00Z</time>
      </trkpt>
      <trkpt lat="42.11787" lon="9.10821">
        <ele>1174.87</ele>
        <time>2015-09-11T11:23:20Z</time>
      </trkpt>
      <trkpt lat="42.11785" lon="9.10827">
        <ele>1172.47</ele>
        <time>2015-09-11T11:23:35Z</time>
      </trkpt>
      <trkpt lat="42.11784" lon="9.10834">
        <ele>1169.1</ele>
        <time>2015-09-11T11:23:54Z</time>
      </trkpt>
      <trkpt lat="42.11781" lon="9.10839">
        <ele>1165.74</ele>
        <time>2015-09-11T11:24:19Z</time>
      </trkpt>
      <trkpt lat="42.11775" lon="9.10846">
        <ele>1161.89</ele>
        <time>2015-09-11T11:24:34Z</time>
      </trkpt>
      <trkpt lat="42.1177" lon="9.10849">
        <ele>1159.01</ele>
        <time>2015-09-11T11:24:48Z</time>
      </trkpt>
      <trkpt lat="42.1177" lon="9.10861">
        <ele>1155.64</ele>
        <time>2015-09-11T11:25:10Z</time>
      </trkpt>
      <trkpt lat="42.11777" lon="9.10871">
        <ele>1152.28</ele>
        <time>2015-09-11T11:25:25Z</time>
      </trkpt>
      <trkpt lat="42.11782" lon="9.10884">
        <ele>1148.91</ele>
        <time>2015-09-11T11:25:48Z</time>
      </trkpt>
      <trkpt lat="42.11782" lon="9.10888">
        <ele>1147.47</ele>
        <time>2015-09-11T11:26:20Z</time>
      </trkpt>
      <trkpt lat="42.11778" lon="9.10898">
        <ele>1144.59</ele>
        <time>2015-09-11T11:26:41Z</time>
      </trkpt>
      <trkpt lat="42.1177" lon="9.10899">
        <ele>1143.63</ele>
        <time>2015-09-11T11:27:00Z</time>
      </trkpt>
      <trkpt lat="42.11754" lon="9.10905">
        <ele>1140.74</ele>
        <time>2015-09-11T11:27:24Z</time>
      </trkpt>
      <trkpt lat="42.1175" lon="9.10917">
        <ele>1138.34</ele>
        <time>2015-09-11T11:27:47Z</time>
      </trkpt>
      <trkpt lat="42.11737" lon="9.10928">
        <ele>1137.38</ele>
        <time>2015-09-11T11:28:13Z</time>
      </trkpt>
      <trkpt lat="42.11734" lon="9.10938">
        <ele>1134.49</ele>
        <time>2015-09-11T11:28:32Z</time>
      </trkpt>
      <trkpt lat="42.11728" lon="9.10946">
        <ele>1131.61</ele>
        <time>2015-09-11T11:28:51Z</time>
      </trkpt>
      <trkpt lat="42.11721" lon="9.10951">
        <ele>1129.69</ele>
        <time>2015-09-11T11:29:13Z</time>
      </trkpt>
      <trkpt lat="42.1172" lon="9.10963">
        <ele>1126.32</ele>
        <time>2015-09-11T11:29:32Z</time>
      </trkpt>
      <trkpt lat="42.11711" lon="9.10972">
        <ele>1124.88</ele>
        <time>2015-09-11T11:29:52Z</time>
      </trkpt>
      <trkpt lat="42.11703" lon="9.10977">
        <ele>1122.96</ele>
        <time>2015-09-11T11:30:14Z</time>
      </trkpt>
      <trkpt lat="42.11696" lon="9.10991">
        <ele>1119.59</ele>
        <time>2015-09-11T11:30:39Z</time>
      </trkpt>
      <trkpt lat="42.11679" lon="9.11002">
        <ele>1117.67</ele>
        <time>2015-09-11T11:31:04Z</time>
      </trkpt>
      <trkpt lat="42.11664" lon="9.11019">
        <ele>1115.27</ele>
        <time>2015-09-11T11:31:26Z</time>
      </trkpt>
      <trkpt lat="42.11662" lon="9.11026">
        <ele>1113.34</ele>
        <time>2015-09-11T11:31:47Z</time>
      </trkpt>
      <trkpt lat="42.11658" lon="9.11032">
        <ele>1112.86</ele>
        <time>2015-09-11T11:32:10Z</time>
      </trkpt>
      <trkpt lat="42.11659" lon="9.11037">
        <ele>1112.86</ele>
        <time>2015-09-11T11:32:42Z</time>
      </trkpt>
      <trkpt lat="42.11656" lon="9.11035">
        <ele>1111.9</ele>
        <time>2015-09-11T11:33:15Z</time>
      </trkpt>
      <trkpt lat="42.11658" lon="9.11036">
        <ele>1113.34</ele>
        <time>2015-09-11T11:33:21Z</time>
      </trkpt>
      <trkpt lat="42.11655" lon="9.11032">
        <ele>1113.34</ele>
        <time>2015-09-11T11:34:02Z</time>
      </trkpt>
      <trkpt lat="42.11659" lon="9.11041">
        <ele>1113.34</ele>
        <time>2015-09-11T11:34:18Z</time>
      </trkpt>
      <trkpt lat="42.1166" lon="9.1104">
        <ele>1112.38</ele>
        <time>2015-09-11T11:34:26Z</time>
      </trkpt>
      <trkpt lat="42.11659" lon="9.11048">
        <ele>1109.98</ele>
        <time>2015-09-11T11:34:47Z</time>
      </trkpt>
      <trkpt lat="42.11649" lon="9.11051">
        <ele>1106.61</ele>
        <time>2015-09-11T11:35:09Z</time>
      </trkpt>
      <trkpt lat="42.11638" lon="9.11066">
        <ele>1105.17</ele>
        <time>2015-09-11T11:35:36Z</time>
      </trkpt>
      <trkpt lat="42.11631" lon="9.11075">
        <ele>1103.73</ele>
        <time>2015-09-11T11:35:58Z</time>
      </trkpt>
      <trkpt lat="42.11622" lon="9.11089">
        <ele>1103.73</ele>
        <time>2015-09-11T11:36:22Z</time>
      </trkpt>
      <trkpt lat="42.11621" lon="9.11101">
        <ele>1100.85</ele>
        <time>2015-09-11T11:36:43Z</time>
      </trkpt>
      <trkpt lat="42.11604" lon="9.11125">
        <ele>1098.92</ele>
        <time>2015-09-11T11:37:08Z</time>
      </trkpt>
      <trkpt lat="42.116" lon="9.11148">
        <ele>1097.96</ele>
        <time>2015-09-11T11:37:30Z</time>
      </trkpt>
      <trkpt lat="42.11609" lon="9.11165">
        <ele>1095.08</ele>
        <time>2015-09-11T11:37:57Z</time>
      </trkpt>
      <trkpt lat="42.11612" lon="9.11188">
        <ele>1093.16</ele>
        <time>2015-09-11T11:38:18Z</time>
      </trkpt>
      <trkpt lat="42.11618" lon="9.11202">
        <ele>1092.2</ele>
        <time>2015-09-11T11:38:39Z</time>
      </trkpt>
      <trkpt lat="42.11631" lon="9.11204">
        <ele>1091.23</ele>
        <time>2015-09-11T11:39:10Z</time>
      </trkpt>
      <trkpt lat="42.11631" lon="9.11204">
        <ele>1088.83</ele>
        <time>2015-09-11T11:39:16Z</time>
      </trkpt>
      <trkpt lat="42.1163" lon="9.11205">
        <ele>1092.68</ele>
        <time>2015-09-11T11:39:17Z</time>
      </trkpt>
      <trkpt lat="42.1163" lon="9.11205">
        <ele>1091.23</ele>
        <time>2015-09-11T11:39:18Z</time>
      </trkpt>
      <trkpt lat="42.11632" lon="9.11226">
        <ele>1090.27</ele>
        <time>2015-09-11T11:39:40Z</time>
      </trkpt>
      <trkpt lat="42.11642" lon="9.11239">
        <ele>1089.79</ele>
        <time>2015-09-11T11:40:04Z</time>
      </trkpt>
      <trkpt lat="42.11652" lon="9.11244">
        <ele>1089.31</ele>
        <time>2015-09-11T11:40:26Z</time>
      </trkpt>
      <trkpt lat="42.11654" lon="9.11243">
        <ele>1090.75</ele>
        <time>2015-09-11T11:40:33Z</time>
      </trkpt>
      <trkpt lat="42.11659" lon="9.11259">
        <ele>1091.71</ele>
        <time>2015-09-11T11:40:54Z</time>
      </trkpt>
      <trkpt lat="42.11661" lon="9.11281">
        <ele>1092.68</ele>
        <time>2015-09-11T11:41:18Z</time>
      </trkpt>
      <trkpt lat="42.11668" lon="9.11298">
        <ele>1092.68</ele>
        <time>2015-09-11T11:41:43Z</time>
      </trkpt>
      <trkpt lat="42.11689" lon="9.11326">
        <ele>1091.23</ele>
        <time>2015-09-11T11:42:05Z</time>
      </trkpt>
      <trkpt lat="42.11704" lon="9.11353">
        <ele>1090.27</ele>
        <time>2015-09-11T11:42:28Z</time>
      </trkpt>
      <trkpt lat="42.1171" lon="9.11383">
        <ele>1088.35</ele>
        <time>2015-09-11T11:42:54Z</time>
      </trkpt>
      <trkpt lat="42.11719" lon="9.11401">
        <ele>1085.95</ele>
        <time>2015-09-11T11:43:20Z</time>
      </trkpt>
      <trkpt lat="42.11726" lon="9.1142">
        <ele>1083.54</ele>
        <time>2015-09-11T11:43:43Z</time>
      </trkpt>
      <trkpt lat="42.11739" lon="9.11448">
        <ele>1081.14</ele>
        <time>2015-09-11T11:44:10Z</time>
      </trkpt>
      <trkpt lat="42.11745" lon="9.11474">
        <ele>1080.18</ele>
        <time>2015-09-11T11:44:34Z</time>
      </trkpt>
      <trkpt lat="42.11748" lon="9.11516">
        <ele>1079.22</ele>
        <time>2015-09-11T11:45:01Z</time>
      </trkpt>
      <trkpt lat="42.11743" lon="9.11548">
        <ele>1076.81</ele>
        <time>2015-09-11T11:45:23Z</time>
      </trkpt>
      <trkpt lat="42.11739" lon="9.11575">
        <ele>1074.41</ele>
        <time>2015-09-11T11:45:47Z</time>
      </trkpt>
      <trkpt lat="42.11737" lon="9.11605">
        <ele>1072.97</ele>
        <time>2015-09-11T11:46:13Z</time>
      </trkpt>
      <trkpt lat="42.1173" lon="9.1163">
        <ele>1069.6</ele>
        <time>2015-09-11T11:46:38Z</time>
      </trkpt>
      <trkpt lat="42.117" lon="9.11677">
        <ele>1069.12</ele>
        <time>2015-09-11T11:47:02Z</time>
      </trkpt>
      <trkpt lat="42.11709" lon="9.11694">
        <ele>1066.24</ele>
        <time>2015-09-11T11:47:26Z</time>
      </trkpt>
      <trkpt lat="42.11727" lon="9.1172">
        <ele>1065.76</ele>
        <time>2015-09-11T11:47:52Z</time>
      </trkpt>
      <trkpt lat="42.1174" lon="9.11745">
        <ele>1064.8</ele>
        <time>2015-09-11T11:48:15Z</time>
      </trkpt>
      <trkpt lat="42.11742" lon="9.11772">
        <ele>1062.87</ele>
        <time>2015-09-11T11:48:37Z</time>
      </trkpt>
      <trkpt lat="42.11746" lon="9.11801">
        <ele>1061.43</ele>
        <time>2015-09-11T11:49:04Z</time>
      </trkpt>
      <trkpt lat="42.11741" lon="9.1183">
        <ele>1059.51</ele>
        <time>2015-09-11T11:49:26Z</time>
      </trkpt>
      <trkpt lat="42.11749" lon="9.11856">
        <ele>1059.03</ele>
        <time>2015-09-11T11:49:49Z</time>
      </trkpt>
      <trkpt lat="42.11753" lon="9.11887">
        <ele>1058.07</ele>
        <time>2015-09-11T11:50:16Z</time>
      </trkpt>
      <trkpt lat="42.11753" lon="9.11921">
        <ele>1057.59</ele>
        <time>2015-09-11T11:50:40Z</time>
      </trkpt>
      <trkpt lat="42.11768" lon="9.11947">
        <ele>1055.67</ele>
        <time>2015-09-11T11:51:06Z</time>
      </trkpt>
      <trkpt lat="42.11781" lon="9.11977">
        <ele>1054.7</ele>
        <time>2015-09-11T11:51:31Z</time>
      </trkpt>
      <trkpt lat="42.11786" lon="9.12004">
        <ele>1053.74</ele>
        <time>2015-09-11T11:51:55Z</time>
      </trkpt>
      <trkpt lat="42.11818" lon="9.12035">
        <ele>1051.82</ele>
        <time>2015-09-11T11:52:22Z</time>
      </trkpt>
      <trkpt lat="42.1184" lon="9.12055">
        <ele>1050.38</ele>
        <time>2015-09-11T11:52:49Z</time>
      </trkpt>
      <trkpt lat="42.11856" lon="9.1208">
        <ele>1048.45</ele>
        <time>2015-09-11T11:53:18Z</time>
      </trkpt>
      <trkpt lat="42.11873" lon="9.12092">
        <ele>1047.01</ele>
        <time>2015-09-11T11:53:42Z</time>
      </trkpt>
      <trkpt lat="42.11892" lon="9.12101">
        <ele>1045.09</ele>
        <time>2015-09-11T11:54:05Z</time>
      </trkpt>
      <trkpt lat="42.119" lon="9.12136">
        <ele>1043.17</ele>
        <time>2015-09-11T11:54:29Z</time>
      </trkpt>
      <trkpt lat="42.11906" lon="9.12166">
        <ele>1040.76</ele>
        <time>2015-09-11T11:54:55Z</time>
      </trkpt>
      <trkpt lat="42.11925" lon="9.12204">
        <ele>1038.84</ele>
        <time>2015-09-11T11:55:21Z</time>
      </trkpt>
      <trkpt lat="42.11927" lon="9.12231">
        <ele>1036.92</ele>
        <time>2015-09-11T11:55:46Z</time>
      </trkpt>
      <trkpt lat="42.11936" lon="9.12255">
        <ele>1034.52</ele>
        <time>2015-09-11T11:56:12Z</time>
      </trkpt>
      <trkpt lat="42.11951" lon="9.12291">
        <ele>1032.11</ele>
        <time>2015-09-11T11:56:35Z</time>
      </trkpt>
      <trkpt lat="42.11977" lon="9.12301">
        <ele>1030.19</ele>
        <time>2015-09-11T11:57:01Z</time>
      </trkpt>
      <trkpt lat="42.12" lon="9.12318">
        <ele>1027.79</ele>
        <time>2015-09-11T11:57:24Z</time>
      </trkpt>
      <trkpt lat="42.1202" lon="9.12341">
        <ele>1025.86</ele>
        <time>2015-09-11T11:57:51Z</time>
      </trkpt>
      <trkpt lat="42.12039" lon="9.1236">
        <ele>1023.46</ele>
        <time>2015-09-11T11:58:16Z</time>
      </trkpt>
      <trkpt lat="42.12053" lon="9.12379">
        <ele>1022.02</ele>
        <time>2015-09-11T11:58:41Z</time>
      </trkpt>
      <trkpt lat="42.1206" lon="9.12407">
        <ele>1020.1</ele>
        <time>2015-09-11T11:59:04Z</time>
      </trkpt>
      <trkpt lat="42.12069" lon="9.12442">
        <ele>1018.17</ele>
        <time>2015-09-11T11:59:26Z</time>
      </trkpt>
      <trkpt lat="42.12075" lon="9.12464">
        <ele>1016.25</ele>
        <time>2015-09-11T11:59:47Z</time>
      </trkpt>
      <trkpt lat="42.12083" lon="9.12491">
        <ele>1013.85</ele>
        <time>2015-09-11T12:00:09Z</time>
      </trkpt>
      <trkpt lat="42.12092" lon="9.12518">
        <ele>1011.93</ele>
        <time>2015-09-11T12:00:30Z</time>
      </trkpt>
      <trkpt lat="42.12073" lon="9.12528">
        <ele>1009.04</ele>
        <time>2015-09-11T12:00:51Z</time>
      </trkpt>
      <trkpt lat="42.12056" lon="9.1255">
        <ele>1005.68</ele>
        <time>2015-09-11T12:01:17Z</time>
      </trkpt>
      <trkpt lat="42.12055" lon="9.12569">
        <ele>1003.27</ele>
        <time>2015-09-11T12:01:35Z</time>
      </trkpt>
      <trkpt lat="42.12066" lon="9.12618">
        <ele>1001.35</ele>
        <time>2015-09-11T12:01:57Z</time>
      </trkpt>
      <trkpt lat="42.12074" lon="9.1264">
        <ele>999.43</ele>
        <time>2015-09-11T12:02:18Z</time>
      </trkpt>
      <trkpt lat="42.12083" lon="9.12676">
        <ele>997.51</ele>
        <time>2015-09-11T12:02:43Z</time>
      </trkpt>
      <trkpt lat="42.12095" lon="9.12713">
        <ele>994.62</ele>
        <time>2015-09-11T12:03:09Z</time>
      </trkpt>
      <trkpt lat="42.12109" lon="9.12746">
        <ele>992.7</ele>
        <time>2015-09-11T12:03:32Z</time>
      </trkpt>
      <trkpt lat="42.12127" lon="9.12768">
        <ele>989.81</ele>
        <time>2015-09-11T12:03:56Z</time>
      </trkpt>
      <trkpt lat="42.12159" lon="9.12785">
        <ele>988.37</ele>
        <time>2015-09-11T12:04:22Z</time>
      </trkpt>
      <trkpt lat="42.1217" lon="9.12791">
        <ele>987.89</ele>
        <time>2015-09-11T12:04:32Z</time>
      </trkpt>
      <trkpt lat="42.12181" lon="9.12813">
        <ele>986.45</ele>
        <time>2015-09-11T12:04:53Z</time>
      </trkpt>
      <trkpt lat="42.12197" lon="9.12835">
        <ele>984.53</ele>
        <time>2015-09-11T12:05:15Z</time>
      </trkpt>
      <trkpt lat="42.12223" lon="9.12859">
        <ele>983.09</ele>
        <time>2015-09-11T12:05:40Z</time>
      </trkpt>
      <trkpt lat="42.12244" lon="9.12855">
        <ele>981.16</ele>
        <time>2015-09-11T12:06:03Z</time>
      </trkpt>
      <trkpt lat="42.12274" lon="9.12863">
        <ele>980.2</ele>
        <time>2015-09-11T12:06:25Z</time>
      </trkpt>
      <trkpt lat="42.12292" lon="9.12856">
        <ele>979.72</ele>
        <time>2015-09-11T12:06:48Z</time>
      </trkpt>
      <trkpt lat="42.12323" lon="9.1284">
        <ele>979.24</ele>
        <time>2015-09-11T12:07:11Z</time>
      </trkpt>
      <trkpt lat="42.12358" lon="9.12827">
        <ele>977.32</ele>
        <time>2015-09-11T12:07:34Z</time>
      </trkpt>
      <trkpt lat="42.12375" lon="9.12813">
        <ele>976.36</ele>
        <time>2015-09-11T12:07:57Z</time>
      </trkpt>
      <trkpt lat="42.12414" lon="9.12818">
        <ele>975.39</ele>
        <time>2015-09-11T12:08:19Z</time>
      </trkpt>
      <trkpt lat="42.12435" lon="9.12833">
        <ele>973.47</ele>
        <time>2015-09-11T12:08:42Z</time>
      </trkpt>
      <trkpt lat="42.12451" lon="9.12846">
        <ele>972.03</ele>
        <time>2015-09-11T12:09:05Z</time>
      </trkpt>
      <trkpt lat="42.12483" lon="9.12863">
        <ele>970.59</ele>
        <time>2015-09-11T12:09:30Z</time>
      </trkpt>
      <trkpt lat="42.12515" lon="9.12873">
        <ele>969.15</ele>
        <time>2015-09-11T12:09:53Z</time>
      </trkpt>
      <trkpt lat="42.12543" lon="9.12884">
        <ele>967.22</ele>
        <time>2015-09-11T12:10:14Z</time>
      </trkpt>
      <trkpt lat="42.1258" lon="9.12895">
        <ele>964.34</ele>
        <time>2015-09-11T12:10:38Z</time>
      </trkpt>
      <trkpt lat="42.12604" lon="9.12909">
        <ele>962.9</ele>
        <time>2015-09-11T12:10:59Z</time>
      </trkpt>
      <trkpt lat="42.12633" lon="9.12907">
        <ele>961.46</ele>
        <time>2015-09-11T12:11:23Z</time>
      </trkpt>
      <trkpt lat="42.12651" lon="9.12907">
        <ele>960.49</ele>
        <time>2015-09-11T12:11:44Z</time>
      </trkpt>
      <trkpt lat="42.12644" lon="9.1292">
        <ele>956.65</ele>
        <time>2015-09-11T12:12:06Z</time>
      </trkpt>
      <trkpt lat="42.12632" lon="9.12947">
        <ele>953.77</ele>
        <time>2015-09-11T12:12:20Z</time>
      </trkpt>
      <trkpt lat="42.12628" lon="9.12968">
        <ele>951.84</ele>
        <time>2015-09-11T12:12:39Z</time>
      </trkpt>
      <trkpt lat="42.1264" lon="9.12984">
        <ele>953.28</ele>
        <time>2015-09-11T12:12:56Z</time>
      </trkpt>
      <trkpt lat="42.12656" lon="9.13013">
        <ele>954.73</ele>
        <time>2015-09-11T12:13:19Z</time>
      </trkpt>
      <trkpt lat="42.1264" lon="9.13036">
        <ele>953.28</ele>
        <time>2015-09-11T12:13:39Z</time>
      </trkpt>
      <trkpt lat="42.12639" lon="9.13037">
        <ele>953.28</ele>
        <time>2015-09-11T12:13:40Z</time>
      </trkpt>
      <trkpt lat="42.12622" lon="9.1305">
        <ele>952.8</ele>
        <time>2015-09-11T12:14:03Z</time>
      </trkpt>
      <trkpt lat="42.12597" lon="9.13063">
        <ele>952.8</ele>
        <time>2015-09-11T12:14:27Z</time>
      </trkpt>
      <trkpt lat="42.12594" lon="9.13063">
        <ele>954.25</ele>
        <time>2015-09-11T12:14:29Z</time>
      </trkpt>
      <trkpt lat="42.12575" lon="9.13067">
        <ele>956.17</ele>
        <time>2015-09-11T12:14:49Z</time>
      </trkpt>
      <trkpt lat="42.1256" lon="9.13083">
        <ele>956.65</ele>
        <time>2015-09-11T12:15:12Z</time>
      </trkpt>
      <trkpt lat="42.12563" lon="9.13099">
        <ele>954.25</ele>
        <time>2015-09-11T12:15:33Z</time>
      </trkpt>
      <trkpt lat="42.12572" lon="9.13111">
        <ele>951.84</ele>
        <time>2015-09-11T12:15:54Z</time>
      </trkpt>
      <trkpt lat="42.12613" lon="9.13103">
        <ele>951.36</ele>
        <time>2015-09-11T12:16:21Z</time>
      </trkpt>
      <trkpt lat="42.12632" lon="9.13113">
        <ele>952.8</ele>
        <time>2015-09-11T12:16:31Z</time>
      </trkpt>
      <trkpt lat="42.12655" lon="9.13126">
        <ele>952.8</ele>
        <time>2015-09-11T12:16:55Z</time>
      </trkpt>
      <trkpt lat="42.12671" lon="9.13147">
        <ele>951.84</ele>
        <time>2015-09-11T12:17:16Z</time>
      </trkpt>
      <trkpt lat="42.12686" lon="9.13181">
        <ele>949.92</ele>
        <time>2015-09-11T12:17:36Z</time>
      </trkpt>
      <trkpt lat="42.12689" lon="9.13208">
        <ele>949.92</ele>
        <time>2015-09-11T12:17:53Z</time>
      </trkpt>
      <trkpt lat="42.12693" lon="9.13239">
        <ele>948</ele>
        <time>2015-09-11T12:18:15Z</time>
      </trkpt>
      <trkpt lat="42.12705" lon="9.13271">
        <ele>946.56</ele>
        <time>2015-09-11T12:18:38Z</time>
      </trkpt>
      <trkpt lat="42.12716" lon="9.13273">
        <ele>943.19</ele>
        <time>2015-09-11T12:18:59Z</time>
      </trkpt>
      <trkpt lat="42.12726" lon="9.13241">
        <ele>940.79</ele>
        <time>2015-09-11T12:19:21Z</time>
      </trkpt>
      <trkpt lat="42.12745" lon="9.13246">
        <ele>938.38</ele>
        <time>2015-09-11T12:19:38Z</time>
      </trkpt>
      <trkpt lat="42.12755" lon="9.13282">
        <ele>936.94</ele>
        <time>2015-09-11T12:20:02Z</time>
      </trkpt>
      <trkpt lat="42.1276" lon="9.13314">
        <ele>935.02</ele>
        <time>2015-09-11T12:20:22Z</time>
      </trkpt>
      <trkpt lat="42.12768" lon="9.13329">
        <ele>932.14</ele>
        <time>2015-09-11T12:20:34Z</time>
      </trkpt>
      <trkpt lat="42.12782" lon="9.13329">
        <ele>929.73</ele>
        <time>2015-09-11T12:20:55Z</time>
      </trkpt>
      <trkpt lat="42.12787" lon="9.13325">
        <ele>928.77</ele>
        <time>2015-09-11T12:21:20Z</time>
      </trkpt>
      <trkpt lat="42.12786" lon="9.1331">
        <ele>929.73</ele>
        <time>2015-09-11T12:21:31Z</time>
      </trkpt>
      <trkpt lat="42.12778" lon="9.13283">
        <ele>928.29</ele>
        <time>2015-09-11T12:21:53Z</time>
      </trkpt>
      <trkpt lat="42.1279" lon="9.13255">
        <ele>925.89</ele>
        <time>2015-09-11T12:22:16Z</time>
      </trkpt>
      <trkpt lat="42.12801" lon="9.13244">
        <ele>925.89</ele>
        <time>2015-09-11T12:22:40Z</time>
      </trkpt>
      <trkpt lat="42.128" lon="9.13244">
        <ele>927.33</ele>
        <time>2015-09-11T12:22:45Z</time>
      </trkpt>
      <trkpt lat="42.12801" lon="9.13245">
        <ele>925.89</ele>
        <time>2015-09-11T12:23:04Z</time>
      </trkpt>
      <trkpt lat="42.12803" lon="9.13249">
        <ele>925.89</ele>
        <time>2015-09-11T12:23:33Z</time>
      </trkpt>
      <trkpt lat="42.12791" lon="9.1326">
        <ele>925.89</ele>
        <time>2015-09-11T12:26:26Z</time>
      </trkpt>
      <trkpt lat="42.12802" lon="9.13257">
        <ele>925.89</ele>
        <time>2015-09-11T12:26:47Z</time>
      </trkpt>
      <trkpt lat="42.1281" lon="9.13264">
        <ele>924.45</ele>
        <time>2015-09-11T12:27:05Z</time>
      </trkpt>
      <trkpt lat="42.12824" lon="9.1327">
        <ele>922.04</ele>
        <time>2015-09-11T12:27:28Z</time>
      </trkpt>
      <trkpt lat="42.12837" lon="9.13288">
        <ele>922.04</ele>
        <time>2015-09-11T12:27:51Z</time>
      </trkpt>
      <trkpt lat="42.12846" lon="9.13301">
        <ele>922.04</ele>
        <time>2015-09-11T12:28:12Z</time>
      </trkpt>
      <trkpt lat="42.12841" lon="9.13302">
        <ele>922.04</ele>
        <time>2015-09-11T12:28:33Z</time>
      </trkpt>
      <trkpt lat="42.12839" lon="9.13296">
        <ele>922.04</ele>
        <time>2015-09-11T12:29:01Z</time>
      </trkpt>
      <trkpt lat="42.12835" lon="9.13299">
        <ele>922.04</ele>
        <time>2015-09-11T12:29:34Z</time>
      </trkpt>
      <trkpt lat="42.12838" lon="9.13303">
        <ele>921.56</ele>
        <time>2015-09-11T12:30:00Z</time>
      </trkpt>
      <trkpt lat="42.12833" lon="9.13313">
        <ele>921.56</ele>
        <time>2015-09-11T12:30:32Z</time>
      </trkpt>
      <trkpt lat="42.12834" lon="9.13289">
        <ele>921.08</ele>
        <time>2015-09-11T12:31:00Z</time>
      </trkpt>
      <trkpt lat="42.12837" lon="9.13288">
        <ele>921.08</ele>
        <time>2015-09-11T12:31:31Z</time>
      </trkpt>
      <trkpt lat="42.12833" lon="9.13291">
        <ele>921.08</ele>
        <time>2015-09-11T12:31:57Z</time>
      </trkpt>
      <trkpt lat="42.12836" lon="9.13303">
        <ele>921.56</ele>
        <time>2015-09-11T12:32:26Z</time>
      </trkpt>
      <trkpt lat="42.12835" lon="9.13303">
        <ele>922.52</ele>
        <time>2015-09-11T12:32:41Z</time>
      </trkpt>
      <trkpt lat="42.12839" lon="9.1329">
        <ele>923</ele>
        <time>2015-09-11T12:33:00Z</time>
      </trkpt>
    </trkseg>
  </trk>
</gpx>